Provisional Data: Ninemile Run near Walton, PA


Please select a monitoring station.
Please select start date.
Please select start date.

Toggle Unit: C/F Toggle Unit: C/F
Sample Time Temperature (C) Temperature (F) Specific Conductivity (mS/cm) pH   Turbidity (NTU+) DO (mg/L)
8/1/2022 12:00:00 AM 16.82 62.276 0.086 7.1 1.14 9.18
8/1/2022 12:15:00 AM 16.72 62.096 0.086 7.1 1.32 9.19
8/1/2022 12:30:00 AM 16.62 61.916 0.086 7.09 1.48 9.22
8/1/2022 12:45:00 AM 16.52 61.736 0.086 7.09 1.36 9.25
8/1/2022 1:00:00 AM 16.42 61.556 0.086 7.09 1.47 9.28
8/1/2022 1:15:00 AM 16.33 61.394 0.086 7.1 1.27 9.3
8/1/2022 1:30:00 AM 16.24 61.232 0.086 7.09 2 9.32
8/1/2022 1:45:00 AM 16.14 61.052 0.086 7.09 1.12 9.35
8/1/2022 2:00:00 AM 16.06 60.908 0.086 7.09 1.27 9.37
8/1/2022 2:15:00 AM 15.97 60.746 0.086 7.08 1.12 9.34
8/1/2022 2:30:00 AM 15.89 60.602 0.086 7.08 1.43 9.4
8/1/2022 2:45:00 AM 15.83 60.494 0.086 7.09 1.28 9.43
8/1/2022 3:00:00 AM 15.77 60.386 0.086 7.09 1.52 9.46
8/1/2022 3:15:00 AM 15.73 60.314 0.086 7.09 1.24 9.48
8/1/2022 3:30:00 AM 15.69 60.242 0.086 7.08 1.3 9.48
8/1/2022 3:45:00 AM 15.66 60.188 0.086 7.09 1.22 9.5
8/1/2022 4:00:00 AM 15.63 60.134 0.086 7.09 1.09 9.51
8/1/2022 4:15:00 AM 15.62 60.116 0.086 7.08 1.15 9.51
8/1/2022 4:30:00 AM 15.58 60.044 0.087 7.09 1.35 9.52
8/1/2022 4:45:00 AM 15.54 59.972 0.087 7.08 1.18 9.44
8/1/2022 5:00:00 AM 15.51 59.918 0.087 7.08 1.11 9.53
8/1/2022 5:15:00 AM 15.48 59.864 0.086 7.07 1.23 9.5
8/1/2022 5:30:00 AM 15.43 59.774 0.087 7.08 1.25 9.53
8/1/2022 5:45:00 AM 15.39 59.702 0.087 7.07 2.77 9.52
8/1/2022 6:00:00 AM 15.36 59.648 0.086 7.09 1.6 9.56
8/1/2022 6:15:00 AM 15.33 59.594 0.086 7.09 1.42 9.59
8/1/2022 6:30:00 AM 15.31 59.558 0.086 7.09 1.35 9.6
8/1/2022 6:45:00 AM 15.29 59.522 0.086 7.09 1.92 9.62
8/1/2022 7:00:00 AM 15.27 59.486 0.086 7.1 1.24 9.66
8/1/2022 7:15:00 AM 15.26 59.468 0.086 7.1 1.3 9.71
8/1/2022 7:30:00 AM 15.26 59.468 0.086 7.12 1.42 9.77
8/1/2022 7:45:00 AM 15.28 59.504 0.086 7.13 1.54 9.84
8/1/2022 8:00:00 AM 15.31 59.558 0.086 7.14 1.4 9.92
8/1/2022 8:15:00 AM 15.35 59.63 0.086 7.16 1.27 10.02
8/1/2022 8:30:00 AM 15.41 59.738 0.085 7.17 1.15 10.09
8/1/2022 8:45:00 AM 15.47 59.846 0.085 7.19 1.32 10.16
8/1/2022 9:00:00 AM 15.58 60.044 0.085 7.21 1.25 10.25
8/1/2022 9:15:00 AM 15.66 60.188 0.084 7.24 1.18 10.29
8/1/2022 9:30:00 AM 15.74 60.332 0.084 7.25 1.21 10.34
8/1/2022 9:45:00 AM 15.85 60.53 0.084 7.26 1.32 10.38
8/1/2022 10:00:00 AM 15.97 60.746 0.084 7.27 1.11 10.42
8/1/2022 10:15:00 AM 16.12 61.016 0.083 7.32 1.06 10.46
8/1/2022 10:30:00 AM 16.26 61.268 0.083 7.32 1.13 10.49
8/1/2022 10:45:00 AM 16.43 61.574 0.083 7.34 1.16 10.49
8/1/2022 11:00:00 AM 16.62 61.916 0.082 7.36 1.13 10.5
8/1/2022 11:15:00 AM 16.86 62.348 0.082 7.37 1.11 10.48
8/1/2022 11:30:00 AM 17.23 63.014 0.082 7.41 1.15 10.49
8/1/2022 11:45:00 AM 17.69 63.842 0.081 7.32 29.22 10.41
8/1/2022 12:00:00 PM 18.1 64.58 0.081 7.42 4.73 10.41
8/1/2022 12:15:00 PM 18.46 65.228 0.081 7.45 2.72 10.35
8/1/2022 12:30:00 PM 18.68 65.624 0.081 7.43 2 10.24
8/1/2022 12:45:00 PM 18.97 66.146 0.081 7.44 6.89 10.18
8/1/2022 1:00:00 PM 19.23 66.614 0.08 7.46 1.68 10.13
8/1/2022 1:15:00 PM 19.57 67.226 0.08 7.48 2.67 10.09
8/1/2022 1:30:00 PM 19.96 67.92799 0.08 7.51 1.63 9.99
8/1/2022 1:45:00 PM 20.36 68.648 0.08 7.51 1.24 9.92
8/1/2022 2:00:00 PM 20.64 69.152 0.08 7.52 1.31 9.88
8/1/2022 2:15:00 PM 20.99 69.782 0.08 7.53 1.28 9.79
8/1/2022 2:30:00 PM 21.15 70.07 0.08 7.51 1.28 9.73
8/1/2022 2:45:00 PM 21.29 70.32201 0.08 7.5 1.31 9.72
8/1/2022 3:00:00 PM 21.42 70.556 0.08 7.51 1.18 9.62
8/1/2022 3:15:00 PM 21.58 70.844 0.08 7.45 1.17 9.58
8/1/2022 3:30:00 PM 21.63 70.934 0.08 7.51 1.45 9.56
8/1/2022 3:45:00 PM 21.76 71.168 0.08 7.5 1.22 9.46
8/1/2022 4:00:00 PM 21.82 71.276 0.08 7.49 1.23 9.4
8/1/2022 4:15:00 PM 21.89 71.402 0.08 7.48 1.29 9.33
8/1/2022 4:30:00 PM 21.99 71.582 0.08 7.47 1.18 9.31
8/1/2022 4:45:00 PM 22 71.6 0.08 7.45 1.38 9.26
8/1/2022 5:00:00 PM 22.12 71.816 0.08 7.48 1.3 9.26
8/1/2022 5:15:00 PM 22.13 71.834 0.08 7.46 1.92 9.21
8/1/2022 5:30:00 PM 22.12 71.816 0.08 7.43 1.28 9.12
8/1/2022 5:45:00 PM 22.06 71.708 0.08 7.4 1.23 9.06
8/1/2022 6:00:00 PM 21.97 71.546 0.08 7.37 1.31 8.96
8/1/2022 6:15:00 PM 21.88 71.384 0.08 7.33 1.47 8.88
8/1/2022 6:30:00 PM 21.7 71.06 0.081 7.3 1.27 8.77
8/1/2022 6:45:00 PM 21.59 70.862 0.081 7.29 1.35 8.77
8/1/2022 7:00:00 PM 21.38 70.484 0.081 7.28 1.33 8.72
8/1/2022 7:15:00 PM 21.2 70.16 0.082 7.25 1.31 8.64
8/1/2022 7:30:00 PM 21.03 69.854 0.082 7.18 1.39 8.47
8/1/2022 7:45:00 PM 20.89 69.602 0.082 7.19 1.25 8.55
8/1/2022 8:00:00 PM 20.7 69.26 0.083 7.2 1.32 8.55
8/1/2022 8:15:00 PM 20.47 68.846 0.083 7.14 1.25 8.47
8/1/2022 8:30:00 PM 20.3 68.54 0.083 7.17 1.23 8.55
8/1/2022 8:45:00 PM 20.13 68.234 0.083 7.16 1.76 8.53
8/1/2022 9:00:00 PM 19.98 67.964 0.084 7.14 1.41 8.5
8/1/2022 9:15:00 PM 19.81 67.658 0.084 7.12 1.57 8.48
8/1/2022 9:30:00 PM 19.65 67.37 0.084 7.11 1.56 8.46
8/1/2022 9:45:00 PM 19.55 67.19 0.084 7.1 1.58 8.48
8/1/2022 10:00:00 PM 19.38 66.884 0.085 7.11 1.42 8.53
8/1/2022 10:15:00 PM 19.26 66.668 0.085 7.1 1.65 8.55
8/1/2022 10:30:00 PM 19.18 66.524 0.085 7.08 1.39 8.52
8/1/2022 10:45:00 PM 19.04 66.272 0.085 7.09 1.2 8.57
8/1/2022 11:00:00 PM 18.94 66.092 0.085 7.07 1.57 8.54
8/1/2022 11:15:00 PM 18.84 65.912 0.085 7.06 1.29 8.56
8/1/2022 11:30:00 PM 18.7 65.66 0.086 7.08 1.69 8.61
8/1/2022 11:45:00 PM 18.61 65.498 0.086 7.07 1.91 8.61
8/2/2022 12:00:00 AM 18.5 65.3 0.086 7.07 1.24 8.61
8/2/2022 12:15:00 AM 18.4 65.12 0.086 7.05 4.24 8.56
8/2/2022 12:30:00 AM 18.27 64.886 0.086 7.06 1.26 8.66
8/2/2022 12:45:00 AM 18.19 64.742 0.086 7.06 1.32 8.7
8/2/2022 1:00:00 AM 18.1 64.58 0.086 7.06 1.53 8.73
8/2/2022 1:15:00 AM 18.01 64.418 0.086 7.06 1.22 8.77
8/2/2022 1:30:00 AM 17.93 64.274 0.086 7.07 1.26 8.79
8/2/2022 1:45:00 AM 17.83 64.094 0.086 7.06 1.32 8.8
8/2/2022 2:00:00 AM 17.75 63.95 0.086 7.07 1.17 8.86
8/2/2022 2:15:00 AM 17.69 63.842 0.086 7.07 1.22 8.88
8/2/2022 2:30:00 AM 17.64 63.752 0.086 7.05 1.25 8.79
8/2/2022 2:45:00 AM 17.59 63.662 0.086 7.04 33.61 8.77
8/2/2022 3:00:00 AM 17.54 63.572 0.086 7.04 1.3 8.85
8/2/2022 3:15:00 AM 17.5 63.5 0.086 7.06 1.11 8.91
8/2/2022 3:30:00 AM 17.45 63.41 0.086 7.06 1.21 8.94
8/2/2022 3:45:00 AM 17.4 63.32 0.086 7.06 1.5 8.93
8/2/2022 4:00:00 AM 17.36 63.248 0.086 7.06 1.52 8.97
8/2/2022 4:15:00 AM 17.32 63.176 0.087 7.06 1.2 8.98
8/2/2022 4:30:00 AM 17.29 63.122 0.087 7.06 1.11 9.01
8/2/2022 4:45:00 AM 17.26 63.068 0.087 7.07 1.16 9.01
8/2/2022 5:00:00 AM 17.23 63.014 0.087 7.05 1.21 9.01
8/2/2022 5:15:00 AM 17.19 62.942 0.087 7.06 1.32 9.02
8/2/2022 5:30:00 AM 17.14 62.852 0.087 7.06 1.19 9.02
8/2/2022 5:45:00 AM 17.09 62.762 0.087 7.06 3.05 9.04
8/2/2022 6:00:00 AM 17.07 62.726 0.087 7.05 1.24 9.04
8/2/2022 6:15:00 AM 17.03 62.654 0.087 7.05 1.24 9.04
8/2/2022 6:30:00 AM 17 62.6 0.087 7.04 1.16 9.06
8/2/2022 6:45:00 AM 16.95 62.51 0.087 7.04 1.84 9.07
8/2/2022 7:00:00 AM 16.93 62.474 0.086 7.04 3.68 9.11
8/2/2022 7:15:00 AM 16.91 62.438 0.086 7.06 1.82 9.23
8/2/2022 7:30:00 AM 16.9 62.42 0.086 7.07 1.35 9.3
8/2/2022 7:45:00 AM 16.9 62.42 0.086 7.08 1.16 9.35
8/2/2022 8:00:00 AM 16.91 62.438 0.086 7.08 1.22 9.39
8/2/2022 8:15:00 AM 16.95 62.51 0.086 7.1 1.34 9.47
8/2/2022 8:30:00 AM 16.99 62.582 0.086 7.1 1.37 9.55
8/2/2022 8:45:00 AM 17.05 62.69 0.086 7.12 1.26 9.64
8/2/2022 9:00:00 AM 17.12 62.816 0.085 7.14 1.16 9.71
8/2/2022 9:15:00 AM 17.23 63.014 0.085 7.15 3.54 9.8
8/2/2022 9:30:00 AM 17.33 63.194 0.084 7.19 1.3 9.85
8/2/2022 9:45:00 AM 17.44 63.392 0.084 7.21 1.15 9.9
8/2/2022 10:00:00 AM 17.62 63.716 0.084 7.25 1.22 9.97
8/2/2022 10:15:00 AM 17.78 64.004 0.083 7.26 1.16 9.99
8/2/2022 10:30:00 AM 18.04 64.472 0.083 7.31 1.14 10.07
8/2/2022 10:45:00 AM 18.32 64.976 0.083 7.34 1.24 10.1
8/2/2022 11:00:00 AM 18.61 65.498 0.082 7.36 1.41 10.09
8/2/2022 11:15:00 AM 18.87 65.966 0.082 7.37 1.08 10.07
8/2/2022 11:30:00 AM 19.19 66.542 0.082 7.38 1.29 10.07
8/2/2022 11:45:00 AM 19.62 67.316 0.081 7.43 1.04 10.03
8/2/2022 12:00:00 PM 19.88 67.784 0.081 7.42 2.19 9.97
8/2/2022 12:15:00 PM 20.15 68.27 0.081 7.44 1.23 9.9
8/2/2022 12:30:00 PM 20.48 68.864 0.081 7.44 1.43 9.82
8/2/2022 12:45:00 PM 20.82 69.476 0.081 7.42 1.23 9.74
8/2/2022 1:00:00 PM 21.19 70.142 0.081 7.47 1.2 9.74
8/2/2022 1:15:00 PM 21.45 70.61 0.081 7.47 1.17 9.68
8/2/2022 1:30:00 PM 21.67 71.006 0.081 7.47 1.22 9.58
8/2/2022 1:45:00 PM 21.93 71.474 0.08 7.49 1.25 9.54
8/2/2022 2:00:00 PM 22.22 71.996 0.08 7.47 1.2 9.44
8/2/2022 2:15:00 PM 22.37 72.266 0.08 7.47 1.48 9.4
8/2/2022 2:30:00 PM 22.54 72.57201 0.08 7.46 1.4 9.33
8/2/2022 2:45:00 PM 22.62 72.716 0.08 7.43 1.23 9.24
8/2/2022 3:00:00 PM 22.75 72.95 0.08 7.44 1.24 9.19
8/2/2022 3:15:00 PM 22.8 73.04 0.08 7.46 1.49 9.21
8/2/2022 3:30:00 PM 22.8 73.04 0.08 7.44 1.26 9.19
8/2/2022 3:45:00 PM 22.88 73.184 0.08 7.44 1.16 9.09
8/2/2022 4:00:00 PM 22.92 73.256 0.08 7.43 1.34 9.06
8/2/2022 4:15:00 PM 22.98 73.364 0.08 7.46 1.23 9.08
8/2/2022 4:30:00 PM 23.01 73.418 0.08 7.44 1.37 9.03
8/2/2022 4:45:00 PM 23.03 73.454 0.08 7.41 1.3 8.91
8/2/2022 5:00:00 PM 23.03 73.454 0.08 7.4 1.45 8.86
8/2/2022 5:15:00 PM 23.01 73.418 0.08 7.38 1.32 8.8
8/2/2022 5:30:00 PM 22.98 73.364 0.081 7.37 1.44 8.79
8/2/2022 5:45:00 PM 22.9 73.22 0.081 7.33 1.64 8.63
8/2/2022 6:00:00 PM 22.86 73.148 0.081 7.29 1.52 8.57
8/2/2022 6:15:00 PM 22.76 72.968 0.081 7.25 1.5 8.47
8/2/2022 6:30:00 PM 22.6 72.68 0.081 7.2 1.42 8.32
8/2/2022 6:45:00 PM 22.5 72.5 0.081 7.26 1.42 8.45
8/2/2022 7:00:00 PM 22.32 72.176 0.082 7.21 1.4 8.31
8/2/2022 7:15:00 PM 22.18 71.924 0.082 7.18 1.29 8.27
8/2/2022 7:30:00 PM 21.92 71.456 0.083 7.19 1.22 8.3
8/2/2022 7:45:00 PM 21.67 71.006 0.083 7.16 1.35 8.29
8/2/2022 8:00:00 PM 21.43 70.574 0.083 7.18 1.19 8.34
8/2/2022 8:15:00 PM 21.14 70.052 0.083 7.18 1.33 8.4
8/2/2022 8:30:00 PM 20.94 69.692 0.084 7.15 1.42 8.35
8/2/2022 8:45:00 PM 20.63 69.134 0.084 7.16 1.42 8.4
8/2/2022 9:00:00 PM 20.31 68.558 0.084 7.15 1.55 8.43
8/2/2022 9:15:00 PM 20.09 68.162 0.084 7.14 1.8 8.45
8/2/2022 9:30:00 PM 19.91 67.838 0.085 7.13 1.44 8.45
8/2/2022 9:45:00 PM 19.71 67.478 0.085 7.12 1.42 8.45
8/2/2022 10:00:00 PM 19.54 67.172 0.085 7.11 1.49 8.49
8/2/2022 10:15:00 PM 19.3 66.74 0.085 7.11 1.26 8.56
8/2/2022 10:30:00 PM 19.17 66.506 0.085 7.11 1.43 8.58
8/2/2022 10:45:00 PM 19.01 66.218 0.085 7.1 1.4 8.59
8/2/2022 11:00:00 PM 18.87 65.966 0.085 7.1 1.45 8.6
8/2/2022 11:15:00 PM 18.72 65.696 0.085 7.09 1.4 8.64
8/2/2022 11:30:00 PM 18.58 65.444 0.086 7.09 1.35 8.65
8/2/2022 11:45:00 PM 18.44 65.192 0.086 7.08 1.32 8.67
8/3/2022 12:00:00 AM 18.27 64.886 0.086 7.09 1.4 8.73
8/3/2022 12:15:00 AM 18.16 64.688 0.086 7.09 1.29 8.75
8/3/2022 12:30:00 AM 18.02 64.436 0.086 7.09 1.32 8.77
8/3/2022 12:45:00 AM 17.85 64.13 0.086 7.08 1.31 8.82
8/3/2022 1:00:00 AM 17.72 63.896 0.086 7.09 1.22 8.87
8/3/2022 1:15:00 AM 17.6 63.68 0.086 7.08 1.23 8.9
8/3/2022 1:30:00 AM 17.46 63.428 0.086 7.08 1.2 8.93
8/3/2022 1:45:00 AM 17.32 63.176 0.086 7.08 1.29 8.97
8/3/2022 2:00:00 AM 17.17 62.906 0.086 7.09 1.27 9.02
8/3/2022 2:15:00 AM 17.04 62.672 0.086 7.08 1.45 9.04
8/3/2022 2:30:00 AM 16.9 62.42 0.086 7.08 1.28 9.09
8/3/2022 2:45:00 AM 16.77 62.186 0.086 7.08 1.39 9.12
8/3/2022 3:00:00 AM 16.65 61.97 0.086 7.09 1.25 9.18
8/3/2022 3:15:00 AM 16.52 61.736 0.086 7.09 1.28 9.21
8/3/2022 3:30:00 AM 16.4 61.52 0.086 7.09 1.18 9.24
8/3/2022 3:45:00 AM 16.28 61.304 0.086 7.09 1.29 9.27
8/3/2022 4:00:00 AM 16.16 61.088 0.086 7.09 1.21 9.29
8/3/2022 4:15:00 AM 16.02 60.836 0.086 7.09 1.25 9.34
8/3/2022 4:30:00 AM 15.92 60.656 0.086 7.09 1.39 9.35
8/3/2022 4:45:00 AM 15.82 60.476 0.086 7.09 1.45 9.38
8/3/2022 5:00:00 AM 15.7 60.26 0.086 7.09 1.18 9.41
8/3/2022 5:15:00 AM 15.59 60.062 0.086 7.09 1.3 9.44
8/3/2022 5:30:00 AM 15.48 59.864 0.086 7.09 1.72 9.47
8/3/2022 5:45:00 AM 15.37 59.666 0.086 7.09 1.25 9.49
8/3/2022 6:00:00 AM 15.28 59.504 0.086 7.09 1.29 9.52
8/3/2022 6:15:00 AM 15.17 59.306 0.086 7.1 1.25 9.57
8/3/2022 6:30:00 AM 15.09 59.162 0.086 7.1 1.64 9.6
8/3/2022 6:45:00 AM 14.99 58.982 0.086 7.1 1.22 9.66
8/3/2022 7:00:00 AM 14.91 58.838 0.086 7.1 1.4 9.7
8/3/2022 7:15:00 AM 14.84 58.712 0.086 7.11 1.3 9.76
8/3/2022 7:30:00 AM 14.8 58.64 0.086 7.12 1.82 9.81
8/3/2022 7:45:00 AM 14.78 58.604 0.086 7.13 1.83 9.92
8/3/2022 8:00:00 AM 14.77 58.586 0.085 7.15 1.21 9.99
8/3/2022 8:15:00 AM 14.77 58.586 0.085 7.17 1.16 10.08
8/3/2022 8:30:00 AM 14.81 58.658 0.085 7.18 1.39 10.15
8/3/2022 8:45:00 AM 14.88 58.784 0.085 7.2 1.29 10.2
8/3/2022 9:00:00 AM 14.98 58.964 0.085 7.22 1.18 10.23
8/3/2022 9:15:00 AM 15.12 59.216 0.084 7.23 1.25 10.3
8/3/2022 9:30:00 AM 15.28 59.504 0.084 7.24 1.13 10.32
8/3/2022 9:45:00 AM 15.57 60.026 0.084 7.25 1.13 10.35
8/3/2022 10:00:00 AM 15.92 60.656 0.083 7.28 1.9 10.38
8/3/2022 10:15:00 AM 16.3 61.34 0.083 7.31 1.22 10.41
8/3/2022 10:30:00 AM 16.71 62.078 0.083 7.34 1.15 10.43
8/3/2022 10:45:00 AM 17.09 62.762 0.082 7.35 1.18 10.4
8/3/2022 11:00:00 AM 17.5 63.5 0.082 7.37 1.1 10.38
8/3/2022 11:15:00 AM 17.82 64.076 0.082 7.37 1.26 10.39
8/3/2022 11:30:00 AM 18.17 64.706 0.082 7.39 1.16 10.32
8/3/2022 11:45:00 AM 18.62 65.516 0.082 7.42 1.27 10.25
8/3/2022 12:00:00 PM 18.98 66.164 0.081 7.43 1.32 10.13
8/3/2022 12:15:00 PM 19.35 66.83 0.081 7.45 1.32 10.13
8/3/2022 12:30:00 PM 19.65 67.37 0.081 7.46 1.22 10.09
8/3/2022 12:45:00 PM 20.02 68.036 0.081 7.47 1.28 9.98
8/3/2022 1:00:00 PM 20.36 68.648 0.081 7.46 1.31 9.93
8/3/2022 1:15:00 PM 20.72 69.296 0.081 7.47 1.4 9.87
8/3/2022 1:30:00 PM 21.03 69.854 0.081 7.49 1.32 9.79
8/3/2022 1:45:00 PM 21.36 70.448 0.081 7.49 1.26 9.74
8/3/2022 2:00:00 PM 21.65 70.97 0.081 7.5 1.25 9.69
8/3/2022 2:15:00 PM 21.9 71.42 0.081 7.51 1.27 9.6
8/3/2022 2:30:00 PM 22.12 71.816 0.081 7.49 1.26 9.48
8/3/2022 2:45:00 PM 22.32 72.176 0.081 7.48 1.26 9.47
8/3/2022 3:00:00 PM 22.56 72.608 0.081 7.48 1.27 9.36
8/3/2022 3:15:00 PM 22.73 72.914 0.081 7.49 1.25 9.31
8/3/2022 3:30:00 PM 22.9 73.22 0.081 7.48 1.5 9.27
8/3/2022 3:45:00 PM 23.07 73.526 0.08 7.42 1.22 9.04
8/3/2022 4:00:00 PM 23.23 73.814 0.08 7.45 1.17 8.98
8/3/2022 4:15:00 PM 23.35 74.03 0.081 7.41 1.28 8.83
8/3/2022 4:30:00 PM 23.48 74.264 0.081 7.4 1.36 8.67
8/3/2022 4:45:00 PM 23.54 74.372 0.081 7.39 1.29 8.86
8/3/2022 5:00:00 PM 23.57 74.426 0.081 7.42 1.39 8.87
8/3/2022 5:15:00 PM 23.67 74.606 0.081 7.38 1.17 8.78
8/3/2022 5:30:00 PM 23.61 74.498 0.081 7.35 1.27 8.69
8/3/2022 5:45:00 PM 23.6 74.48 0.081 7.31 1.46 8.61
8/3/2022 6:00:00 PM 23.61 74.498 0.081 7.3 1.34 8.56
8/3/2022 6:15:00 PM 23.5 74.3 0.081 7.26 1.45 8.42
8/3/2022 6:30:00 PM 23.38 74.084 0.081 7.24 1.65 8.36
8/3/2022 6:45:00 PM 23.18 73.724 0.081 7.27 1.32 8.39
8/3/2022 7:00:00 PM 23.05 73.49 0.082 7.24 1.39 8.36
8/3/2022 7:15:00 PM 22.86 73.148 0.082 7.21 1.23 8.29
8/3/2022 7:30:00 PM 22.61 72.698 0.082 7.2 1.33 8.25
8/3/2022 7:45:00 PM 22.41 72.338 0.083 7.19 1.27 8.28
8/3/2022 8:00:00 PM 22.16 71.888 0.083 7.18 1.26 8.29
8/3/2022 8:15:00 PM 21.9 71.42 0.083 7.15 1.26 8.27
8/3/2022 8:30:00 PM 21.6 70.88 0.084 7.15 1.23 8.27
8/3/2022 8:45:00 PM 21.39 70.502 0.084 7.14 1.33 8.27
8/3/2022 9:00:00 PM 21.13 70.034 0.084 7.13 1.39 8.28
8/3/2022 9:15:00 PM 20.92 69.656 0.084 7.13 1.41 8.29
8/3/2022 9:30:00 PM 20.74 69.332 0.085 7.11 1.43 8.3
8/3/2022 9:45:00 PM 20.53 68.954 0.085 7.1 1.48 8.3
8/3/2022 10:00:00 PM 20.37 68.666 0.085 7.1 1.41 8.33
8/3/2022 10:15:00 PM 20.23 68.414 0.085 7.09 1.29 8.35
8/3/2022 10:30:00 PM 20.12 68.216 0.085 7.08 1.5 8.33
8/3/2022 10:45:00 PM 19.97 67.946 0.085 7.07 1.31 8.36
8/3/2022 11:00:00 PM 19.83 67.694 0.086 7.07 1.53 8.39
8/3/2022 11:15:00 PM 19.72 67.496 0.086 7.07 1.3 8.39
8/3/2022 11:30:00 PM 19.59 67.262 0.086 7.06 1.51 8.39
8/3/2022 11:45:00 PM 19.46 67.028 0.086 7.06 1.32 8.44
8/4/2022 12:00:00 AM 19.35 66.83 0.086 7.06 1.29 8.45
8/4/2022 12:15:00 AM 19.2 66.56 0.086 7.06 1.44 8.52
8/4/2022 12:30:00 AM 19.12 66.416 0.086 7.06 1.57 8.49
8/4/2022 12:45:00 AM 19.01 66.218 0.086 7.06 1.36 8.52
8/4/2022 1:00:00 AM 18.88 65.984 0.086 7.06 1.37 8.59
8/4/2022 1:15:00 AM 18.79 65.82201 0.087 7.05 1.64 8.58
8/4/2022 1:30:00 AM 18.68 65.624 0.087 7.05 1.99 8.6
8/4/2022 1:45:00 AM 18.58 65.444 0.087 7.05 1.32 8.63
8/4/2022 2:00:00 AM 18.48 65.264 0.087 7.05 1.38 8.68
8/4/2022 2:15:00 AM 18.4 65.12 0.087 7.05 1.51 8.69
8/4/2022 2:30:00 AM 18.32 64.976 0.087 7.04 1.46 8.69
8/4/2022 2:45:00 AM 18.23 64.814 0.087 7.03 1.6 8.67
8/4/2022 3:00:00 AM 18.13 64.634 0.087 7.04 1.46 8.73
8/4/2022 3:15:00 AM 18.08 64.544 0.087 7.05 1.34 8.76
8/4/2022 3:30:00 AM 18.02 64.436 0.087 7.04 1.32 8.77
8/4/2022 3:45:00 AM 17.93 64.274 0.087 7.04 1.63 8.77
8/4/2022 4:00:00 AM 17.86 64.148 0.087 7.03 1.34 8.79
8/4/2022 4:15:00 AM 17.78 64.004 0.087 7.04 1.24 8.84
8/4/2022 4:30:00 AM 17.7 63.86 0.087 7.04 1.22 8.85
8/4/2022 4:45:00 AM 17.62 63.716 0.087 7.04 1.23 8.87
8/4/2022 5:00:00 AM 17.55 63.59 0.087 7.04 1.54 8.88
8/4/2022 5:15:00 AM 17.48 63.464 0.087 7.03 1.38 8.88
8/4/2022 5:30:00 AM 17.42 63.356 0.087 7.04 1.33 8.92
8/4/2022 5:45:00 AM 17.35 63.23 0.087 7.02 2.01 8.89
8/4/2022 6:00:00 AM 17.27 63.086 0.087 7.03 1.36 8.94
8/4/2022 6:15:00 AM 17.19 62.942 0.087 7.03 1.29 8.98
8/4/2022 6:30:00 AM 17.12 62.816 0.087 7.03 1.47 8.99
8/4/2022 6:45:00 AM 17.07 62.726 0.087 7.04 1.75 9.01
8/4/2022 7:00:00 AM 17.01 62.618 0.087 7.03 1.78 9.04
8/4/2022 7:15:00 AM 16.94 62.492 0.087 7.04 1.88 9.13
8/4/2022 7:30:00 AM 16.9 62.42 0.087 7.06 1.47 9.22
8/4/2022 7:45:00 AM 16.88 62.384 0.087 7.06 1.47 9.22
8/4/2022 8:00:00 AM 16.88 62.384 0.086 7.07 1.47 9.32
8/4/2022 8:15:00 AM 16.9 62.42 0.086 7.08 1.32 9.44
8/4/2022 8:30:00 AM 16.94 62.492 0.086 7.1 1.37 9.48
8/4/2022 8:45:00 AM 17 62.6 0.086 7.12 1.39 9.58
8/4/2022 9:00:00 AM 17.09 62.762 0.086 7.13 1.4 9.69
8/4/2022 9:15:00 AM 17.22 62.996 0.085 7.15 1.32 9.77
8/4/2022 9:30:00 AM 17.42 63.356 0.085 7.18 1.3 9.88
8/4/2022 9:45:00 AM 17.74 63.932 0.084 7.22 2.37 9.99
8/4/2022 10:00:00 AM 18.02 64.436 0.084 7.27 1.44 10.07
8/4/2022 10:15:00 AM 18.33 64.994 0.083 7.31 1.61 10.11
8/4/2022 10:30:00 AM 18.71 65.67799 0.083 7.34 1.26 10.12
8/4/2022 10:45:00 AM 19.13 66.434 0.082 7.37 1.35 10.18
8/4/2022 11:00:00 AM 19.54 67.172 0.082 7.39 1.45 10.12
8/4/2022 11:15:00 AM 19.84 67.712 0.082 7.4 1.33 10.11
8/4/2022 11:30:00 AM 20.11 68.198 0.082 7.41 1.25 10.04
8/4/2022 11:45:00 AM 20.49 68.882 0.081 7.45 1.34 9.96
8/4/2022 12:00:00 PM 20.87 69.566 0.081 7.45 1.45 9.9
8/4/2022 12:15:00 PM 21.25 70.25 0.081 7.48 1.36 9.9
8/4/2022 12:30:00 PM 21.53 70.754 0.081 7.49 1.54 9.85
8/4/2022 12:45:00 PM 21.9 71.42 0.081 7.51 1.27 9.8
8/4/2022 1:00:00 PM 22.11 71.798 0.081 7.48 1.35 9.65
8/4/2022 1:15:00 PM 22.09 71.762 0.081 7.46 1.4 9.59
8/4/2022 1:30:00 PM 21.87 71.366 0.081 7.34 1.91 9.16
8/4/2022 1:45:00 PM 21.77 71.186 0.08 7.3 2 8.95
8/4/2022 2:00:00 PM 21.62 70.916 0.081 7.28 1.58 8.82
8/4/2022 2:15:00 PM 21.5 70.7 0.081 7.23 2.99 8.81
8/4/2022 2:30:00 PM 21.38 70.484 0.081 7.26 1.46 8.82
8/4/2022 2:45:00 PM 21.27 70.286 0.081 7.25 1.51 8.86
8/4/2022 3:00:00 PM 21.23 70.214 0.081 7.27 1.48 8.95
8/4/2022 3:15:00 PM 21.18 70.124 0.081 7.31 1.33 9.18
8/4/2022 3:30:00 PM 21.12 70.016 0.08 7.35 1.43 9.35
8/4/2022 3:45:00 PM 21.04 69.872 0.08 7.36 1.34 9.41
8/4/2022 4:00:00 PM 21 69.8 0.08 7.39 1.39 9.46
8/4/2022 4:15:00 PM 21.02 69.836 0.08 7.38 1.37 9.48
8/4/2022 4:30:00 PM 21.04 69.872 0.08 7.35 1.58 9.43
8/4/2022 4:45:00 PM 21.04 69.872 0.08 7.35 1.5 9.43
8/4/2022 5:00:00 PM 21.06 69.908 0.08 7.39 1.28 9.46
8/4/2022 5:15:00 PM 21.08 69.944 0.08 7.39 1.4 9.44
8/4/2022 5:30:00 PM 21.11 69.998 0.08 7.38 1.47 9.4
8/4/2022 5:45:00 PM 21.11 69.998 0.08 7.35 1.66 9.34
8/4/2022 6:00:00 PM 21.1 69.98 0.08 7.33 1.59 9.29
8/4/2022 6:15:00 PM 21.06 69.908 0.08 7.3 1.67 9.22
8/4/2022 6:30:00 PM 21.03 69.854 0.08 7.28 1.66 9.16
8/4/2022 6:45:00 PM 20.98 69.764 0.081 7.24 1.37 9.06
8/4/2022 7:00:00 PM 20.91 69.638 0.081 7.2 1.33 9
8/4/2022 7:15:00 PM 20.8 69.44 0.081 7.24 1.43 9.04
8/4/2022 7:30:00 PM 20.71 69.278 0.081 7.22 1.27 8.97
8/4/2022 7:45:00 PM 20.59 69.062 0.081 7.23 1.37 8.93
8/4/2022 8:00:00 PM 20.5 68.9 0.082 7.18 2.85 8.81
8/4/2022 8:15:00 PM 20.38 68.684 0.082 7.17 1.6 8.73
8/4/2022 8:30:00 PM 20.24 68.432 0.082 7.14 1.54 8.65
8/4/2022 8:45:00 PM 20.08 68.144 0.083 7.14 1.59 8.62
8/4/2022 9:00:00 PM 19.96 67.92799 0.083 7.13 1.46 8.65
8/4/2022 9:15:00 PM 19.8 67.64 0.083 7.12 1.76 8.66
8/4/2022 9:30:00 PM 19.68 67.424 0.084 7.11 1.84 8.67
8/4/2022 9:45:00 PM 19.57 67.226 0.084 7.11 1.61 8.7
8/4/2022 10:00:00 PM 19.46 67.028 0.084 7.09 1.82 8.7
8/4/2022 10:15:00 PM 19.36 66.848 0.084 7.09 2.13 8.69
8/4/2022 10:30:00 PM 19.28 66.704 0.084 7.08 1.51 8.71
8/4/2022 10:45:00 PM 19.21 66.578 0.084 7.06 1.75 8.71
8/4/2022 11:00:00 PM 19.16 66.488 0.084 7.06 1.46 8.71
8/4/2022 11:15:00 PM 19.1 66.38 0.084 7.06 1.62 8.72
8/4/2022 11:30:00 PM 19.07 66.326 0.084 7.04 1.64 8.7
8/4/2022 11:45:00 PM 19.02 66.236 0.084 7.04 1.44 8.69
8/5/2022 12:00:00 AM 18.98 66.164 0.084 7.03 1.7 8.69
8/5/2022 12:15:00 AM 18.93 66.074 0.085 7.04 1.52 8.72
8/5/2022 12:30:00 AM 18.88 65.984 0.085 7.03 1.38 8.73
8/5/2022 12:45:00 AM 18.85 65.93 0.085 7.01 1.57 8.66
8/5/2022 1:00:00 AM 18.8 65.84 0.085 7.02 2.54 8.67
8/5/2022 1:15:00 AM 18.75 65.75 0.085 7.01 1.44 8.69
8/5/2022 1:30:00 AM 18.68 65.624 0.085 7.01 1.4 8.7
8/5/2022 1:45:00 AM 18.62 65.516 0.085 7.01 1.36 8.72
8/5/2022 2:00:00 AM 18.56 65.408 0.085 7.01 1.46 8.74
8/5/2022 2:15:00 AM 18.51 65.318 0.085 7.01 1.37 8.74
8/5/2022 2:30:00 AM 18.45 65.21 0.085 7 1.28 8.74
8/5/2022 2:45:00 AM 18.39 65.102 0.085 7.01 1.39 8.76
8/5/2022 3:00:00 AM 18.34 65.012 0.085 7 1.43 8.78
8/5/2022 3:15:00 AM 18.27 64.886 0.085 6.99 1.28 8.78
8/5/2022 3:30:00 AM 18.21 64.778 0.086 6.99 1.49 8.81
8/5/2022 3:45:00 AM 18.17 64.706 0.085 7 1.39 8.81
8/5/2022 4:00:00 AM 18.11 64.598 0.085 7 1.44 8.85
8/5/2022 4:15:00 AM 18.07 64.526 0.085 7 1.31 8.86
8/5/2022 4:30:00 AM 18.03 64.454 0.085 7 1.23 8.87
8/5/2022 4:45:00 AM 17.99 64.382 0.085 7.01 1.28 8.88
8/5/2022 5:00:00 AM 17.95 64.31 0.085 7.01 1.25 8.92
8/5/2022 5:15:00 AM 17.92 64.256 0.085 7 1.33 8.89
8/5/2022 5:30:00 AM 17.88 64.184 0.085 7 1.46 8.91
8/5/2022 5:45:00 AM 17.83 64.094 0.085 7 1.27 8.91
8/5/2022 6:00:00 AM 17.79 64.022 0.085 7 1.31 8.92
8/5/2022 6:15:00 AM 17.75 63.95 0.085 6.99 1.3 8.93
8/5/2022 6:30:00 AM 17.72 63.896 0.085 6.99 1.47 8.93
8/5/2022 6:45:00 AM 17.68 63.824 0.085 6.99 1.39 8.95
8/5/2022 7:00:00 AM 17.65 63.77 0.085 6.99 1.36 8.99
8/5/2022 7:15:00 AM 17.62 63.716 0.085 7 1.37 9.04
8/5/2022 7:30:00 AM 17.6 63.68 0.085 7.02 1.24 9.11
8/5/2022 7:45:00 AM 17.59 63.662 0.085 7.03 1.35 9.22
8/5/2022 8:00:00 AM 17.62 63.716 0.085 7.04 1.28 9.28
8/5/2022 8:15:00 AM 17.64 63.752 0.085 7.08 1.56 9.39
8/5/2022 8:30:00 AM 17.67 63.806 0.085 7.08 1.28 9.47
8/5/2022 8:45:00 AM 17.72 63.896 0.085 7.1 1.27 9.55
8/5/2022 9:00:00 AM 17.77 63.986 0.084 7.12 1.27 9.67
8/5/2022 9:15:00 AM 17.84 64.112 0.084 7.13 1.27 9.72
8/5/2022 9:30:00 AM 17.91 64.238 0.084 7.15 1.21 9.81
8/5/2022 9:45:00 AM 17.99 64.382 0.083 7.16 1.52 9.82
8/5/2022 10:00:00 AM 18.09 64.562 0.083 7.15 1.3 9.87
8/5/2022 10:15:00 AM 18.19 64.742 0.082 7.18 1.38 9.91
8/5/2022 10:30:00 AM 18.33 64.994 0.082 7.22 1.16 10.01
8/5/2022 10:45:00 AM 18.5 65.3 0.082 7.23 1.31 10.04
8/5/2022 11:00:00 AM 18.65 65.57 0.081 7.22 1.4 9.99
8/5/2022 11:15:00 AM 18.84 65.912 0.081 7.29 1.37 10.11
8/5/2022 11:30:00 AM 19.04 66.272 0.08 7.29 1.34 10.1
8/5/2022 11:45:00 AM 19.32 66.776 0.08 7.33 1.72 10.14
8/5/2022 12:00:00 PM 19.64 67.352 0.079 7.39 1.28 10.17
8/5/2022 12:15:00 PM 20.03 68.054 0.079 7.42 1.43 10.16
8/5/2022 12:30:00 PM 20.5 68.9 0.079 7.44 1.4 10.05
8/5/2022 12:45:00 PM 20.81 69.458 0.078 7.47 1.19 10.02
8/5/2022 1:00:00 PM 21.02 69.836 0.079 7.47 1.55 9.92
8/5/2022 1:15:00 PM 21.26 70.268 0.079 7.46 1.47 9.84
8/5/2022 1:30:00 PM 21.66 70.988 0.078 7.44 1.4 9.68
8/5/2022 1:45:00 PM 21.98 71.564 0.078 7.48 1.57 9.7
8/5/2022 2:00:00 PM 22.35 72.23 0.078 7.49 1.53 9.66
8/5/2022 2:15:00 PM 22.85 73.13 0.078 7.5 1.31 9.58
8/5/2022 2:30:00 PM 23.29 73.922 0.078 7.52 1.23 9.54
8/5/2022 2:45:00 PM 23.57 74.426 0.078 7.52 1.49 9.45
8/5/2022 3:00:00 PM 23.72 74.696 0.078 7.53 1.91 9.4
8/5/2022 3:15:00 PM 23.84 74.912 0.078 7.53 1.26 9.36
8/5/2022 3:30:00 PM 24 75.2 0.078 7.53 1.26 9.27
8/5/2022 3:45:00 PM 24.12 75.416 0.078 7.5 1.56 9.14
8/5/2022 4:00:00 PM 24.09 75.362 0.078 7.5 1.58 9.12
8/5/2022 4:15:00 PM 24.12 75.416 0.078 7.45 1.24 9.04
8/5/2022 4:30:00 PM 24.04 75.272 0.078 7.4 1.54 8.93
8/5/2022 4:45:00 PM 23.83 74.894 0.078 7.36 1.31 8.69
8/5/2022 5:00:00 PM 23.66 74.588 0.079 7.33 1.29 8.56
8/5/2022 5:15:00 PM 23.46 74.228 0.079 7.31 1.21 8.56
8/5/2022 5:30:00 PM 23.27 73.886 0.079 7.31 1.33 8.59
8/5/2022 5:45:00 PM 23.08 73.544 0.079 7.3 1.19 8.61
8/5/2022 6:00:00 PM 22.85 73.13 0.079 7.29 1.24 8.65
8/5/2022 6:15:00 PM 22.62 72.716 0.08 7.29 1.3 8.72
8/5/2022 6:30:00 PM 22.51 72.518 0.08 7.3 1.36 8.7
8/5/2022 6:45:00 PM 22.3 72.14 0.08 7.3 1.24 8.77
8/5/2022 7:00:00 PM 22.19 71.942 0.08 7.29 1.31 8.8
8/5/2022 7:15:00 PM 22.05 71.69 0.08 7.28 1.26 8.76
8/5/2022 7:30:00 PM 21.86 71.348 0.08 7.25 1.19 8.68
8/5/2022 7:45:00 PM 21.76 71.168 0.081 7.23 1.29 8.65
8/5/2022 8:00:00 PM 21.63 70.934 0.081 7.22 1.3 8.61
8/5/2022 8:15:00 PM 21.5 70.7 0.081 7.19 1.28 8.57
8/5/2022 8:30:00 PM 21.39 70.502 0.081 7.19 1.46 8.54
8/5/2022 8:45:00 PM 21.27 70.286 0.082 7.16 1.71 8.44
8/5/2022 9:00:00 PM 21.16 70.088 0.082 7.14 1.17 8.41
8/5/2022 9:15:00 PM 21.05 69.89 0.082 7.13 1.54 8.37
8/5/2022 9:30:00 PM 20.93 69.674 0.083 7.12 1.41 8.36
8/5/2022 9:45:00 PM 20.84 69.512 0.083 7.1 1.62 8.31
8/5/2022 10:00:00 PM 20.73 69.314 0.083 7.09 1.4 8.33
8/5/2022 10:15:00 PM 20.65 69.17 0.083 7.08 1.33 8.32
8/5/2022 10:30:00 PM 20.54 68.972 0.084 7.08 1.25 8.35
8/5/2022 10:45:00 PM 20.46 68.828 0.084 7.09 1.27 8.35
8/5/2022 11:00:00 PM 20.38 68.684 0.084 7.06 1.61 8.34
8/5/2022 11:15:00 PM 20.29 68.522 0.084 7.06 1.31 8.34
8/5/2022 11:30:00 PM 20.22 68.396 0.084 7.05 1.69 8.31
8/5/2022 11:45:00 PM 20.15 68.27 0.085 7.05 1.38 8.36
8/6/2022 12:00:00 AM 20.05 68.09 0.085 7.05 1.42 8.4
8/6/2022 12:15:00 AM 20 68 0.085 7.05 1.74 8.37
8/6/2022 12:30:00 AM 19.95 67.91 0.085 7.03 1.24 8.36
8/6/2022 12:45:00 AM 19.85 67.73 0.085 7.03 1.4 8.39
8/6/2022 1:00:00 AM 19.78 67.604 0.085 7.04 1.49 8.41
8/6/2022 1:15:00 AM 19.69 67.442 0.085 7.04 1.49 8.44
8/6/2022 1:30:00 AM 19.63 67.334 0.085 7.03 1.35 8.41
8/6/2022 1:45:00 AM 19.56 67.208 0.085 7.03 1.34 8.46
8/6/2022 2:00:00 AM 19.49 67.082 0.085 7.02 1.5 8.47
8/6/2022 2:15:00 AM 19.44 66.992 0.085 7.02 1.43 8.48
8/6/2022 2:30:00 AM 19.38 66.884 0.085 7.01 1.23 8.5
8/6/2022 2:45:00 AM 19.33 66.794 0.086 7.02 1.24 8.51
8/6/2022 3:00:00 AM 19.28 66.704 0.086 6.99 1.72 8.2
8/6/2022 3:15:00 AM 19.22 66.596 0.086 7.01 1.76 8.53
8/6/2022 3:30:00 AM 19.17 66.506 0.086 7.01 1.29 8.57
8/6/2022 3:45:00 AM 19.11 66.398 0.086 7 1.2 8.55
8/6/2022 4:00:00 AM 19.06 66.308 0.086 7.01 1.31 8.58
8/6/2022 4:15:00 AM 19.01 66.218 0.086 7 1.3 8.58
8/6/2022 4:30:00 AM 18.95 66.11 0.086 7 1.25 8.61
8/6/2022 4:45:00 AM 18.88 65.984 0.086 7 1.42 8.62
8/6/2022 5:00:00 AM 18.82 65.876 0.086 7 1.42 8.63
8/6/2022 5:15:00 AM 18.75 65.75 0.086 7.01 1.31 8.66
8/6/2022 5:30:00 AM 18.68 65.624 0.086 7 1.39 8.65
8/6/2022 5:45:00 AM 18.61 65.498 0.086 7 1.85 8.66
8/6/2022 6:00:00 AM 18.55 65.39 0.086 7 1.36 8.68
8/6/2022 6:15:00 AM 18.5 65.3 0.086 7 1.45 8.67
8/6/2022 6:30:00 AM 18.46 65.228 0.086 6.99 1.52 8.7
8/6/2022 6:45:00 AM 18.41 65.138 0.086 7 1.43 8.74
8/6/2022 7:00:00 AM 18.37 65.066 0.086 7.01 1.5 8.79
8/6/2022 7:15:00 AM 18.33 64.994 0.086 7.02 1.31 8.85
8/6/2022 7:30:00 AM 18.31 64.958 0.086 7.04 1.35 8.94
8/6/2022 7:45:00 AM 18.3 64.94 0.086 7.05 1.4 9.01
8/6/2022 8:00:00 AM 18.29 64.922 0.085 7.09 1.3 9.13
8/6/2022 8:15:00 AM 18.3 64.94 0.085 7.1 2.01 9.24
8/6/2022 8:30:00 AM 18.33 64.994 0.085 7.11 1.41 9.33
8/6/2022 8:45:00 AM 18.37 65.066 0.085 7.13 1.25 9.35
8/6/2022 9:00:00 AM 18.43 65.174 0.085 7.15 1.31 9.47
8/6/2022 9:15:00 AM 18.51 65.318 0.084 7.17 1.36 9.52
8/6/2022 9:30:00 AM 18.64 65.552 0.084 7.19 1.29 9.6
8/6/2022 9:45:00 AM 18.87 65.966 0.083 7.22 1.23 9.68
8/6/2022 10:00:00 AM 19.14 66.452 0.083 7.24 1.31 9.66
8/6/2022 10:15:00 AM 19.45 67.01 0.082 7.28 1.36 9.8
8/6/2022 10:30:00 AM 19.8 67.64 0.082 7.3 1.28 9.82
8/6/2022 10:45:00 AM 20.12 68.216 0.082 7.33 1.25 9.81
8/6/2022 11:00:00 AM 20.42 68.756 0.082 7.36 1.27 9.8
8/6/2022 11:15:00 AM 20.66 69.188 0.082 7.35 1.36 9.78
8/6/2022 11:30:00 AM 20.88 69.584 0.081 7.37 1.42 9.8
8/6/2022 11:45:00 AM 21.09 69.962 0.081 7.37 1.34 9.7
8/6/2022 12:00:00 PM 21.25 70.25 0.081 7.42 1.35 9.72
8/6/2022 12:15:00 PM 21.35 70.43 0.081 7.42 1.42 9.65
8/6/2022 12:30:00 PM 21.44 70.592 0.081 7.43 1.38 9.66
8/6/2022 12:45:00 PM 21.56 70.808 0.081 7.43 1.35 9.6
8/6/2022 1:00:00 PM 21.69 71.042 0.081 7.44 1.29 9.59
8/6/2022 1:15:00 PM 21.78 71.204 0.081 7.46 1.27 9.6
8/6/2022 1:30:00 PM 22.07 71.726 0.08 7.47 1.24 9.61
8/6/2022 1:45:00 PM 22.34 72.212 0.08 7.49 1.2 9.64
8/6/2022 2:00:00 PM 22.56 72.608 0.08 7.53 1.2 9.63
8/6/2022 2:15:00 PM 22.81 73.058 0.08 7.53 1.55 9.62
8/6/2022 2:30:00 PM 23.07 73.526 0.079 7.55 1.32 9.56
8/6/2022 2:45:00 PM 23.28 73.904 0.079 7.57 1.27 9.53
8/6/2022 3:00:00 PM 23.46 74.228 0.079 7.54 1.41 9.45
8/6/2022 3:15:00 PM 23.66 74.588 0.079 7.52 1.42 9.33
8/6/2022 3:30:00 PM 23.88 74.984 0.079 7.52 1.32 9.26
8/6/2022 3:45:00 PM 24.04 75.272 0.079 7.55 1.31 9.26
8/6/2022 4:00:00 PM 24.13 75.434 0.079 7.5 1.22 9.12
8/6/2022 4:15:00 PM 24.21 75.578 0.079 7.5 1.31 9.05
8/6/2022 4:30:00 PM 24.34 75.812 0.08 7.46 1.39 8.9
8/6/2022 4:45:00 PM 24.41 75.938 0.08 7.46 1.61 8.88
8/6/2022 5:00:00 PM 24.45 76.01 0.08 7.44 1.41 8.89
8/6/2022 5:15:00 PM 24.41 75.938 0.08 7.4 1.31 8.68
8/6/2022 5:30:00 PM 24.44 75.992 0.08 7.38 1.39 8.68
8/6/2022 5:45:00 PM 24.37 75.866 0.08 7.34 1.45 8.58
8/6/2022 6:00:00 PM 24.36 75.848 0.08 7.33 1.38 8.49
8/6/2022 6:15:00 PM 24.24 75.632 0.08 7.24 1.75 8.3
8/6/2022 6:30:00 PM 24.16 75.488 0.08 7.26 1.49 8.34
8/6/2022 6:45:00 PM 24.08 75.344 0.08 7.27 1.43 8.36
8/6/2022 7:00:00 PM 23.96 75.128 0.08 7.24 1.65 8.29
8/6/2022 7:15:00 PM 23.81 74.858 0.081 7.24 1.33 8.29
8/6/2022 7:30:00 PM 23.67 74.606 0.081 7.24 1.3 8.23
8/6/2022 7:45:00 PM 23.46 74.228 0.081 7.19 1.5 8.16
8/6/2022 8:00:00 PM 23.28 73.904 0.082 7.19 1.29 8.16
8/6/2022 8:15:00 PM 23.05 73.49 0.082 7.16 1.37 8.09
8/6/2022 8:30:00 PM 22.83 73.094 0.083 7.15 1.71 8.09
8/6/2022 8:45:00 PM 22.68 72.824 0.083 7.15 1.56 8.05
8/6/2022 9:00:00 PM 22.46 72.42799 0.083 7.13 1.35 8.02
8/6/2022 9:15:00 PM 22.23 72.014 0.083 7.14 1.5 8.1
8/6/2022 9:30:00 PM 22.11 71.798 0.083 7.12 1.89 8.04
8/6/2022 9:45:00 PM 21.97 71.546 0.083 7.11 1.69 8.08
8/6/2022 10:00:00 PM 21.82 71.276 0.084 7.1 1.63 8.07
8/6/2022 10:15:00 PM 21.72 71.096 0.084 7.09 1.42 8.09
8/6/2022 10:30:00 PM 21.63 70.934 0.084 7.09 1.48 8.08
8/6/2022 10:45:00 PM 21.51 70.718 0.084 7.05 1.55 8.04
8/6/2022 11:00:00 PM 21.41 70.538 0.085 7.05 1.39 8.06
8/6/2022 11:15:00 PM 21.34 70.412 0.085 7.05 1.49 8.07
8/6/2022 11:30:00 PM 21.24 70.232 0.085 7.04 1.5 8.07
8/6/2022 11:45:00 PM 21.14 70.052 0.085 7.05 1.27 8.15
8/7/2022 12:00:00 AM 21.08 69.944 0.085 7.03 1.36 8.12
8/7/2022 12:15:00 AM 21.01 69.818 0.085 7.03 1.3 8.11
8/7/2022 12:30:00 AM 20.95 69.71 0.085 7.02 1.77 8.12
8/7/2022 12:45:00 AM 20.85 69.53 0.086 7.01 1.46 8.11
8/7/2022 1:00:00 AM 20.81 69.458 0.086 7.01 1.34 8.16
8/7/2022 1:15:00 AM 20.74 69.332 0.086 6.99 1.39 8.13
8/7/2022 1:30:00 AM 20.69 69.242 0.086 6.98 1.57 8.08
8/7/2022 1:45:00 AM 20.61 69.098 0.086 6.98 1.64 8.17
8/7/2022 2:00:00 AM 20.57 69.026 0.086 6.99 1.76 8.19
8/7/2022 2:15:00 AM 20.49 68.882 0.086 6.99 1.42 8.21
8/7/2022 2:30:00 AM 20.44 68.792 0.086 6.99 1.64 8.24
8/7/2022 2:45:00 AM 20.36 68.648 0.086 7 1.41 8.24
8/7/2022 3:00:00 AM 20.31 68.558 0.086 6.99 1.3 8.22
8/7/2022 3:15:00 AM 20.23 68.414 0.086 7.02 1.58 8.31
8/7/2022 3:30:00 AM 20.19 68.342 0.086 7.02 1.34 8.28
8/7/2022 3:45:00 AM 20.1 68.18 0.086 7.01 1.28 8.3
8/7/2022 4:00:00 AM 20.06 68.108 0.086 7.02 1.31 8.32
8/7/2022 4:15:00 AM 19.97 67.946 0.086 7.02 1.34 8.4
8/7/2022 4:30:00 AM 19.92 67.856 0.086 7.02 1.37 8.4
8/7/2022 4:45:00 AM 19.88 67.784 0.086 7 1.47 8.33
8/7/2022 5:00:00 AM 19.83 67.694 0.087 6.99 1.46 8.35
8/7/2022 5:15:00 AM 19.77 67.586 0.087 7.01 1.39 8.4
8/7/2022 5:30:00 AM 19.69 67.442 0.087 7.01 1.89 8.44
8/7/2022 5:45:00 AM 19.66 67.388 0.087 7 1.45 8.42
8/7/2022 6:00:00 AM 19.62 67.316 0.087 6.98 1.55 8.41
8/7/2022 6:15:00 AM 19.57 67.226 0.087 6.95 1.77 8.32
8/7/2022 6:30:00 AM 19.52 67.136 0.087 6.95 1.97 8.37
8/7/2022 6:45:00 AM 19.48 67.064 0.087 6.97 2.24 8.45
8/7/2022 7:00:00 AM 19.43 66.974 0.087 6.98 1.35 8.48
8/7/2022 7:15:00 AM 19.41 66.938 0.087 6.97 1.5 8.46
8/7/2022 7:30:00 AM 19.37 66.866 0.087 6.98 1.47 8.58
8/7/2022 7:45:00 AM 19.36 66.848 0.087 6.98 1.42 8.65
8/7/2022 8:00:00 AM 19.34 66.812 0.086 6.99 1.36 8.75
8/7/2022 8:15:00 AM 19.33 66.794 0.086 7.02 1.77 8.83
8/7/2022 8:30:00 AM 19.32 66.776 0.086 7.03 1.72 8.87
8/7/2022 8:45:00 AM 19.31 66.758 0.086 7.04 1.42 8.9
8/7/2022 9:00:00 AM 19.31 66.758 0.086 7.04 1.51 8.98
8/7/2022 9:15:00 AM 19.32 66.776 0.086 7.04 1.41 8.98
8/7/2022 9:30:00 AM 19.34 66.812 0.086 7.05 1.61 9.01
8/7/2022 9:45:00 AM 19.39 66.902 0.086 7.07 1.39 9.17
8/7/2022 10:00:00 AM 19.47 67.046 0.085 7.12 1.36 9.32
8/7/2022 10:15:00 AM 19.57 67.226 0.085 7.14 1.25 9.45
8/7/2022 10:30:00 AM 19.7 67.46 0.084 7.18 1.46 9.56
8/7/2022 10:45:00 AM 19.89 67.802 0.084 7.23 1.63 9.65
8/7/2022 11:00:00 AM 20.03 68.054 0.083 7.26 1.42 9.72
8/7/2022 11:15:00 AM 20.25 68.45 0.083 7.29 1.35 9.72
8/7/2022 11:30:00 AM 20.51 68.918 0.082 7.33 1.21 9.75
8/7/2022 11:45:00 AM 20.76 69.368 0.082 7.33 3.25 9.72
8/7/2022 12:00:00 PM 21.05 69.89 0.081 7.37 1.37 9.73
8/7/2022 12:15:00 PM 21.39 70.502 0.081 7.39 1.53 9.71
8/7/2022 12:30:00 PM 21.73 71.114 0.08 7.4 1.38 9.66
8/7/2022 12:45:00 PM 22.01 71.618 0.08 7.42 1.4 9.61
8/7/2022 1:00:00 PM 22.23 72.014 0.08 7.46 1.53 9.6
8/7/2022 1:15:00 PM 22.39 72.302 0.08 7.43 1.66 9.55
8/7/2022 1:30:00 PM 22.55 72.59 0.08 7.45 1.47 9.45
8/7/2022 1:45:00 PM 22.72 72.896 0.08 7.45 1.5 9.43
8/7/2022 2:00:00 PM 22.99 73.382 0.08 7.48 1.61 9.45
8/7/2022 2:15:00 PM 23.13 73.634 0.08 7.48 1.5 9.4
8/7/2022 2:30:00 PM 23.31 73.958 0.08 7.46 1.34 9.32
8/7/2022 2:45:00 PM 23.46 74.228 0.08 7.41 1.4 9.23
8/7/2022 3:00:00 PM 23.7 74.66 0.079 7.46 1.22 9.2
8/7/2022 3:15:00 PM 23.98 75.164 0.079 7.46 1.39 9.09
8/7/2022 3:30:00 PM 24.21 75.578 0.079 7.41 1.35 9.05
8/7/2022 3:45:00 PM 24.45 76.01 0.079 7.47 1.26 9.01
8/7/2022 4:00:00 PM 24.65 76.37 0.079 7.56 1.29 9.04
8/7/2022 4:15:00 PM 24.76 76.568 0.079 7.52 1.42 8.98
8/7/2022 4:30:00 PM 24.8 76.64 0.079 7.48 1.25 8.83
8/7/2022 4:45:00 PM 24.88 76.784 0.079 7.46 1.4 8.86
8/7/2022 5:00:00 PM 24.9 76.82 0.08 7.39 1.37 8.64
8/7/2022 5:15:00 PM 24.89 76.802 0.08 7.37 1.68 8.59
8/7/2022 5:30:00 PM 24.86 76.748 0.08 7.22 1.56 8.26
8/7/2022 5:45:00 PM 24.88 76.784 0.08 7.26 1.42 8.26
8/7/2022 6:00:00 PM 24.78 76.604 0.08 7.25 1.51 8.34
8/7/2022 6:15:00 PM 24.71 76.478 0.08 7.3 1.36 8.21
8/7/2022 6:30:00 PM 24.58 76.244 0.08 7.29 1.33 8.2
8/7/2022 6:45:00 PM 24.4 75.92 0.08 7.24 1.77 8.17
8/7/2022 7:00:00 PM 24.29 75.722 0.081 7.26 1.2 8.31
8/7/2022 7:15:00 PM 24.13 75.434 0.081 7.23 1.33 8.28
8/7/2022 7:30:00 PM 23.95 75.11 0.081 7.22 1.28 8.27
8/7/2022 7:45:00 PM 23.74 74.732 0.081 7.21 1.32 8.23
8/7/2022 8:00:00 PM 23.56 74.408 0.082 7.16 1.31 8.11
8/7/2022 8:15:00 PM 23.35 74.03 0.082 7.17 1.26 8.11
8/7/2022 8:30:00 PM 23.15 73.67 0.083 7.14 1.7 8.04
8/7/2022 8:45:00 PM 22.95 73.31 0.083 7.11 1.39 7.96
8/7/2022 9:00:00 PM 22.76 72.968 0.083 7.12 1.6 7.98
8/7/2022 9:15:00 PM 22.62 72.716 0.084 7.1 1.55 7.97
8/7/2022 9:30:00 PM 22.46 72.42799 0.084 7.09 1.46 7.97
8/7/2022 9:45:00 PM 22.32 72.176 0.084 7.08 1.72 7.95
8/7/2022 10:00:00 PM 22.2 71.96 0.084 7.07 1.52 7.88
8/7/2022 10:15:00 PM 22.07 71.726 0.085 7.04 1.48 7.93
8/7/2022 10:30:00 PM 21.94 71.492 0.085 7.05 2.39 7.92
8/7/2022 10:45:00 PM 21.8 71.24 0.085 7.05 1.64 8.02
8/7/2022 11:00:00 PM 21.68 71.024 0.085 7.04 2.33 7.97
8/7/2022 11:15:00 PM 21.59 70.862 0.085 7.04 1.77 7.95
8/7/2022 11:30:00 PM 21.45 70.61 0.086 7.04 1.38 8.05
8/7/2022 11:45:00 PM 21.34 70.412 0.086 7.04 1.67 8.08
8/8/2022 12:00:00 AM 21.24 70.232 0.086 7.03 1.34 8.1
8/8/2022 12:15:00 AM 21.12 70.016 0.086 7.04 1.34 8.14
8/8/2022 12:30:00 AM 21.04 69.872 0.086 7.03 1.36 8.12
8/8/2022 12:45:00 AM 20.92 69.656 0.086 7.03 1.55 8.15
8/8/2022 1:00:00 AM 20.85 69.53 0.086 7.03 1.52 8.14
8/8/2022 1:15:00 AM 20.78 69.404 0.086 7.02 1.63 8.13
8/8/2022 1:30:00 AM 20.64 69.152 0.086 7.02 1.34 8.21
8/8/2022 1:45:00 AM 20.59 69.062 0.086 7.01 1.33 8.15
8/8/2022 2:00:00 AM 20.49 68.882 0.086 7.01 1.36 8.19
8/8/2022 2:15:00 AM 20.42 68.756 0.086 7.01 1.64 8.18
8/8/2022 2:30:00 AM 20.31 68.558 0.086 7.01 1.33 8.25
8/8/2022 2:45:00 AM 20.22 68.396 0.086 7.02 1.6 8.28
8/8/2022 3:00:00 AM 20.15 68.27 0.086 7.01 1.34 8.28
8/8/2022 3:15:00 AM 20.08 68.144 0.086 7.01 1.35 8.28
8/8/2022 3:30:00 AM 20.01 68.018 0.086 7.01 1.68 8.29
8/8/2022 3:45:00 AM 19.91 67.838 0.086 7.01 1.54 8.35
8/8/2022 4:00:00 AM 19.84 67.712 0.087 7.01 1.67 8.3
8/8/2022 4:15:00 AM 19.78 67.604 0.087 7.01 1.54 8.34
8/8/2022 4:30:00 AM 19.72 67.496 0.087 7.01 1.52 8.37
8/8/2022 4:45:00 AM 19.66 67.388 0.087 7 1.78 8.37
8/8/2022 5:00:00 AM 19.59 67.262 0.087 7 1.79 8.39
8/8/2022 5:15:00 AM 19.53 67.154 0.087 7 1.42 8.4
8/8/2022 5:30:00 AM 19.47 67.046 0.087 7 2.51 8.41
8/8/2022 5:45:00 AM 19.41 66.938 0.087 6.99 1.54 8.42
8/8/2022 6:00:00 AM 19.37 66.866 0.087 7 1.67 8.42
8/8/2022 6:15:00 AM 19.33 66.794 0.087 6.99 1.63 8.45
8/8/2022 6:30:00 AM 19.28 66.704 0.087 7 1.66 8.46
8/8/2022 6:45:00 AM 19.24 66.632 0.087 7 1.47 8.48
8/8/2022 7:00:00 AM 19.2 66.56 0.087 7 1.54 8.5
8/8/2022 7:15:00 AM 19.18 66.524 0.087 7.01 1.37 8.56
8/8/2022 7:30:00 AM 19.16 66.488 0.087 7.02 1.48 8.6
8/8/2022 7:45:00 AM 19.15 66.47 0.086 7.03 1.4 8.69
8/8/2022 8:00:00 AM 19.16 66.488 0.086 7.06 1.55 8.8
8/8/2022 8:15:00 AM 19.17 66.506 0.086 7.06 1.51 8.85
8/8/2022 8:30:00 AM 19.19 66.542 0.086 7.07 1.41 8.88
8/8/2022 8:45:00 AM 19.22 66.596 0.086 7.07 1.4 8.94
8/8/2022 9:00:00 AM 19.25 66.65 0.086 7.09 1.29 9.02
8/8/2022 9:15:00 AM 19.28 66.704 0.086 7.09 1.31 9.07
8/8/2022 9:30:00 AM 19.32 66.776 0.086 7.1 1.29 9.11
8/8/2022 9:45:00 AM 19.39 66.902 0.085 7.12 1.56 9.19
8/8/2022 10:00:00 AM 19.48 67.064 0.085 7.14 1.29 9.28
8/8/2022 10:15:00 AM 19.56 67.208 0.085 7.17 1.25 9.37
8/8/2022 10:30:00 AM 19.65 67.37 0.085 7.18 1.34 9.38
8/8/2022 10:45:00 AM 19.74 67.532 0.084 7.22 1.36 9.46
8/8/2022 11:00:00 AM 19.88 67.784 0.084 7.24 1.32 9.51
8/8/2022 11:15:00 AM 20.08 68.144 0.083 7.27 1.32 9.57
8/8/2022 11:30:00 AM 20.34 68.612 0.083 7.3 1.35 9.69
8/8/2022 11:45:00 AM 20.61 69.098 0.082 7.35 1.75 9.76
8/8/2022 12:00:00 PM 20.82 69.476 0.082 7.38 1.57 9.79
8/8/2022 12:15:00 PM 21.16 70.088 0.081 7.43 1.31 9.82
8/8/2022 12:30:00 PM 21.55 70.79 0.081 7.44 1.34 9.81
8/8/2022 12:45:00 PM 21.79 71.222 0.081 7.48 1.31 9.78
8/8/2022 1:00:00 PM 21.88 71.384 0.081 7.46 1.39 9.75
8/8/2022 1:15:00 PM 21.9 71.42 0.081 7.44 1.42 9.66
8/8/2022 1:30:00 PM 21.91 71.438 0.081 7.44 1.74 9.68
8/8/2022 1:45:00 PM 22 71.6 0.081 7.47 1.37 9.52
8/8/2022 2:00:00 PM 22.04 71.672 0.081 7.47 1.53 9.45
8/8/2022 2:15:00 PM 22.05 71.69 0.081 7.41 1.56 9.39
8/8/2022 2:30:00 PM 22.08 71.744 0.081 7.42 1.74 9.32
8/8/2022 2:45:00 PM 22.03 71.654 0.081 7.36 1.4 9.22
8/8/2022 3:00:00 PM 21.99 71.582 0.081 7.31 1.44 9.08
8/8/2022 3:15:00 PM 21.97 71.546 0.081 7.32 1.36 9.03
8/8/2022 3:30:00 PM 21.98 71.564 0.081 7.35 1.48 9.05
8/8/2022 3:45:00 PM 22 71.6 0.081 7.38 1.25 9.08
8/8/2022 4:00:00 PM 22.03 71.654 0.081 7.39 1.36 9.17
8/8/2022 4:15:00 PM 22.09 71.762 0.081 7.41 1.38 9.24
8/8/2022 4:30:00 PM 22.16 71.888 0.08 7.43 1.26 9.34
8/8/2022 4:45:00 PM 22.23 72.014 0.08 7.41 1.55 9.32
8/8/2022 5:00:00 PM 22.31 72.158 0.08 7.43 1.43 9.35
8/8/2022 5:15:00 PM 22.39 72.302 0.08 7.43 1.38 9.3
8/8/2022 5:30:00 PM 22.48 72.464 0.08 7.48 1.6 9.32
8/8/2022 5:45:00 PM 22.58 72.644 0.08 7.48 1.62 9.23
8/8/2022 6:00:00 PM 22.6 72.68 0.08 7.41 1.38 9.09
8/8/2022 6:15:00 PM 22.66 72.788 0.08 7.41 1.42 9.04
8/8/2022 6:30:00 PM 22.7 72.86 0.08 7.41 1.47 8.99
8/8/2022 6:45:00 PM 22.71 72.878 0.08 7.36 1.51 8.81
8/8/2022 7:00:00 PM 22.72 72.896 0.08 7.34 1.86 8.77
8/8/2022 7:15:00 PM 22.69 72.842 0.08 7.32 1.58 8.64
8/8/2022 7:30:00 PM 22.61 72.698 0.08 7.22 1.97 8.4
8/8/2022 7:45:00 PM 22.53 72.554 0.081 7.22 1.6 8.32
8/8/2022 8:00:00 PM 22.41 72.338 0.081 7.16 1.62 8.12
8/8/2022 8:15:00 PM 22.32 72.176 0.082 7.2 1.38 8.18
8/8/2022 8:30:00 PM 22.17 71.906 0.082 7.18 1.39 8.14
8/8/2022 8:45:00 PM 22.05 71.69 0.083 7.18 1.51 8.15
8/8/2022 9:00:00 PM 21.9 71.42 0.083 7.14 1.48 8.08
8/8/2022 9:15:00 PM 21.76 71.168 0.083 7.12 1.66 8.02
8/8/2022 9:30:00 PM 21.64 70.952 0.084 7.13 1.44 8.07
8/8/2022 9:45:00 PM 21.52 70.736 0.084 7.11 1.42 8.07
8/8/2022 10:00:00 PM 21.42 70.556 0.084 7.1 1.5 8.08
8/8/2022 10:15:00 PM 21.31 70.358 0.085 7.1 1.4 8.08
8/8/2022 10:30:00 PM 21.21 70.17799 0.085 7.08 1.67 8.04
8/8/2022 10:45:00 PM 21.1 69.98 0.085 7.08 1.79 8.07
8/8/2022 11:00:00 PM 21.02 69.836 0.085 7.07 1.39 8.1
8/8/2022 11:15:00 PM 20.94 69.692 0.085 7.06 2.22 8.06
8/8/2022 11:30:00 PM 20.88 69.584 0.086 7.05 1.72 8.05
8/8/2022 11:45:00 PM 20.82 69.476 0.086 7.06 1.31 8.09
8/9/2022 12:00:00 AM 20.75 69.35 0.086 7.05 1.33 8.12
8/9/2022 12:15:00 AM 20.68 69.224 0.086 7.05 1.47 8.11
8/9/2022 12:30:00 AM 20.62 69.116 0.086 7.04 1.39 8.14
8/9/2022 12:45:00 AM 20.56 69.008 0.086 7.04 1.34 8.14
8/9/2022 1:00:00 AM 20.51 68.918 0.086 7.04 1.39 8.15
8/9/2022 1:15:00 AM 20.46 68.828 0.086 7.04 1.67 8.18
8/9/2022 1:30:00 AM 20.42 68.756 0.086 7.02 1.28 8.18
8/9/2022 1:45:00 AM 20.37 68.666 0.086 7.05 1.32 8.21
8/9/2022 2:00:00 AM 20.37 68.666 0.086 7.04 1.31 8.2
8/9/2022 2:15:00 AM 20.33 68.594 0.086 7.04 1.47 8.22
8/9/2022 2:30:00 AM 20.29 68.522 0.086 7.05 1.38 8.22
8/9/2022 2:45:00 AM 20.25 68.45 0.086 7.05 1.32 8.24
8/9/2022 3:00:00 AM 20.22 68.396 0.086 7.03 1.38 8.21
8/9/2022 3:15:00 AM 20.18 68.324 0.087 7.04 1.35 8.23
8/9/2022 3:30:00 AM 20.15 68.27 0.087 7.03 1.42 8.21
8/9/2022 3:45:00 AM 20.11 68.198 0.087 7.04 1.38 8.27
8/9/2022 4:00:00 AM 20.08 68.144 0.087 7.03 1.42 8.2
8/9/2022 4:15:00 AM 20.05 68.09 0.087 7.04 1.35 8.28
8/9/2022 4:30:00 AM 20.02 68.036 0.087 7.04 1.55 8.28
8/9/2022 4:45:00 AM 20 68 0.087 7.04 1.45 8.31
8/9/2022 5:00:00 AM 19.98 67.964 0.087 7.04 1.28 8.3
8/9/2022 5:15:00 AM 19.96 67.92799 0.087 7.03 1.31 8.31
8/9/2022 5:30:00 AM 19.93 67.874 0.087 7.04 1.27 8.33
8/9/2022 5:45:00 AM 19.91 67.838 0.087 7.04 1.31 8.33
8/9/2022 6:00:00 AM 19.89 67.802 0.087 7.03 1.68 8.31
8/9/2022 6:15:00 AM 19.86 67.748 0.087 7.02 1.35 8.32
8/9/2022 6:30:00 AM 19.84 67.712 0.087 7.02 1.33 8.33
8/9/2022 6:45:00 AM 19.83 67.694 0.087 7.01 1.5 8.32
8/9/2022 7:00:00 AM 19.81 67.658 0.087 7.02 1.44 8.33
8/9/2022 7:15:00 AM 19.8 67.64 0.087 7.01 1.38 8.37
8/9/2022 7:30:00 AM 19.79 67.622 0.087 7.01 1.44 8.38
8/9/2022 7:45:00 AM 19.78 67.604 0.087 7.02 1.4 8.46
8/9/2022 8:00:00 AM 19.78 67.604 0.087 7.04 1.43 8.51
8/9/2022 8:15:00 AM 19.79 67.622 0.087 7.04 1.46 8.59
8/9/2022 8:30:00 AM 19.8 67.64 0.087 7.07 1.25 8.68
8/9/2022 8:45:00 AM 19.82 67.676 0.087 7.09 1.87 8.79
8/9/2022 9:00:00 AM 19.84 67.712 0.086 7.1 1.35 8.83
8/9/2022 9:15:00 AM 19.86 67.748 0.086 7.1 1.36 8.81
8/9/2022 9:30:00 AM 19.87 67.766 0.086 7.12 1.32 8.89
8/9/2022 9:45:00 AM 19.88 67.784 0.086 7.13 1.35 8.91
8/9/2022 10:00:00 AM 19.88 67.784 0.085 7.14 1.39 8.95
8/9/2022 10:15:00 AM 19.89 67.802 0.085 7.16 1.34 8.97
8/9/2022 10:30:00 AM 19.9 67.82 0.085 7.17 1.34 9.01
8/9/2022 10:45:00 AM 19.94 67.892 0.085 7.18 1.3 9.12
8/9/2022 11:00:00 AM 20.01 68.018 0.084 7.21 1.29 9.25
8/9/2022 11:15:00 AM 20.14 68.252 0.084 7.24 1.6 9.41
8/9/2022 11:30:00 AM 20.31 68.558 0.083 7.31 1.51 9.53
8/9/2022 11:45:00 AM 20.46 68.828 0.083 7.34 1.3 9.68
8/9/2022 12:00:00 PM 20.62 69.116 0.082 7.41 1.46 9.77
8/9/2022 12:15:00 PM 20.75 69.35 0.082 7.43 1.31 9.78
8/9/2022 12:30:00 PM 20.88 69.584 0.082 7.44 1.6 9.79
8/9/2022 12:45:00 PM 21.02 69.836 0.081 7.46 1.36 9.78
8/9/2022 1:00:00 PM 21.23 70.214 0.081 7.5 1.72 9.83
8/9/2022 1:15:00 PM 21.42 70.556 0.081 7.51 1.58 9.8
8/9/2022 1:30:00 PM 21.61 70.898 0.08 7.56 1.35 9.81
8/9/2022 1:45:00 PM 21.88 71.384 0.08 7.57 1.43 9.78
8/9/2022 2:00:00 PM 22.06 71.708 0.08 7.57 1.37 9.73
8/9/2022 2:15:00 PM 22.22 71.996 0.08 7.58 2.72 9.69
8/9/2022 2:30:00 PM 22.41 72.338 0.08 7.59 1.51 9.66
8/9/2022 2:45:00 PM 22.69 72.842 0.08 7.63 1.34 9.59
8/9/2022 3:00:00 PM 22.93 73.274 0.079 7.65 1.45 9.6
8/9/2022 3:15:00 PM 23.13 73.634 0.079 7.62 1.44 9.54
8/9/2022 3:30:00 PM 23.28 73.904 0.079 7.63 1.38 9.5
8/9/2022 3:45:00 PM 23.49 74.282 0.079 7.67 1.43 9.43
8/9/2022 4:00:00 PM 23.63 74.534 0.079 7.68 1.32 9.36
8/9/2022 4:15:00 PM 23.68 74.624 0.079 7.67 1.41 9.32
8/9/2022 4:30:00 PM 23.67 74.606 0.079 7.48 1.59 9.03
8/9/2022 4:45:00 PM 23.67 74.606 0.08 7.44 1.75 8.96
8/9/2022 5:00:00 PM 23.66 74.588 0.08 7.4 1.66 8.78
8/9/2022 5:15:00 PM 23.7 74.66 0.08 7.39 1.62 8.69
8/9/2022 5:30:00 PM 23.71 74.67799 0.08 7.33 1.67 8.55
8/9/2022 5:45:00 PM 23.63 74.534 0.08 7.27 2.09 8.43
8/9/2022 6:00:00 PM 23.54 74.372 0.08 7.26 1.65 8.33
8/9/2022 6:15:00 PM 23.47 74.246 0.08 7.28 1.49 8.37
8/9/2022 6:30:00 PM 23.38 74.084 0.08 7.26 1.69 8.33
8/9/2022 6:45:00 PM 23.26 73.868 0.081 7.29 1.41 8.42
8/9/2022 7:00:00 PM 23.13 73.634 0.081 7.28 1.48 8.39
8/9/2022 7:15:00 PM 22.96 73.328 0.081 7.3 1.23 8.46
8/9/2022 7:30:00 PM 22.79 73.022 0.081 7.29 1.3 8.42
8/9/2022 7:45:00 PM 22.53 72.554 0.082 7.25 1.46 8.31
8/9/2022 8:00:00 PM 22.32 72.176 0.082 7.23 1.3 8.3
8/9/2022 8:15:00 PM 22.08 71.744 0.082 7.22 1.31 8.27
8/9/2022 8:30:00 PM 21.87 71.366 0.083 7.2 1.45 8.25
8/9/2022 8:45:00 PM 21.65 70.97 0.083 7.18 1.44 8.23
8/9/2022 9:00:00 PM 21.4 70.52 0.083 7.16 1.61 8.21
8/9/2022 9:15:00 PM 21.22 70.196 0.084 7.14 1.9 8.2
8/9/2022 9:30:00 PM 21.02 69.836 0.084 7.14 1.81 8.24
8/9/2022 9:45:00 PM 20.85 69.53 0.084 7.14 1.59 8.28
8/9/2022 10:00:00 PM 20.7 69.26 0.084 7.13 1.62 8.25
8/9/2022 10:15:00 PM 20.56 69.008 0.085 7.11 1.39 8.26
8/9/2022 10:30:00 PM 20.43 68.774 0.085 7.08 1.43 8.2
8/9/2022 10:45:00 PM 20.29 68.522 0.085 7.1 1.55 8.3
8/9/2022 11:00:00 PM 20.18 68.324 0.085 7.11 1.46 8.31
8/9/2022 11:15:00 PM 20.06 68.108 0.085 7.1 1.38 8.33
8/9/2022 11:30:00 PM 19.93 67.874 0.085 7.1 1.59 8.36
8/9/2022 11:45:00 PM 19.81 67.658 0.085 7.1 1.46 8.37
8/10/2022 12:00:00 AM 19.69 67.442 0.085 7.09 1.51 8.41
8/10/2022 12:15:00 AM 19.58 67.244 0.086 7.09 1.37 8.45
8/10/2022 12:30:00 AM 19.48 67.064 0.086 7.09 1.38 8.47
8/10/2022 12:45:00 AM 19.41 66.938 0.086 7.08 1.4 8.45
8/10/2022 1:00:00 AM 19.33 66.794 0.086 7.08 1.45 8.45
8/10/2022 1:15:00 AM 19.22 66.596 0.086 7.08 1.49 8.52
8/10/2022 1:30:00 AM 19.17 66.506 0.086 7.08 1.72 8.51
8/10/2022 1:45:00 AM 19.05 66.29 0.086 7.09 1.72 8.59
8/10/2022 2:00:00 AM 19.01 66.218 0.086 7.07 1.55 8.55
8/10/2022 2:15:00 AM 18.96 66.128 0.086 7.07 1.62 8.53
8/10/2022 2:30:00 AM 18.86 65.948 0.086 7.08 1.88 8.59
8/10/2022 2:45:00 AM 18.81 65.858 0.086 7.07 1.99 8.59
8/10/2022 3:00:00 AM 18.76 65.768 0.086 7.07 1.52 8.59
8/10/2022 3:15:00 AM 18.69 65.642 0.086 7.07 1.41 8.6
8/10/2022 3:30:00 AM 18.64 65.552 0.086 7.06 1.59 8.61
8/10/2022 3:45:00 AM 18.54 65.372 0.086 7.07 1.59 8.64
8/10/2022 4:00:00 AM 18.47 65.246 0.086 7.07 1.49 8.65
8/10/2022 4:15:00 AM 18.36 65.048 0.086 7.07 1.34 8.69
8/10/2022 4:30:00 AM 18.27 64.886 0.086 7.06 1.38 8.72
8/10/2022 4:45:00 AM 18.15 64.67 0.086 7.07 1.35 8.73
8/10/2022 5:00:00 AM 18.03 64.454 0.086 7.07 1.41 8.78
8/10/2022 5:15:00 AM 17.91 64.238 0.086 7.07 1.43 8.8
8/10/2022 5:30:00 AM 17.8 64.04 0.086 7.07 1.7 8.84
8/10/2022 5:45:00 AM 17.67 63.806 0.087 7.07 1.38 8.82
8/10/2022 6:00:00 AM 17.57 63.626 0.086 7.06 1.55 8.86
8/10/2022 6:15:00 AM 17.43 63.374 0.086 7.07 1.48 8.9
8/10/2022 6:30:00 AM 17.32 63.176 0.086 7.07 1.47 8.93
8/10/2022 6:45:00 AM 17.22 62.996 0.086 7.07 1.42 8.95
8/10/2022 7:00:00 AM 17.07 62.726 0.086 7.08 1.28 9.05
8/10/2022 7:15:00 AM 17 62.6 0.086 7.08 1.46 9.09
8/10/2022 7:30:00 AM 16.9 62.42 0.086 7.09 1.38 9.16
8/10/2022 7:45:00 AM 16.85 62.33 0.086 7.09 1.39 9.24
8/10/2022 8:00:00 AM 16.82 62.276 0.086 7.11 1.51 9.34
8/10/2022 8:15:00 AM 16.81 62.258 0.086 7.14 1.2 9.47
8/10/2022 8:30:00 AM 16.82 62.276 0.086 7.16 1.51 9.64
8/10/2022 8:45:00 AM 16.87 62.366 0.086 7.2 1.21 9.75
8/10/2022 9:00:00 AM 16.92 62.456 0.085 7.21 1.33 9.84
8/10/2022 9:15:00 AM 16.99 62.582 0.085 7.22 1.28 9.89
8/10/2022 9:30:00 AM 17.09 62.762 0.084 7.27 1.43 10.03
8/10/2022 9:45:00 AM 17.22 62.996 0.084 7.27 1.48 10.11
8/10/2022 10:00:00 AM 17.38 63.284 0.083 7.31 1.3 10.19
8/10/2022 10:15:00 AM 17.56 63.608 0.083 7.35 1.24 10.25
8/10/2022 10:30:00 AM 17.71 63.878 0.083 7.38 1.3 10.25
8/10/2022 10:45:00 AM 17.84 64.112 0.082 7.4 1.42 10.24
8/10/2022 11:00:00 AM 17.98 64.364 0.082 7.42 1.33 10.26
8/10/2022 11:15:00 AM 18.11 64.598 0.082 7.44 1.21 10.26
8/10/2022 11:30:00 AM 18.29 64.922 0.082 7.47 1.2 10.27
8/10/2022 11:45:00 AM 18.54 65.372 0.081 7.5 1.31 10.27
8/10/2022 12:00:00 PM 18.74 65.732 0.081 7.52 1.31 10.26
8/10/2022 12:15:00 PM 19.05 66.29 0.081 7.55 1.31 10.29
8/10/2022 12:30:00 PM 19.34 66.812 0.08 7.59 1.61 10.25
8/10/2022 12:45:00 PM 19.55 67.19 0.08 7.59 1.35 10.21
8/10/2022 1:00:00 PM 19.79 67.622 0.08 7.6 1.42 10.17
8/10/2022 1:15:00 PM 20.13 68.234 0.08 7.61 2.28 10.12
8/10/2022 1:30:00 PM 20.58 69.044 0.08 7.65 2.07 10.08
8/10/2022 1:45:00 PM 20.85 69.53 0.08 7.66 1.27 10
8/10/2022 2:00:00 PM 21.02 69.836 0.08 7.64 1.41 9.93
8/10/2022 2:15:00 PM 21.19 70.142 0.08 7.65 1.69 9.89
8/10/2022 2:30:00 PM 21.37 70.466 0.08 7.65 1.59 9.8
8/10/2022 2:45:00 PM 21.68 71.024 0.079 7.66 7.39 9.77
8/10/2022 3:00:00 PM 21.96 71.528 0.079 7.66 1.96 9.7
8/10/2022 3:15:00 PM 22.17 71.906 0.079 7.64 1.32 9.62
8/10/2022 3:30:00 PM 22.39 72.302 0.079 7.66 1.29 9.58
8/10/2022 3:45:00 PM 22.45 72.41 0.079 7.58 1.41 9.35
8/10/2022 4:00:00 PM 22.64 72.752 0.079 7.56 1.38 9.27
8/10/2022 4:15:00 PM 22.79 73.022 0.08 7.55 1.4 9.17
8/10/2022 4:30:00 PM 22.91 73.238 0.08 7.51 1.43 9.06
8/10/2022 4:45:00 PM 22.95 73.31 0.08 7.5 1.32 9.04
8/10/2022 5:00:00 PM 23 73.4 0.08 7.5 1.35 9
8/10/2022 5:15:00 PM 23.06 73.508 0.08 7.48 2.07 8.98
8/10/2022 5:30:00 PM 23.02 73.436 0.08 7.45 1.65 8.98
8/10/2022 5:45:00 PM 22.99 73.382 0.08 7.4 1.52 8.93
8/10/2022 6:00:00 PM 22.91 73.238 0.08 7.38 1.56 8.86
8/10/2022 6:15:00 PM 22.82 73.076 0.08 7.31 1.67 8.75
8/10/2022 6:30:00 PM 22.72 72.896 0.08 7.28 1.66 8.61
8/10/2022 6:45:00 PM 22.63 72.734 0.08 7.33 1.57 8.63
8/10/2022 7:00:00 PM 22.35 72.23 0.08 7.25 1.31 8.39
8/10/2022 7:15:00 PM 22.19 71.942 0.081 7.27 1.37 8.41
8/10/2022 7:30:00 PM 22.01 71.618 0.081 7.28 1.49 8.38
8/10/2022 7:45:00 PM 21.78 71.204 0.082 7.25 1.47 8.4
8/10/2022 8:00:00 PM 21.53 70.754 0.082 7.24 1.43 8.37
8/10/2022 8:15:00 PM 21.34 70.412 0.082 7.23 1.38 8.37
8/10/2022 8:30:00 PM 21.08 69.944 0.083 7.22 1.44 8.37
8/10/2022 8:45:00 PM 20.87 69.566 0.083 7.2 2.29 8.34
8/10/2022 9:00:00 PM 20.7 69.26 0.083 7.17 1.49 8.31
8/10/2022 9:15:00 PM 20.49 68.882 0.084 7.14 2.97 8.23
8/10/2022 9:30:00 PM 20.3 68.54 0.084 7.15 1.51 8.35
8/10/2022 9:45:00 PM 20.08 68.144 0.084 7.15 1.54 8.38
8/10/2022 10:00:00 PM 19.89 67.802 0.084 7.13 1.79 8.39
8/10/2022 10:15:00 PM 19.76 67.568 0.085 7.12 1.42 8.4
8/10/2022 10:30:00 PM 19.56 67.208 0.085 7.13 1.46 8.43
8/10/2022 10:45:00 PM 19.4 66.92 0.085 7.12 1.46 8.48
8/10/2022 11:00:00 PM 19.29 66.722 0.085 7.11 1.43 8.47
8/10/2022 11:15:00 PM 19.14 66.452 0.085 7.11 1.4 8.5
8/10/2022 11:30:00 PM 19.01 66.218 0.085 7.11 1.6 8.5
8/10/2022 11:45:00 PM 18.87 65.966 0.086 7.11 1.36 8.55
8/11/2022 12:00:00 AM 18.71 65.67799 0.086 7.11 1.63 8.59
8/11/2022 12:15:00 AM 18.6 65.48 0.086 7.1 1.46 8.6
8/11/2022 12:30:00 AM 18.49 65.282 0.086 7.1 1.31 8.63
8/11/2022 12:45:00 AM 18.38 65.084 0.086 7.09 1.63 8.63
8/11/2022 1:00:00 AM 18.23 64.814 0.086 7.1 1.41 8.69
8/11/2022 1:15:00 AM 18.09 64.562 0.086 7.1 1.38 8.75
8/11/2022 1:30:00 AM 17.99 64.382 0.086 7.1 1.32 8.75
8/11/2022 1:45:00 AM 17.88 64.184 0.086 7.09 1.41 8.76
8/11/2022 2:00:00 AM 17.76 63.968 0.086 7.09 1.53 8.8
8/11/2022 2:15:00 AM 17.62 63.716 0.086 7.09 1.32 8.85
8/11/2022 2:30:00 AM 17.49 63.482 0.086 7.09 1.36 8.88
8/11/2022 2:45:00 AM 17.39 63.302 0.086 7.09 1.21 8.89
8/11/2022 3:00:00 AM 17.26 63.068 0.086 7.09 1.51 8.91
8/11/2022 3:15:00 AM 17.14 62.852 0.087 7.08 1.35 8.95
8/11/2022 3:30:00 AM 17.01 62.618 0.087 7.09 1.49 8.98
8/11/2022 3:45:00 AM 16.9 62.42 0.087 7.09 1.64 8.99
8/11/2022 4:00:00 AM 16.79 62.222 0.087 7.09 1.2 9.02
8/11/2022 4:15:00 AM 16.65 61.97 0.087 7.09 1.38 9.07
8/11/2022 4:30:00 AM 16.56 61.808 0.087 7.09 1.5 9.09
8/11/2022 4:45:00 AM 16.48 61.664 0.087 7.08 1.27 9.1
8/11/2022 5:00:00 AM 16.35 61.43 0.087 7.08 1.31 9.13
8/11/2022 5:15:00 AM 16.25 61.25 0.087 7.08 1.52 9.16
8/11/2022 5:30:00 AM 16.14 61.052 0.087 7.05 1.45 9.19
8/11/2022 5:45:00 AM 16.06 60.908 0.087 7.05 1.37 9.19
8/11/2022 6:00:00 AM 15.93 60.674 0.087 7.05 1.65 9.22
8/11/2022 6:15:00 AM 15.86 60.548 0.087 7.02 1.33 9.24
8/11/2022 6:30:00 AM 15.74 60.332 0.087 7.03 2.13 9.28
8/11/2022 6:45:00 AM 15.65 60.17 0.087 7.03 1.59 9.32
8/11/2022 7:00:00 AM 15.59 60.062 0.087 7.03 1.41 9.33
8/11/2022 7:15:00 AM 15.49 59.882 0.087 7.05 1.37 9.42
8/11/2022 7:30:00 AM 15.45 59.81 0.087 7.06 1.23 9.47
8/11/2022 7:45:00 AM 15.43 59.774 0.086 7.08 1.3 9.56
8/11/2022 8:00:00 AM 15.43 59.774 0.086 7.11 1.34 9.66
8/11/2022 8:15:00 AM 15.45 59.81 0.086 7.14 1.49 9.78
8/11/2022 8:30:00 AM 15.5 59.9 0.086 7.17 1.35 9.91
8/11/2022 8:45:00 AM 15.56 60.008 0.086 7.2 1.55 10.03
8/11/2022 9:00:00 AM 15.63 60.134 0.086 7.23 1.96 10.12
8/11/2022 9:15:00 AM 15.7 60.26 0.086 7.24 1.36 10.14
8/11/2022 9:30:00 AM 15.81 60.458 0.085 7.27 1.32 10.26
8/11/2022 9:45:00 AM 15.97 60.746 0.085 7.31 1.28 10.35
8/11/2022 10:00:00 AM 16.14 61.052 0.084 7.33 1.26 10.39
8/11/2022 10:15:00 AM 16.4 61.52 0.084 7.36 1.33 10.46
8/11/2022 10:30:00 AM 16.77 62.186 0.083 7.42 1.26 10.54
8/11/2022 10:45:00 AM 17.16 62.888 0.083 7.45 1.84 10.52
8/11/2022 11:00:00 AM 17.42 63.356 0.083 7.47 1.46 10.52
8/11/2022 11:15:00 AM 17.72 63.896 0.082 7.5 1.34 10.49
8/11/2022 11:30:00 AM 17.94 64.292 0.082 7.49 1.71 10.46
8/11/2022 11:45:00 AM 18.17 64.706 0.082 7.51 1.59 10.39
8/11/2022 12:00:00 PM 18.45 65.21 0.082 7.53 1.32 10.34
8/11/2022 12:15:00 PM 18.79 65.82201 0.081 7.55 1.23 10.28
8/11/2022 12:30:00 PM 19.08 66.344 0.081 7.56 1.35 10.22
8/11/2022 12:45:00 PM 19.57 67.226 0.081 7.58 2.03 10.15
8/11/2022 1:00:00 PM 19.89 67.802 0.081 7.55 1.39 10.05
8/11/2022 1:15:00 PM 20.32 68.576 0.081 7.59 1.31 9.98
8/11/2022 1:30:00 PM 20.66 69.188 0.081 7.56 1.23 9.86
8/11/2022 1:45:00 PM 21.02 69.836 0.08 7.59 1.2 9.8
8/11/2022 2:00:00 PM 21.25 70.25 0.08 7.58 1.45 9.72
8/11/2022 2:15:00 PM 21.52 70.736 0.08 7.62 1.35 9.63
8/11/2022 2:30:00 PM 21.72 71.096 0.081 7.55 1.67 9.54
8/11/2022 2:45:00 PM 21.96 71.528 0.081 7.55 1.49 9.46
8/11/2022 3:00:00 PM 22.14 71.852 0.081 7.52 1.3 9.36
8/11/2022 3:15:00 PM 22.29 72.122 0.081 7.52 1.7 9.28
8/11/2022 3:30:00 PM 22.43 72.374 0.081 7.53 1.3 9.22
8/11/2022 3:45:00 PM 22.57 72.626 0.081 7.53 1.21 9.16
8/11/2022 4:00:00 PM 22.66 72.788 0.081 7.5 1.23 9.07
8/11/2022 4:15:00 PM 22.76 72.968 0.081 7.5 1.19 9.01
8/11/2022 4:30:00 PM 22.79 73.022 0.081 7.47 1.25 8.94
8/11/2022 4:45:00 PM 22.85 73.13 0.081 7.45 1.23 8.9
8/11/2022 5:00:00 PM 22.9 73.22 0.081 7.45 1.28 8.86
8/11/2022 5:15:00 PM 22.92 73.256 0.081 7.44 1.29 8.82
8/11/2022 5:30:00 PM 22.95 73.31 0.081 7.44 1.34 8.81
8/11/2022 5:45:00 PM 22.94 73.292 0.081 7.4 1.68 8.76
8/11/2022 6:00:00 PM 22.9 73.22 0.081 7.4 1.49 8.76
8/11/2022 6:15:00 PM 22.86 73.148 0.081 7.38 1.61 8.71
8/11/2022 6:30:00 PM 22.73 72.914 0.081 7.37 1.29 8.64
8/11/2022 6:45:00 PM 22.58 72.644 0.081 7.31 1.32 8.49
8/11/2022 7:00:00 PM 22.34 72.212 0.081 7.34 1.47 8.55
8/11/2022 7:15:00 PM 22.13 71.834 0.082 7.27 2.45 8.41
8/11/2022 7:30:00 PM 21.92 71.456 0.082 7.28 2.01 8.42
8/11/2022 7:45:00 PM 21.66 70.988 0.083 7.25 1.5 8.35
8/11/2022 8:00:00 PM 21.4 70.52 0.083 7.23 1.38 8.31
8/11/2022 8:15:00 PM 21.12 70.016 0.083 7.23 2.19 8.34
8/11/2022 8:30:00 PM 20.83 69.494 0.084 7.21 1.49 8.35
8/11/2022 8:45:00 PM 20.52 68.936 0.084 7.2 1.25 8.37
8/11/2022 9:00:00 PM 20.23 68.414 0.084 7.18 2.64 8.37
8/11/2022 9:15:00 PM 19.94 67.892 0.085 7.17 2.27 8.39
8/11/2022 9:30:00 PM 19.66 67.388 0.085 7.17 2.11 8.45
8/11/2022 9:45:00 PM 19.45 67.01 0.085 7.16 1.81 8.47
8/11/2022 10:00:00 PM 19.18 66.524 0.085 7.15 1.55 8.52
8/11/2022 10:15:00 PM 18.96 66.128 0.085 7.14 1.61 8.55
8/11/2022 10:30:00 PM 18.74 65.732 0.085 7.14 1.48 8.63
8/11/2022 10:45:00 PM 18.59 65.462 0.086 7.14 1.81 8.64
8/11/2022 11:00:00 PM 18.38 65.084 0.086 7.14 1.48 8.69
8/11/2022 11:15:00 PM 18.23 64.814 0.086 7.12 1.62 8.73
8/11/2022 11:30:00 PM 18.06 64.508 0.086 7.12 1.41 8.72
8/11/2022 11:45:00 PM 17.89 64.202 0.086 7.12 1.36 8.79
8/12/2022 12:00:00 AM 17.76 63.968 0.086 7.12 1.39 8.81
8/12/2022 12:15:00 AM 17.61 63.698 0.086 7.13 1.38 8.84
8/12/2022 12:30:00 AM 17.46 63.428 0.086 7.12 1.83 8.84
8/12/2022 12:45:00 AM 17.3 63.14 0.086 7.12 1.59 8.95
8/12/2022 1:00:00 AM 17.17 62.906 0.087 7.13 1.36 8.97
8/12/2022 1:15:00 AM 17.02 62.636 0.087 7.12 1.52 9
8/12/2022 1:30:00 AM 16.91 62.438 0.087 7.12 1.41 9.02
8/12/2022 1:45:00 AM 16.77 62.186 0.087 7.12 1.44 9.06
8/12/2022 2:00:00 AM 16.64 61.952 0.087 7.11 1.61 9.07
8/12/2022 2:15:00 AM 16.51 61.718 0.087 7.11 1.53 9.11
8/12/2022 2:30:00 AM 16.38 61.484 0.087 7.11 1.35 9.12
8/12/2022 2:45:00 AM 16.29 61.322 0.087 7.1 1.71 9.13
8/12/2022 3:00:00 AM 16.14 61.052 0.087 7.1 1.95 9.18
8/12/2022 3:15:00 AM 16.02 60.836 0.087 7.1 1.87 9.21
8/12/2022 3:30:00 AM 15.88 60.584 0.087 7.1 2.2 9.26
8/12/2022 3:45:00 AM 15.78 60.404 0.087 7.08 1.42 9.26
8/12/2022 4:00:00 AM 15.66 60.188 0.087 7.09 1.54 9.29
8/12/2022 4:15:00 AM 15.55 59.99 0.087 7.08 1.4 9.32
8/12/2022 4:30:00 AM 15.43 59.774 0.087 7.09 1.44 9.35
8/12/2022 4:45:00 AM 15.32 59.576 0.087 7.08 1.35 9.38
8/12/2022 5:00:00 AM 15.23 59.414 0.087 7.08 1.38 9.4
8/12/2022 5:15:00 AM 15.12 59.216 0.087 7.08 1.37 9.43
8/12/2022 5:30:00 AM 15.02 59.036 0.087 7.08 1.49 9.45
8/12/2022 5:45:00 AM 14.92 58.856 0.087 7.08 1.53 9.47
8/12/2022 6:00:00 AM 14.82 58.676 0.087 7.08 1.49 9.5
8/12/2022 6:15:00 AM 14.74 58.532 0.087 7.08 1.4 9.51
8/12/2022 6:30:00 AM 14.64 58.352 0.087 7.08 1.42 9.54
8/12/2022 6:45:00 AM 14.54 58.172 0.087 7.08 1.38 9.59
8/12/2022 7:00:00 AM 14.45 58.01 0.087 7.08 1.44 9.64
8/12/2022 7:15:00 AM 14.38 57.884 0.087 7.09 1.3 9.68
8/12/2022 7:30:00 AM 14.33 57.794 0.087 7.09 1.3 9.74
8/12/2022 7:45:00 AM 14.27 57.686 0.087 7.11 1.28 9.8
8/12/2022 8:00:00 AM 14.24 57.632 0.087 7.12 1.3 9.87
8/12/2022 8:15:00 AM 14.22 57.596 0.087 7.13 1.28 9.94
8/12/2022 8:30:00 AM 14.25 57.65 0.086 7.15 1.18 10.01
8/12/2022 8:45:00 AM 14.3 57.74 0.086 7.18 1.18 10.09
8/12/2022 9:00:00 AM 14.4 57.92 0.086 7.19 1.55 10.15
8/12/2022 9:15:00 AM 14.55 58.19 0.086 7.2 2.05 10.24
8/12/2022 9:30:00 AM 14.73 58.514 0.086 7.23 1.36 10.27
8/12/2022 9:45:00 AM 15.06 59.108 0.085 7.28 1.6 10.43
8/12/2022 10:00:00 AM 15.37 59.666 0.085 7.31 1.24 10.51
8/12/2022 10:15:00 AM 15.76 60.368 0.084 7.34 1.14 10.55
8/12/2022 10:30:00 AM 16.1 60.98 0.084 7.37 1.15 10.54
8/12/2022 10:45:00 AM 16.41 61.538 0.084 7.38 2.41 10.51
8/12/2022 11:00:00 AM 16.7 62.06 0.084 7.38 1.28 10.52
8/12/2022 11:15:00 AM 17.03 62.654 0.084 7.41 1.17 10.5
8/12/2022 11:30:00 AM 17.36 63.248 0.083 7.43 1.84 10.42
8/12/2022 11:45:00 AM 17.71 63.878 0.083 7.43 1.24 10.39
8/12/2022 12:00:00 PM 18.06 64.508 0.083 7.46 1.27 10.35
8/12/2022 12:15:00 PM 18.39 65.102 0.082 7.47 1.2 10.28
8/12/2022 12:30:00 PM 18.73 65.714 0.082 7.48 1.75 10.21
8/12/2022 12:45:00 PM 19.11 66.398 0.082 7.51 1.22 10.18
8/12/2022 1:00:00 PM 19.48 67.064 0.082 7.51 1.16 10.1
8/12/2022 1:15:00 PM 19.77 67.586 0.082 7.52 1.36 10.05
8/12/2022 1:30:00 PM 20.02 68.036 0.082 7.53 1.26 10
8/12/2022 1:45:00 PM 20.26 68.468 0.082 7.53 1.22 9.95
8/12/2022 2:00:00 PM 20.47 68.846 0.082 7.54 1.29 9.87
8/12/2022 2:15:00 PM 20.75 69.35 0.081 7.54 1.16 9.81
8/12/2022 2:30:00 PM 21.02 69.836 0.081 7.55 1.3 9.75
8/12/2022 2:45:00 PM 21.12 70.016 0.082 7.54 1.3 9.69
8/12/2022 3:00:00 PM 21.32 70.376 0.081 7.56 1.24 9.65
8/12/2022 3:15:00 PM 21.44 70.592 0.081 7.55 1.18 9.57
8/12/2022 3:30:00 PM 21.55 70.79 0.081 7.53 1.26 9.51
8/12/2022 3:45:00 PM 21.6 70.88 0.082 7.49 1.33 9.35
8/12/2022 4:00:00 PM 21.72 71.096 0.081 7.49 1.59 9.35
8/12/2022 4:15:00 PM 21.78 71.204 0.081 7.49 1.37 9.3
8/12/2022 4:30:00 PM 21.81 71.258 0.081 7.5 1.36 9.26
8/12/2022 4:45:00 PM 21.81 71.258 0.081 7.47 1.46 9.18
8/12/2022 5:00:00 PM 21.83 71.294 0.081 7.45 1.46 9.11
8/12/2022 5:15:00 PM 21.8 71.24 0.081 7.43 1.47 9.05
8/12/2022 5:30:00 PM 21.76 71.168 0.081 7.4 1.42 9.01
8/12/2022 5:45:00 PM 21.73 71.114 0.081 7.38 1.48 8.94
8/12/2022 6:00:00 PM 21.66 70.988 0.081 7.36 1.56 8.89
8/12/2022 6:15:00 PM 21.56 70.808 0.081 7.32 1.43 8.73
8/12/2022 6:30:00 PM 21.42 70.556 0.082 7.31 1.48 8.7
8/12/2022 6:45:00 PM 21.26 70.268 0.082 7.29 1.47 8.66
8/12/2022 7:00:00 PM 21.05 69.89 0.082 7.26 1.27 8.56
8/12/2022 7:15:00 PM 20.87 69.566 0.082 7.27 2.08 8.59
8/12/2022 7:30:00 PM 20.63 69.134 0.083 7.25 1.37 8.59
8/12/2022 7:45:00 PM 20.36 68.648 0.083 7.24 1.36 8.58
8/12/2022 8:00:00 PM 20.06 68.108 0.083 7.25 1.41 8.66
8/12/2022 8:15:00 PM 19.74 67.532 0.083 7.23 1.41 8.66
8/12/2022 8:30:00 PM 19.46 67.028 0.084 7.21 1.46 8.64
8/12/2022 8:45:00 PM 19.19 66.542 0.084 7.2 1.58 8.67
8/12/2022 9:00:00 PM 18.84 65.912 0.084 7.19 1.59 8.71
8/12/2022 9:15:00 PM 18.55 65.39 0.085 7.18 1.3 8.74
8/12/2022 9:30:00 PM 18.3 64.94 0.085 7.17 1.38 8.78
8/12/2022 9:45:00 PM 18.08 64.544 0.085 7.17 1.47 8.82
8/12/2022 10:00:00 PM 17.75 63.95 0.085 7.17 1.35 8.9
8/12/2022 10:15:00 PM 17.56 63.608 0.085 7.16 1.43 8.94
8/12/2022 10:30:00 PM 17.3 63.14 0.085 7.16 2.27 8.99
8/12/2022 10:45:00 PM 17.11 62.798 0.086 7.15 1.69 9.02
8/12/2022 11:00:00 PM 16.93 62.474 0.086 7.13 6.39 8.98
8/12/2022 11:15:00 PM 16.73 62.114 0.086 7.14 1.28 9.12
8/12/2022 11:30:00 PM 16.58 61.844 0.086 7.14 1.31 9.15
8/12/2022 11:45:00 PM 16.4 61.52 0.086 7.14 1.31 9.18
8/13/2022 12:00:00 AM 16.23 61.214 0.086 7.14 1.35 9.23
8/13/2022 12:15:00 AM 16.07 60.926 0.086 7.14 1.5 9.25
8/13/2022 12:30:00 AM 15.89 60.602 0.086 7.14 1.47 9.31
8/13/2022 12:45:00 AM 15.74 60.332 0.086 7.14 1.27 9.35
8/13/2022 1:00:00 AM 15.59 60.062 0.086 7.13 1.28 9.37
8/13/2022 1:15:00 AM 15.45 59.81 0.086 7.13 1.3 9.4
8/13/2022 1:30:00 AM 15.28 59.504 0.086 7.13 1.58 9.46
8/13/2022 1:45:00 AM 15.14 59.252 0.087 7.13 1.39 9.49
8/13/2022 2:00:00 AM 15 59 0.087 7.14 1.31 9.53
8/13/2022 2:15:00 AM 14.84 58.712 0.087 7.13 1.32 9.58
8/13/2022 2:30:00 AM 14.71 58.478 0.087 7.13 1.22 9.6
8/13/2022 2:45:00 AM 14.57 58.226 0.087 7.13 1.23 9.63
8/13/2022 3:00:00 AM 14.45 58.01 0.087 7.13 1.29 9.66
8/13/2022 3:15:00 AM 14.31 57.758 0.087 7.13 1.45 9.69
8/13/2022 3:30:00 AM 14.18 57.524 0.087 7.13 1.09 9.74
8/13/2022 3:45:00 AM 14.07 57.326 0.087 7.13 1.23 9.75
8/13/2022 4:00:00 AM 13.92 57.056 0.087 7.13 1.27 9.8
8/13/2022 4:15:00 AM 13.8 56.84 0.087 7.1 1.14 9.84
8/13/2022 4:30:00 AM 13.66 56.588 0.087 7.1 1.26 9.88
8/13/2022 4:45:00 AM 13.55 56.39 0.087 7.12 1.17 9.92
8/13/2022 5:00:00 AM 13.45 56.21 0.087 7.11 1.46 9.93
8/13/2022 5:15:00 AM 13.32 55.976 0.087 7.11 1.3 9.98
8/13/2022 5:30:00 AM 13.2 55.76 0.087 7.12 1.54 10.01
8/13/2022 5:45:00 AM 13.06 55.508 0.087 7.12 2.06 10.07
8/13/2022 6:00:00 AM 12.95 55.31 0.087 7.12 1.5 10.11
8/13/2022 6:15:00 AM 12.81 55.058 0.087 7.12 1.38 10.16
8/13/2022 6:30:00 AM 12.72 54.896 0.087 7.13 1.27 10.19
8/13/2022 6:45:00 AM 12.62 54.716 0.087 7.13 1.17 10.24
8/13/2022 7:00:00 AM 12.54 54.572 0.087 7.14 1.29 10.3
8/13/2022 7:15:00 AM 12.45 54.41 0.087 7.15 1.16 10.36
8/13/2022 7:30:00 AM 12.39 54.302 0.086 7.16 1.12 10.43
8/13/2022 7:45:00 AM 12.34 54.212 0.086 7.17 1.4 10.5
8/13/2022 8:00:00 AM 12.32 54.176 0.086 7.18 1.42 10.55
8/13/2022 8:15:00 AM 12.34 54.212 0.086 7.19 1.27 10.59
8/13/2022 8:30:00 AM 12.38 54.284 0.086 7.21 1.26 10.66
8/13/2022 8:45:00 AM 12.46 54.428 0.086 7.22 1.17 10.7
8/13/2022 9:00:00 AM 12.59 54.662 0.086 7.24 1.21 10.76
8/13/2022 9:15:00 AM 12.72 54.896 0.086 7.25 1.27 10.81
8/13/2022 9:30:00 AM 12.89 55.202 0.086 7.26 1.28 10.86
8/13/2022 9:45:00 AM 13.21 55.778 0.085 7.28 1.08 10.92
8/13/2022 10:00:00 AM 13.61 56.498 0.085 7.32 1.04 10.99
8/13/2022 10:15:00 AM 14.03 57.254 0.084 7.34 1.38 11.02
8/13/2022 10:30:00 AM 14.48 58.064 0.084 7.37 1.11 11
8/13/2022 10:45:00 AM 14.91 58.838 0.084 7.38 1.22 10.96
8/13/2022 11:00:00 AM 15.36 59.648 0.084 7.41 1.26 10.93
8/13/2022 11:15:00 AM 15.75 60.35 0.084 7.41 1.25 10.89
8/13/2022 11:30:00 AM 16.1 60.98 0.084 7.43 1.25 10.84
8/13/2022 11:45:00 AM 16.38 61.484 0.083 7.45 1.28 10.77
8/13/2022 12:00:00 PM 16.79 62.222 0.083 7.46 1.21 10.69
8/13/2022 12:15:00 PM 17.12 62.816 0.083 7.46 1.44 10.6
8/13/2022 12:30:00 PM 17.47 63.446 0.083 7.46 1.17 10.52
8/13/2022 12:45:00 PM 17.87 64.166 0.083 7.48 1.29 10.46
8/13/2022 1:00:00 PM 18.32 64.976 0.083 7.49 1.23 10.35
8/13/2022 1:15:00 PM 18.65 65.57 0.082 7.48 1.25 10.28
8/13/2022 1:30:00 PM 19.03 66.254 0.082 7.51 1.55 10.21
8/13/2022 1:45:00 PM 19.23 66.614 0.082 7.51 1.26 10.14
8/13/2022 2:00:00 PM 19.6 67.28 0.082 7.52 1.14 10.07
8/13/2022 2:15:00 PM 19.85 67.73 0.082 7.51 1.24 9.98
8/13/2022 2:30:00 PM 20.03 68.054 0.082 7.51 1.32 9.9
8/13/2022 2:45:00 PM 20.21 68.378 0.082 7.48 1.49 9.8
8/13/2022 3:00:00 PM 20.39 68.702 0.082 7.47 3.27 9.72
8/13/2022 3:15:00 PM 20.59 69.062 0.082 7.49 1.36 9.67
8/13/2022 3:30:00 PM 20.77 69.386 0.082 7.5 1.2 9.62
8/13/2022 3:45:00 PM 20.87 69.566 0.082 7.51 1.2 9.54
8/13/2022 4:00:00 PM 21.01 69.818 0.082 7.48 1.46 9.46
8/13/2022 4:15:00 PM 21.1 69.98 0.082 7.47 1.29 9.41
8/13/2022 4:30:00 PM 21.15 70.07 0.082 7.46 1.19 9.33
8/13/2022 4:45:00 PM 21.16 70.088 0.082 7.44 1.27 9.24
8/13/2022 5:00:00 PM 21.2 70.16 0.082 7.45 1.27 9.23
8/13/2022 5:15:00 PM 21.23 70.214 0.082 7.43 1.24 9.17
8/13/2022 5:30:00 PM 21.25 70.25 0.082 7.41 1.38 9.12
8/13/2022 5:45:00 PM 21.22 70.196 0.082 7.36 1.31 9.02
8/13/2022 6:00:00 PM 21.14 70.052 0.082 7.34 1.44 8.98
8/13/2022 6:15:00 PM 21.11 69.998 0.082 7.33 2.36 8.92
8/13/2022 6:30:00 PM 21.03 69.854 0.082 7.31 1.49 8.89
8/13/2022 6:45:00 PM 20.83 69.494 0.082 7.24 1.89 8.62
8/13/2022 7:00:00 PM 20.64 69.152 0.082 7.15 1.67 8.35
8/13/2022 7:15:00 PM 20.48 68.864 0.083 7.23 1.68 8.58
8/13/2022 7:30:00 PM 20.3 68.54 0.083 7.2 1.64 8.53
8/13/2022 7:45:00 PM 20.09 68.162 0.083 7.21 1.31 8.61
8/13/2022 8:00:00 PM 19.83 67.694 0.083 7.24 1.53 8.7
8/13/2022 8:15:00 PM 19.56 67.208 0.084 7.23 1.46 8.72
8/13/2022 8:30:00 PM 19.29 66.722 0.084 7.23 1.35 8.74
8/13/2022 8:45:00 PM 18.99 66.182 0.084 7.2 1.35 8.71
8/13/2022 9:00:00 PM 18.72 65.696 0.084 7.2 1.35 8.74
8/13/2022 9:15:00 PM 18.46 65.228 0.085 7.18 1.4 8.74
8/13/2022 9:30:00 PM 18.19 64.742 0.085 7.17 1.39 8.79
8/13/2022 9:45:00 PM 17.96 64.328 0.085 7.16 1.44 8.8
8/13/2022 10:00:00 PM 17.7 63.86 0.085 7.16 1.29 8.9
8/13/2022 10:15:00 PM 17.48 63.464 0.085 7.16 1.43 8.93
8/13/2022 10:30:00 PM 17.3 63.14 0.085 7.16 1.43 8.98
8/13/2022 10:45:00 PM 17.07 62.726 0.086 7.16 1.37 9.03
8/13/2022 11:00:00 PM 16.9 62.42 0.086 7.15 1.53 9.06
8/13/2022 11:15:00 PM 16.77 62.186 0.086 7.14 1.28 9.09
8/13/2022 11:30:00 PM 16.58 61.844 0.086 7.14 1.52 9.13
8/13/2022 11:45:00 PM 16.42 61.556 0.086 7.15 1.37 9.17
8/14/2022 12:00:00 AM 16.29 61.322 0.086 7.15 1.27 9.21
8/14/2022 12:15:00 AM 16.14 61.052 0.086 7.14 1.29 9.25
8/14/2022 12:30:00 AM 15.99 60.782 0.086 7.14 1.3 9.28
8/14/2022 12:45:00 AM 15.84 60.512 0.086 7.14 1.65 9.33
8/14/2022 1:00:00 AM 15.73 60.314 0.086 7.14 1.29 9.34
8/14/2022 1:15:00 AM 15.6 60.08 0.087 7.14 1.28 9.38
8/14/2022 1:30:00 AM 15.48 59.864 0.087 7.14 1.38 9.43
8/14/2022 1:45:00 AM 15.38 59.684 0.087 7.15 1.31 9.45
8/14/2022 2:00:00 AM 15.28 59.504 0.087 7.14 1.47 9.48
8/14/2022 2:15:00 AM 15.16 59.288 0.087 7.14 1.35 9.5
8/14/2022 2:30:00 AM 15.06 59.108 0.087 7.14 1.39 9.54
8/14/2022 2:45:00 AM 14.93 58.874 0.087 7.14 1.25 9.57
8/14/2022 3:00:00 AM 14.83 58.694 0.087 7.14 1.38 9.6
8/14/2022 3:15:00 AM 14.74 58.532 0.087 7.14 1.31 9.63
8/14/2022 3:30:00 AM 14.65 58.37 0.087 7.14 1.33 9.65
8/14/2022 3:45:00 AM 14.57 58.226 0.087 7.14 1.22 9.67
8/14/2022 4:00:00 AM 14.48 58.064 0.087 7.14 1.29 9.7
8/14/2022 4:15:00 AM 14.42 57.956 0.087 7.14 1.39 9.73
8/14/2022 4:30:00 AM 14.35 57.83 0.087 7.14 1.27 9.74
8/14/2022 4:45:00 AM 14.28 57.704 0.087 7.14 1.32 9.77
8/14/2022 5:00:00 AM 14.22 57.596 0.087 7.14 1.23 9.76
8/14/2022 5:15:00 AM 14.15 57.47 0.087 7.14 1.21 9.79
8/14/2022 5:30:00 AM 14.08 57.344 0.087 7.14 1.32 9.8
8/14/2022 5:45:00 AM 14.01 57.218 0.087 7.14 1.58 9.84
8/14/2022 6:00:00 AM 13.95 57.11 0.087 7.14 1.24 9.85
8/14/2022 6:15:00 AM 13.89 57.002 0.087 7.14 1.34 9.85
8/14/2022 6:30:00 AM 13.83 56.894 0.087 7.14 1.31 9.88
8/14/2022 6:45:00 AM 13.78 56.804 0.087 7.15 1.21 9.93
8/14/2022 7:00:00 AM 13.76 56.768 0.087 7.16 1.18 9.97
8/14/2022 7:15:00 AM 13.74 56.732 0.087 7.17 1.15 10.06
8/14/2022 7:30:00 AM 13.74 56.732 0.087 7.18 1.24 10.13
8/14/2022 7:45:00 AM 13.76 56.768 0.087 7.21 1.17 10.25
8/14/2022 8:00:00 AM 13.8 56.84 0.086 7.22 1.97 10.34
8/14/2022 8:15:00 AM 13.83 56.894 0.086 7.22 1.84 10.4
8/14/2022 8:30:00 AM 13.89 57.002 0.086 7.25 1.3 10.47
8/14/2022 8:45:00 AM 13.94 57.092 0.086 7.26 1.31 10.5
8/14/2022 9:00:00 AM 14.05 57.29 0.086 7.27 1.11 10.56
8/14/2022 9:15:00 AM 14.29 57.722 0.085 7.3 1.16 10.67
8/14/2022 9:30:00 AM 14.62 58.316 0.085 7.33 1.4 10.75
8/14/2022 9:45:00 AM 14.87 58.766 0.085 7.36 1.45 10.82
8/14/2022 10:00:00 AM 15.25 59.45 0.084 7.38 1.77 10.87
8/14/2022 10:15:00 AM 15.67 60.206 0.084 7.41 1.33 10.89
8/14/2022 10:30:00 AM 16.14 61.052 0.083 7.44 1.18 10.87
8/14/2022 10:45:00 AM 16.48 61.664 0.083 7.47 1.15 10.82
8/14/2022 11:00:00 AM 16.86 62.348 0.083 7.48 1.14 10.79
8/14/2022 11:15:00 AM 17.24 63.032 0.083 7.49 1.17 10.73
8/14/2022 11:30:00 AM 17.59 63.662 0.083 7.51 1.27 10.63
8/14/2022 11:45:00 AM 17.89 64.202 0.082 7.52 1.28 10.57
8/14/2022 12:00:00 PM 18.22 64.796 0.082 7.52 1.28 10.51
8/14/2022 12:15:00 PM 18.59 65.462 0.082 7.54 1.11 10.41
8/14/2022 12:30:00 PM 18.95 66.11 0.082 7.55 1.15 10.31
8/14/2022 12:45:00 PM 19.33 66.794 0.082 7.55 1.26 10.23
8/14/2022 1:00:00 PM 19.66 67.388 0.082 7.54 1.22 10.14
8/14/2022 1:15:00 PM 19.95 67.91 0.082 7.57 1.26 10.11
8/14/2022 1:30:00 PM 20.23 68.414 0.082 7.57 1.29 10.03
8/14/2022 1:45:00 PM 20.44 68.792 0.082 7.58 1.25 9.98
8/14/2022 2:00:00 PM 20.56 69.008 0.082 7.58 2.66 9.94
8/14/2022 2:15:00 PM 20.72 69.296 0.081 7.62 1.28 9.95
8/14/2022 2:30:00 PM 20.95 69.71 0.081 7.65 1.25 9.93
8/14/2022 2:45:00 PM 21.09 69.962 0.081 7.66 1.24 9.87
8/14/2022 3:00:00 PM 21.15 70.07 0.081 7.62 1.37 9.74
8/14/2022 3:15:00 PM 21.19 70.142 0.081 7.59 1.54 9.74
8/14/2022 3:30:00 PM 21.21 70.17799 0.081 7.63 1.49 9.79
8/14/2022 3:45:00 PM 21.16 70.088 0.081 7.61 1.56 9.7
8/14/2022 4:00:00 PM 21.11 69.998 0.081 7.6 1.31 9.61
8/14/2022 4:15:00 PM 21.1 69.98 0.081 7.58 1.3 9.55
8/14/2022 4:30:00 PM 21.07 69.926 0.081 7.58 1.39 9.55
8/14/2022 4:45:00 PM 20.98 69.764 0.081 7.54 1.38 9.52
8/14/2022 5:00:00 PM 20.92 69.656 0.081 7.57 1.25 9.56
8/14/2022 5:15:00 PM 20.84 69.512 0.081 7.55 1.29 9.53
8/14/2022 5:30:00 PM 20.78 69.404 0.081 7.56 1.37 9.53
8/14/2022 5:45:00 PM 20.59 69.062 0.081 7.52 1.39 9.41
8/14/2022 6:00:00 PM 20.48 68.864 0.081 7.5 1.27 9.35
8/14/2022 6:15:00 PM 20.32 68.576 0.081 7.46 1.26 9.28
8/14/2022 6:30:00 PM 20.19 68.342 0.081 7.44 1.35 9.24
8/14/2022 6:45:00 PM 20.09 68.162 0.081 7.44 1.47 9.21
8/14/2022 7:00:00 PM 19.94 67.892 0.081 7.4 1.18 9.18
8/14/2022 7:15:00 PM 19.8 67.64 0.082 7.38 1.29 9.17
8/14/2022 7:30:00 PM 19.65 67.37 0.082 7.37 1.28 9.13
8/14/2022 7:45:00 PM 19.49 67.082 0.082 7.34 1.27 9.08
8/14/2022 8:00:00 PM 19.34 66.812 0.082 7.31 1.27 8.99
8/14/2022 8:15:00 PM 19.15 66.47 0.083 7.28 1.3 8.91
8/14/2022 8:30:00 PM 19 66.2 0.083 7.26 1.33 8.85
8/14/2022 8:45:00 PM 18.89 66.002 0.083 7.23 1.4 8.79
8/14/2022 9:00:00 PM 18.69 65.642 0.084 7.21 1.46 8.75
8/14/2022 9:15:00 PM 18.53 65.354 0.084 7.2 1.93 8.73
8/14/2022 9:30:00 PM 18.32 64.976 0.084 7.19 1.55 8.77
8/14/2022 9:45:00 PM 18.18 64.724 0.085 7.17 1.45 8.75
8/14/2022 10:00:00 PM 18.02 64.436 0.085 7.17 1.28 8.78
8/14/2022 10:15:00 PM 17.84 64.112 0.085 7.16 1.28 8.8
8/14/2022 10:30:00 PM 17.64 63.752 0.085 7.17 1.94 8.86
8/14/2022 10:45:00 PM 17.5 63.5 0.086 7.16 1.45 8.9
8/14/2022 11:00:00 PM 17.36 63.248 0.086 7.16 1.37 8.93
8/14/2022 11:15:00 PM 17.25 63.05 0.086 7.16 1.54 8.96
8/14/2022 11:30:00 PM 17.16 62.888 0.086 7.15 1.29 8.99
8/14/2022 11:45:00 PM 17.05 62.69 0.086 7.15 1.43 9.02
8/15/2022 12:00:00 AM 16.97 62.546 0.087 7.15 1.27 9.05
8/15/2022 12:15:00 AM 16.89 62.402 0.087 7.15 1.4 9.04
8/15/2022 12:30:00 AM 16.8 62.24 0.087 7.15 1.41 9.08
8/15/2022 12:45:00 AM 16.74 62.132 0.087 7.15 1.53 9.1
8/15/2022 1:00:00 AM 16.67 62.006 0.087 7.15 1.38 9.14
8/15/2022 1:15:00 AM 16.62 61.916 0.087 7.14 1.33 9.12
8/15/2022 1:30:00 AM 16.56 61.808 0.087 7.14 1.51 9.15
8/15/2022 1:45:00 AM 16.5 61.7 0.087 7.14 1.38 9.17
8/15/2022 2:00:00 AM 16.45 61.61 0.087 7.14 1.37 9.19
8/15/2022 2:15:00 AM 16.4 61.52 0.087 7.14 1.33 9.18
8/15/2022 2:30:00 AM 16.35 61.43 0.087 7.14 1.34 9.22
8/15/2022 2:45:00 AM 16.3 61.34 0.087 7.14 1.43 9.22
8/15/2022 3:00:00 AM 16.25 61.25 0.087 7.13 1.37 9.22
8/15/2022 3:15:00 AM 16.2 61.16 0.087 7.14 1.37 9.25
8/15/2022 3:30:00 AM 16.16 61.088 0.087 7.14 1.38 9.27
8/15/2022 3:45:00 AM 16.12 61.016 0.087 7.13 1.33 9.27
8/15/2022 4:00:00 AM 16.07 60.926 0.088 7.14 1.32 9.28
8/15/2022 4:15:00 AM 16.03 60.854 0.088 7.13 1.57 9.29
8/15/2022 4:30:00 AM 15.99 60.782 0.088 7.13 1.33 9.31
8/15/2022 4:45:00 AM 15.95 60.71 0.088 7.13 1.54 9.3
8/15/2022 5:00:00 AM 15.91 60.638 0.088 7.13 1.31 9.33
8/15/2022 5:15:00 AM 15.87 60.566 0.088 7.13 1.28 9.33
8/15/2022 5:30:00 AM 15.83 60.494 0.088 7.13 2.05 9.36
8/15/2022 5:45:00 AM 15.79 60.422 0.088 7.13 1.65 9.36
8/15/2022 6:00:00 AM 15.74 60.332 0.088 7.13 1.32 9.36
8/15/2022 6:15:00 AM 15.71 60.278 0.088 7.13 1.86 9.37
8/15/2022 6:30:00 AM 15.68 60.224 0.088 7.12 1.43 9.39
8/15/2022 6:45:00 AM 15.64 60.152 0.088 7.13 1.25 9.42
8/15/2022 7:00:00 AM 15.61 60.098 0.088 7.14 1.31 9.47
8/15/2022 7:15:00 AM 15.6 60.08 0.088 7.15 1.45 9.55
8/15/2022 7:30:00 AM 15.59 60.062 0.088 7.17 1.52 9.64
8/15/2022 7:45:00 AM 15.6 60.08 0.087 7.18 1.26 9.74
8/15/2022 8:00:00 AM 15.63 60.134 0.087 7.2 1.21 9.83
8/15/2022 8:15:00 AM 15.67 60.206 0.087 7.23 1.24 9.97
8/15/2022 8:30:00 AM 15.71 60.278 0.087 7.24 1.23 10.06
8/15/2022 8:45:00 AM 15.75 60.35 0.087 7.26 1.34 10.11
8/15/2022 9:00:00 AM 15.81 60.458 0.086 7.29 1.25 10.19
8/15/2022 9:15:00 AM 15.87 60.566 0.086 7.29 1.22 10.24
8/15/2022 9:30:00 AM 16 60.8 0.086 7.32 1.15 10.33
8/15/2022 9:45:00 AM 16.08 60.944 0.086 7.34 1.22 10.39
8/15/2022 10:00:00 AM 16.27 61.286 0.086 7.34 1.22 10.47
8/15/2022 10:15:00 AM 16.56 61.808 0.085 7.38 1.26 10.52
8/15/2022 10:30:00 AM 16.79 62.222 0.085 7.42 1.18 10.53
8/15/2022 10:45:00 AM 16.99 62.582 0.084 7.45 1.17 10.57
8/15/2022 11:00:00 AM 17.16 62.888 0.084 7.47 1.22 10.58
8/15/2022 11:15:00 AM 17.32 63.176 0.084 7.5 1.16 10.58
8/15/2022 11:30:00 AM 17.47 63.446 0.083 7.52 1.17 10.55
8/15/2022 11:45:00 AM 17.57 63.626 0.083 7.52 2.24 10.51
8/15/2022 12:00:00 PM 17.73 63.914 0.083 7.55 1.16 10.52
8/15/2022 12:15:00 PM 17.93 64.274 0.083 7.58 1.31 10.53
8/15/2022 12:30:00 PM 18.12 64.616 0.082 7.61 1.29 10.54
8/15/2022 12:45:00 PM 18.3 64.94 0.082 7.63 1.22 10.53
8/15/2022 1:00:00 PM 18.46 65.228 0.082 7.66 1.83 10.51
8/15/2022 1:15:00 PM 18.62 65.516 0.082 7.68 1.48 10.5
8/15/2022 1:30:00 PM 18.8 65.84 0.082 7.72 1.22 10.47
8/15/2022 1:45:00 PM 18.99 66.182 0.081 7.7 1.18 10.43
8/15/2022 2:00:00 PM 19.19 66.542 0.081 7.73 1.33 10.38
8/15/2022 2:15:00 PM 19.44 66.992 0.081 7.74 1.35 10.31
8/15/2022 2:30:00 PM 19.72 67.496 0.08 7.77 1.31 10.28
8/15/2022 2:45:00 PM 19.95 67.91 0.08 7.76 1.11 10.22
8/15/2022 3:00:00 PM 20.12 68.216 0.08 7.76 1.24 10.15
8/15/2022 3:15:00 PM 20.28 68.504 0.08 7.77 1.24 10.07
8/15/2022 3:30:00 PM 20.37 68.666 0.08 7.74 1.28 10.02
8/15/2022 3:45:00 PM 20.43 68.774 0.08 7.72 1.55 9.91
8/15/2022 4:00:00 PM 20.47 68.846 0.08 7.7 1.35 9.86
8/15/2022 4:15:00 PM 20.52 68.936 0.08 7.68 1.37 9.77
8/15/2022 4:30:00 PM 20.65 69.17 0.08 7.65 2.06 9.7
8/15/2022 4:45:00 PM 20.67 69.206 0.08 7.68 1.39 9.7
8/15/2022 5:00:00 PM 20.63 69.134 0.08 7.61 1.52 9.62
8/15/2022 5:15:00 PM 20.6 69.08 0.08 7.58 1.64 9.55
8/15/2022 5:30:00 PM 20.56 69.008 0.08 7.56 1.72 9.49
8/15/2022 5:45:00 PM 20.51 68.918 0.08 7.53 1.29 9.41
8/15/2022 6:00:00 PM 20.4 68.72 0.08 7.49 1.33 9.31
8/15/2022 6:15:00 PM 20.27 68.486 0.081 7.49 1.28 9.27
8/15/2022 6:30:00 PM 20.16 68.288 0.081 7.5 1.25 9.32
8/15/2022 6:45:00 PM 20.06 68.108 0.081 7.47 1.39 9.27
8/15/2022 7:00:00 PM 19.91 67.838 0.081 7.44 1.45 9.2
8/15/2022 7:15:00 PM 19.78 67.604 0.081 7.42 1.27 9.14
8/15/2022 7:30:00 PM 19.61 67.298 0.082 7.38 1.34 9.06
8/15/2022 7:45:00 PM 19.41 66.938 0.082 7.34 1.31 8.99
8/15/2022 8:00:00 PM 19.26 66.668 0.082 7.31 1.37 8.91
8/15/2022 8:15:00 PM 19.1 66.38 0.083 7.29 1.65 8.84
8/15/2022 8:30:00 PM 18.93 66.074 0.083 7.26 1.43 8.79
8/15/2022 8:45:00 PM 18.8 65.84 0.083 7.24 1.34 8.75
8/15/2022 9:00:00 PM 18.59 65.462 0.084 7.21 1.5 8.75
8/15/2022 9:15:00 PM 18.47 65.246 0.084 7.2 1.39 8.72
8/15/2022 9:30:00 PM 18.35 65.03 0.084 7.19 1.35 8.72
8/15/2022 9:45:00 PM 18.16 64.688 0.085 7.18 1.33 8.76
8/15/2022 10:00:00 PM 18.05 64.49 0.085 7.18 1.44 8.77
8/15/2022 10:15:00 PM 17.89 64.202 0.085 7.17 3.69 8.78
8/15/2022 10:30:00 PM 17.77 63.986 0.086 7.16 1.36 8.8
8/15/2022 10:45:00 PM 17.6 63.68 0.086 7.17 1.38 8.86
8/15/2022 11:00:00 PM 17.48 63.464 0.086 7.15 1.41 8.88
8/15/2022 11:15:00 PM 17.36 63.248 0.086 7.16 1.61 8.91
8/15/2022 11:30:00 PM 17.23 63.014 0.086 7.16 1.36 8.95
8/15/2022 11:45:00 PM 17.13 62.834 0.087 7.15 1.35 8.97
8/16/2022 12:00:00 AM 17.03 62.654 0.087 7.15 1.38 8.97
8/16/2022 12:15:00 AM 16.94 62.492 0.087 7.15 1.37 9.02
8/16/2022 12:30:00 AM 16.85 62.33 0.087 7.15 1.34 9.03
8/16/2022 12:45:00 AM 16.76 62.168 0.087 7.15 1.8 9.08
8/16/2022 1:00:00 AM 16.69 62.042 0.087 7.15 1.39 9.11
8/16/2022 1:15:00 AM 16.62 61.916 0.087 7.15 1.43 9.11
8/16/2022 1:30:00 AM 16.56 61.808 0.088 7.14 1.47 9.14
8/16/2022 1:45:00 AM 16.49 61.682 0.088 7.15 1.22 9.16
8/16/2022 2:00:00 AM 16.44 61.592 0.088 7.15 1.3 9.18
8/16/2022 2:15:00 AM 16.4 61.52 0.088 7.14 1.36 9.18
8/16/2022 2:30:00 AM 16.33 61.394 0.088 7.14 1.31 9.2
8/16/2022 2:45:00 AM 16.28 61.304 0.088 7.15 2.26 9.22
8/16/2022 3:00:00 AM 16.23 61.214 0.088 7.14 1.48 9.23
8/16/2022 3:15:00 AM 16.18 61.124 0.088 7.14 1.31 9.25
8/16/2022 3:30:00 AM 16.12 61.016 0.088 7.14 1.57 9.26
8/16/2022 3:45:00 AM 16.08 60.944 0.088 7.13 1.24 9.26
8/16/2022 4:00:00 AM 16.04 60.872 0.088 7.13 1.3 9.27
8/16/2022 4:15:00 AM 15.99 60.782 0.088 7.14 1.28 9.3
8/16/2022 4:30:00 AM 15.95 60.71 0.088 7.14 1.4 9.3
8/16/2022 4:45:00 AM 15.92 60.656 0.088 7.13 1.26 9.31
8/16/2022 5:00:00 AM 15.88 60.584 0.088 7.13 1.32 9.33
8/16/2022 5:15:00 AM 15.85 60.53 0.088 7.13 1.59 9.33
8/16/2022 5:30:00 AM 15.82 60.476 0.088 7.13 1.28 9.34
8/16/2022 5:45:00 AM 15.79 60.422 0.088 7.13 1.37 9.35
8/16/2022 6:00:00 AM 15.75 60.35 0.088 7.14 1.66 9.38
8/16/2022 6:15:00 AM 15.71 60.278 0.088 7.13 1.78 9.37
8/16/2022 6:30:00 AM 15.67 60.206 0.088 7.14 1.48 9.4
8/16/2022 6:45:00 AM 15.65 60.17 0.088 7.13 1.35 9.41
8/16/2022 7:00:00 AM 15.61 60.098 0.088 7.13 1.25 9.45
8/16/2022 7:15:00 AM 15.59 60.062 0.088 7.14 1.25 9.49
8/16/2022 7:30:00 AM 15.58 60.044 0.088 7.15 1.3 9.52
8/16/2022 7:45:00 AM 15.55 59.99 0.088 7.15 1.73 9.58
8/16/2022 8:00:00 AM 15.54 59.972 0.088 7.16 1.82 9.61
8/16/2022 8:15:00 AM 15.53 59.954 0.088 7.17 1.47 9.63
8/16/2022 8:30:00 AM 15.52 59.936 0.088 7.17 1.51 9.67
8/16/2022 8:45:00 AM 15.52 59.936 0.088 7.18 1.38 9.71
8/16/2022 9:00:00 AM 15.54 59.972 0.087 7.19 1.31 9.8
8/16/2022 9:15:00 AM 15.57 60.026 0.087 7.21 1.42 9.9
8/16/2022 9:30:00 AM 15.64 60.152 0.087 7.23 1.35 10.03
8/16/2022 9:45:00 AM 15.72 60.296 0.087 7.26 1.32 10.15
8/16/2022 10:00:00 AM 15.84 60.512 0.086 7.3 1.25 10.31
8/16/2022 10:15:00 AM 16.02 60.836 0.086 7.33 1.24 10.44
8/16/2022 10:30:00 AM 16.25 61.25 0.086 7.39 1.33 10.6
8/16/2022 10:45:00 AM 16.41 61.538 0.085 7.44 1.25 10.69
8/16/2022 11:00:00 AM 16.53 61.754 0.084 7.46 1.4 10.68
8/16/2022 11:15:00 AM 16.67 62.006 0.084 7.48 1.4 10.7
8/16/2022 11:30:00 AM 16.82 62.276 0.084 7.5 1.24 10.71
8/16/2022 11:45:00 AM 16.89 62.402 0.084 7.51 1.28 10.7
8/16/2022 12:00:00 PM 17.02 62.636 0.084 7.52 1.34 10.63
8/16/2022 12:15:00 PM 17.27 63.086 0.083 7.51 1.37 10.6
8/16/2022 12:30:00 PM 17.55 63.59 0.083 7.55 2.14 10.65
8/16/2022 12:45:00 PM 17.73 63.914 0.082 7.6 1.28 10.65
8/16/2022 1:00:00 PM 17.89 64.202 0.082 7.6 1.33 10.62
8/16/2022 1:15:00 PM 18.06 64.508 0.082 7.62 1.28 10.58
8/16/2022 1:30:00 PM 18.4 65.12 0.081 7.66 1.5 10.55
8/16/2022 1:45:00 PM 18.74 65.732 0.081 7.68 1.67 10.54
8/16/2022 2:00:00 PM 19.08 66.344 0.081 7.68 1.4 10.48
8/16/2022 2:15:00 PM 19.37 66.866 0.081 7.73 1.59 10.48
8/16/2022 2:30:00 PM 19.49 67.082 0.081 7.73 1.32 10.4
8/16/2022 2:45:00 PM 19.61 67.298 0.081 7.72 1.33 10.26
8/16/2022 3:00:00 PM 19.79 67.622 0.081 7.72 1.25 10.19
8/16/2022 3:15:00 PM 19.92 67.856 0.081 7.69 1.6 10.11
8/16/2022 3:30:00 PM 19.96 67.92799 0.081 7.63 1.45 10
8/16/2022 3:45:00 PM 19.95 67.91 0.081 7.6 1.45 9.84
8/16/2022 4:00:00 PM 19.95 67.91 0.081 7.57 1.44 9.78
8/16/2022 4:15:00 PM 19.95 67.91 0.081 7.55 1.61 9.72
8/16/2022 4:30:00 PM 19.91 67.838 0.081 7.49 1.62 9.56
8/16/2022 4:45:00 PM 19.89 67.802 0.081 7.49 1.59 9.51
8/16/2022 5:00:00 PM 19.73 67.514 0.081 7.45 1.34 9.34
8/16/2022 5:15:00 PM 19.56 67.208 0.081 7.38 1.66 9.13
8/16/2022 5:30:00 PM 19.41 66.938 0.082 7.32 1.59 9
8/16/2022 5:45:00 PM 19.27 66.686 0.082 7.3 1.51 8.9
8/16/2022 6:00:00 PM 19.1 66.38 0.082 7.28 1.54 8.87
8/16/2022 6:15:00 PM 18.9 66.02 0.082 7.25 1.7 8.85
8/16/2022 6:30:00 PM 18.71 65.67799 0.082 7.23 1.72 8.83
8/16/2022 6:45:00 PM 18.57 65.426 0.082 7.21 1.66 8.81
8/16/2022 7:00:00 PM 18.4 65.12 0.082 7.2 1.56 8.85
8/16/2022 7:15:00 PM 18.2 64.76 0.083 7.19 1.7 8.89
8/16/2022 7:30:00 PM 18.07 64.526 0.083 7.19 1.5 8.91
8/16/2022 7:45:00 PM 17.95 64.31 0.083 7.18 1.56 8.92
8/16/2022 8:00:00 PM 17.83 64.094 0.083 7.17 1.67 8.92
8/16/2022 8:15:00 PM 17.72 63.896 0.083 7.16 1.49 8.91
8/16/2022 8:30:00 PM 17.62 63.716 0.084 7.16 1.69 8.89
8/16/2022 8:45:00 PM 17.51 63.518 0.084 7.15 1.58 8.89
8/16/2022 9:00:00 PM 17.42 63.356 0.084 7.15 1.56 8.88
8/16/2022 9:15:00 PM 17.34 63.212 0.084 7.13 1.86 8.91
8/16/2022 9:30:00 PM 17.24 63.032 0.085 7.14 1.37 8.93
8/16/2022 9:45:00 PM 17.17 62.906 0.085 7.13 1.59 8.94
8/16/2022 10:00:00 PM 17.08 62.744 0.085 7.14 1.47 8.98
8/16/2022 10:15:00 PM 17.04 62.672 0.085 7.12 1.57 8.96
8/16/2022 10:30:00 PM 16.95 62.51 0.085 7.13 1.42 8.99
8/16/2022 10:45:00 PM 16.88 62.384 0.086 7.11 1.43 9.02
8/16/2022 11:00:00 PM 16.83 62.294 0.086 7.11 1.42 9.02
8/16/2022 11:15:00 PM 16.78 62.204 0.086 7.1 1.35 9
8/16/2022 11:30:00 PM 16.72 62.096 0.086 7.11 1.44 9.01
8/16/2022 11:45:00 PM 16.66 61.988 0.086 7.11 1.48 9.05
8/17/2022 12:00:00 AM 16.6 61.88 0.086 7.11 1.36 9.07
8/17/2022 12:15:00 AM 16.55 61.79 0.087 7.12 1.4 9.09
8/17/2022 12:30:00 AM 16.51 61.718 0.087 7.11 1.36 9.08
8/17/2022 12:45:00 AM 16.46 61.628 0.087 7.11 1.4 9.12
8/17/2022 1:00:00 AM 16.41 61.538 0.087 7.11 1.63 9.13
8/17/2022 1:15:00 AM 16.37 61.466 0.087 7.11 1.42 9.14
8/17/2022 1:30:00 AM 16.32 61.376 0.087 7.11 1.47 9.17
8/17/2022 1:45:00 AM 16.26 61.268 0.087 7.11 1.46 9.22
8/17/2022 2:00:00 AM 16.22 61.196 0.087 7.11 1.39 9.23
8/17/2022 2:15:00 AM 16.18 61.124 0.087 7.11 1.72 9.22
8/17/2022 2:30:00 AM 16.12 61.016 0.087 7.11 1.52 9.28
8/17/2022 2:45:00 AM 16.09 60.962 0.087 7.11 1.47 9.27
8/17/2022 3:00:00 AM 16.04 60.872 0.087 7.1 1.53 9.26
8/17/2022 3:15:00 AM 16 60.8 0.087 7.11 1.38 9.29
8/17/2022 3:30:00 AM 15.96 60.728 0.087 7.11 1.58 9.31
8/17/2022 3:45:00 AM 15.92 60.656 0.087 7.09 1.46 9.29
8/17/2022 4:00:00 AM 15.88 60.584 0.087 7.1 1.63 9.31
8/17/2022 4:15:00 AM 15.85 60.53 0.087 7.1 1.49 9.32
8/17/2022 4:30:00 AM 15.8 60.44 0.087 7.11 1.69 9.33
8/17/2022 4:45:00 AM 15.76 60.368 0.087 7.09 1.53 9.35
8/17/2022 5:00:00 AM 15.71 60.278 0.087 7.09 1.53 9.37
8/17/2022 5:15:00 AM 15.66 60.188 0.087 7.1 1.34 9.39
8/17/2022 5:30:00 AM 15.63 60.134 0.087 7.09 1.38 9.37
8/17/2022 5:45:00 AM 15.58 60.044 0.087 7.09 1.74 9.4
8/17/2022 6:00:00 AM 15.54 59.972 0.087 7.09 2.2 9.41
8/17/2022 6:15:00 AM 15.5 59.9 0.087 7.09 1.91 9.43
8/17/2022 6:30:00 AM 15.47 59.846 0.087 7.09 1.84 9.42
8/17/2022 6:45:00 AM 15.42 59.756 0.087 7.09 1.87 9.43
8/17/2022 7:00:00 AM 15.4 59.72 0.087 7.09 1.7 9.45
8/17/2022 7:15:00 AM 15.36 59.648 0.087 7.09 1.63 9.51
8/17/2022 7:30:00 AM 15.34 59.612 0.087 7.1 1.63 9.57
8/17/2022 7:45:00 AM 15.32 59.576 0.087 7.12 1.43 9.64
8/17/2022 8:00:00 AM 15.32 59.576 0.087 7.13 1.35 9.73
8/17/2022 8:15:00 AM 15.32 59.576 0.086 7.14 1.34 9.81
8/17/2022 8:30:00 AM 15.35 59.63 0.086 7.17 1.35 9.93
8/17/2022 8:45:00 AM 15.41 59.738 0.086 7.2 1.32 10.05
8/17/2022 9:00:00 AM 15.47 59.846 0.086 7.22 1.47 10.16
8/17/2022 9:15:00 AM 15.56 60.008 0.086 7.25 1.24 10.29
8/17/2022 9:30:00 AM 15.62 60.116 0.085 7.27 1.36 10.36
8/17/2022 9:45:00 AM 15.69 60.242 0.085 7.28 1.33 10.39
8/17/2022 10:00:00 AM 15.78 60.404 0.085 7.3 1.38 10.42
8/17/2022 10:15:00 AM 15.88 60.584 0.084 7.32 1.26 10.47
8/17/2022 10:30:00 AM 16.01 60.818 0.084 7.33 1.33 10.52
8/17/2022 10:45:00 AM 16.19 61.142 0.083 7.38 1.42 10.59
8/17/2022 11:00:00 AM 16.42 61.556 0.083 7.41 1.48 10.65
8/17/2022 11:15:00 AM 16.67 62.006 0.082 7.45 1.48 10.7
8/17/2022 11:30:00 AM 16.85 62.33 0.082 7.47 1.42 10.7
8/17/2022 11:45:00 AM 17.02 62.636 0.082 7.5 1.38 10.68
8/17/2022 12:00:00 PM 17.19 62.942 0.082 7.52 1.3 10.67
8/17/2022 12:15:00 PM 17.35 63.23 0.081 7.53 1.37 10.64
8/17/2022 12:30:00 PM 17.63 63.734 0.081 7.55 1.39 10.65
8/17/2022 12:45:00 PM 17.83 64.094 0.081 7.57 1.26 10.58
8/17/2022 1:00:00 PM 18.07 64.526 0.081 7.6 1.34 10.57
8/17/2022 1:15:00 PM 18.24 64.832 0.081 7.6 1.73 10.51
8/17/2022 1:30:00 PM 18.29 64.922 0.081 7.52 2.15 10.28
8/17/2022 1:45:00 PM 18.33 64.994 0.081 7.51 1.54 10.11
8/17/2022 2:00:00 PM 18.35 65.03 0.08 7.48 1.65 9.97
8/17/2022 2:15:00 PM 18.28 64.904 0.08 7.44 1.52 9.88
8/17/2022 2:30:00 PM 18.21 64.778 0.081 7.44 1.56 9.8
8/17/2022 2:45:00 PM 18.15 64.67 0.081 7.42 1.39 9.72
8/17/2022 3:00:00 PM 18.07 64.526 0.081 7.38 1.43 9.6
8/17/2022 3:15:00 PM 17.99 64.382 0.081 7.35 1.53 9.52
8/17/2022 3:30:00 PM 17.85 64.13 0.081 7.33 3.2 9.48
8/17/2022 3:45:00 PM 17.72 63.896 0.081 7.32 1.49 9.47
8/17/2022 4:00:00 PM 17.57 63.626 0.081 7.3 1.55 9.48
8/17/2022 4:15:00 PM 17.43 63.374 0.08 7.28 1.58 9.49
8/17/2022 4:30:00 PM 17.32 63.176 0.08 7.27 1.61 9.49
8/17/2022 4:45:00 PM 17.19 62.942 0.08 7.26 1.59 9.51
8/17/2022 5:00:00 PM 17.12 62.816 0.08 7.26 1.73 9.55
8/17/2022 5:15:00 PM 17.06 62.708 0.08 7.26 1.62 9.62
8/17/2022 5:30:00 PM 17.01 62.618 0.08 7.27 1.69 9.64
8/17/2022 5:45:00 PM 16.99 62.582 0.08 7.28 1.68 9.72
8/17/2022 6:00:00 PM 16.97 62.546 0.08 7.3 1.7 9.78
8/17/2022 6:15:00 PM 16.95 62.51 0.08 7.3 1.59 9.8
8/17/2022 6:30:00 PM 16.91 62.438 0.08 7.3 1.6 9.8
8/17/2022 6:45:00 PM 16.89 62.402 0.081 7.3 1.76 9.77
8/17/2022 7:00:00 PM 16.85 62.33 0.081 7.28 1.58 9.7
8/17/2022 7:15:00 PM 16.81 62.258 0.081 7.27 1.69 9.65
8/17/2022 7:30:00 PM 16.76 62.168 0.081 7.26 1.68 9.59
8/17/2022 7:45:00 PM 16.69 62.042 0.082 7.24 1.62 9.55
8/17/2022 8:00:00 PM 16.62 61.916 0.082 7.23 2.21 9.51
8/17/2022 8:15:00 PM 16.53 61.754 0.083 7.22 2.48 9.5
8/17/2022 8:30:00 PM 16.44 61.592 0.083 7.21 2.43 9.48
8/17/2022 8:45:00 PM 16.36 61.448 0.083 7.19 2.9 9.47
8/17/2022 9:00:00 PM 16.29 61.322 0.083 7.18 2.53 9.46
8/17/2022 9:15:00 PM 16.23 61.214 0.083 7.18 2.72 9.46
8/17/2022 9:30:00 PM 16.18 61.124 0.083 7.17 7.75 9.44
8/17/2022 9:45:00 PM 16.11 60.998 0.083 7.17 1.92 9.46
8/17/2022 10:00:00 PM 16.07 60.926 0.083 7.16 1.94 9.46
8/17/2022 10:15:00 PM 16.04 60.872 0.083 7.16 1.98 9.46
8/17/2022 10:30:00 PM 16.01 60.818 0.083 7.15 2.09 9.45
8/17/2022 10:45:00 PM 15.99 60.782 0.083 7.15 1.99 9.45
8/17/2022 11:00:00 PM 15.96 60.728 0.083 7.15 1.88 9.46
8/17/2022 11:15:00 PM 15.93 60.674 0.083 7.15 1.89 9.45
8/17/2022 11:30:00 PM 15.88 60.584 0.083 7.14 1.81 9.47
8/17/2022 11:45:00 PM 15.84 60.512 0.083 7.14 1.78 9.47
8/18/2022 12:00:00 AM 15.77 60.386 0.083 7.14 1.57 9.48
8/18/2022 12:15:00 AM 15.72 60.296 0.083 7.13 2.07 9.5
8/18/2022 12:30:00 AM 15.65 60.17 0.083 7.13 1.66 9.5
8/18/2022 12:45:00 AM 15.59 60.062 0.083 7.13 1.75 9.49
8/18/2022 1:00:00 AM 15.53 59.954 0.083 7.13 1.74 9.53
8/18/2022 1:15:00 AM 15.5 59.9 0.083 7.12 1.78 9.52
8/18/2022 1:30:00 AM 15.44 59.792 0.083 7.12 4 9.51
8/18/2022 1:45:00 AM 15.38 59.684 0.083 7.12 1.72 9.54
8/18/2022 2:00:00 AM 15.35 59.63 0.083 7.12 1.71 9.55
8/18/2022 2:15:00 AM 15.32 59.576 0.083 7.11 1.46 9.54
8/18/2022 2:30:00 AM 15.27 59.486 0.083 7.11 1.69 9.54
8/18/2022 2:45:00 AM 15.22 59.396 0.084 7.12 1.59 9.58
8/18/2022 3:00:00 AM 15.17 59.306 0.084 7.11 1.66 9.59
8/18/2022 3:15:00 AM 15.12 59.216 0.084 7.11 1.53 9.6
8/18/2022 3:30:00 AM 15.08 59.144 0.084 7.11 1.57 9.61
8/18/2022 3:45:00 AM 15.02 59.036 0.084 7.11 1.65 9.61
8/18/2022 4:00:00 AM 14.98 58.964 0.084 7.11 2.23 9.62
8/18/2022 4:15:00 AM 14.91 58.838 0.084 7.11 1.44 9.66
8/18/2022 4:30:00 AM 14.85 58.73 0.084 7.11 1.7 9.66
8/18/2022 4:45:00 AM 14.8 58.64 0.084 7.11 1.62 9.66
8/18/2022 5:00:00 AM 14.75 58.55 0.084 7.1 1.67 9.68
8/18/2022 5:15:00 AM 14.7 58.46 0.084 7.1 1.46 9.67
8/18/2022 5:30:00 AM 14.65 58.37 0.084 7.1 1.45 9.71
8/18/2022 5:45:00 AM 14.59 58.262 0.084 7.1 1.68 9.71
8/18/2022 6:00:00 AM 14.53 58.154 0.084 7.1 1.57 9.73
8/18/2022 6:15:00 AM 14.46 58.028 0.084 7.1 2.36 9.74
8/18/2022 6:30:00 AM 14.42 57.956 0.084 7.1 1.55 9.76
8/18/2022 6:45:00 AM 14.36 57.848 0.084 7.11 1.42 9.79
8/18/2022 7:00:00 AM 14.3 57.74 0.084 7.11 1.44 9.82
8/18/2022 7:15:00 AM 14.26 57.668 0.084 7.11 1.4 9.86
8/18/2022 7:30:00 AM 14.22 57.596 0.084 7.12 1.39 9.9
8/18/2022 7:45:00 AM 14.19 57.542 0.084 7.13 1.69 9.96
8/18/2022 8:00:00 AM 14.15 57.47 0.084 7.14 1.39 10.06
8/18/2022 8:15:00 AM 14.15 57.47 0.083 7.15 1.46 10.12
8/18/2022 8:30:00 AM 14.15 57.47 0.083 7.18 1.43 10.27
8/18/2022 8:45:00 AM 14.17 57.506 0.083 7.2 1.36 10.37
8/18/2022 9:00:00 AM 14.2 57.56 0.083 7.22 1.33 10.46
8/18/2022 9:15:00 AM 14.28 57.704 0.083 7.23 1.36 10.53
8/18/2022 9:30:00 AM 14.39 57.902 0.083 7.25 1.37 10.55
8/18/2022 9:45:00 AM 14.58 58.244 0.082 7.25 1.39 10.54
8/18/2022 10:00:00 AM 14.85 58.73 0.082 7.28 1.37 10.6
8/18/2022 10:15:00 AM 15.16 59.288 0.081 7.3 1.64 10.63
8/18/2022 10:30:00 AM 15.46 59.828 0.081 7.32 1.33 10.65
8/18/2022 10:45:00 AM 15.79 60.422 0.081 7.34 1.32 10.65
8/18/2022 11:00:00 AM 16.08 60.944 0.081 7.35 1.3 10.62
8/18/2022 11:15:00 AM 16.28 61.304 0.08 7.36 1.34 10.58
8/18/2022 11:30:00 AM 16.52 61.736 0.08 7.37 1.3 10.54
8/18/2022 11:45:00 AM 16.75 62.15 0.08 7.39 1.36 10.52
8/18/2022 12:00:00 PM 16.99 62.582 0.08 7.41 1.27 10.49
8/18/2022 12:15:00 PM 17.3 63.14 0.079 7.4 1.38 10.39
8/18/2022 12:30:00 PM 17.59 63.662 0.079 7.42 1.67 10.34
8/18/2022 12:45:00 PM 18.03 64.454 0.079 7.44 1.36 10.3
8/18/2022 1:00:00 PM 18.34 65.012 0.079 7.44 1.43 10.26
8/18/2022 1:15:00 PM 18.62 65.516 0.079 7.47 1.45 10.18
8/18/2022 1:30:00 PM 18.9 66.02 0.079 7.45 1.42 10.1
8/18/2022 1:45:00 PM 19.2 66.56 0.079 7.46 1.52 10.05
8/18/2022 2:00:00 PM 19.51 67.118 0.079 7.47 1.46 10
8/18/2022 2:15:00 PM 19.81 67.658 0.079 7.5 1.49 10
8/18/2022 2:30:00 PM 20.1 68.18 0.079 7.51 1.41 9.93
8/18/2022 2:45:00 PM 20.44 68.792 0.079 7.53 1.4 9.9
8/18/2022 3:00:00 PM 20.68 69.224 0.079 7.55 1.4 9.87
8/18/2022 3:15:00 PM 20.8 69.44 0.079 7.55 1.78 9.82
8/18/2022 3:30:00 PM 20.91 69.638 0.079 7.55 1.49 9.75
8/18/2022 3:45:00 PM 20.97 69.746 0.079 7.53 1.46 9.64
8/18/2022 4:00:00 PM 20.94 69.692 0.079 7.48 1.92 9.57
8/18/2022 4:15:00 PM 20.99 69.782 0.079 7.52 1.65 9.56
8/18/2022 4:30:00 PM 21 69.8 0.079 7.49 1.88 9.46
8/18/2022 4:45:00 PM 20.84 69.512 0.079 7.41 1.88 9.17
8/18/2022 5:00:00 PM 20.76 69.368 0.079 7.34 2.4 9.04
8/18/2022 5:15:00 PM 20.66 69.188 0.079 7.36 1.45 8.96
8/18/2022 5:30:00 PM 20.6 69.08 0.079 7.32 1.75 8.94
8/18/2022 5:45:00 PM 20.53 68.954 0.08 7.38 1.6 9.05
8/18/2022 6:00:00 PM 20.37 68.666 0.08 7.38 1.44 9.17
8/18/2022 6:15:00 PM 20.23 68.414 0.08 7.37 1.47 9.16
8/18/2022 6:30:00 PM 20.12 68.216 0.08 7.36 1.5 9.13
8/18/2022 6:45:00 PM 19.93 67.874 0.08 7.34 1.69 9.13
8/18/2022 7:00:00 PM 19.75 67.55 0.08 7.33 1.44 9.15
8/18/2022 7:15:00 PM 19.59 67.262 0.08 7.32 1.59 9.13
8/18/2022 7:30:00 PM 19.44 66.992 0.08 7.3 1.6 9.06
8/18/2022 7:45:00 PM 19.29 66.722 0.081 7.28 2.25 9.03
8/18/2022 8:00:00 PM 19.12 66.416 0.081 7.26 1.46 8.99
8/18/2022 8:15:00 PM 18.94 66.092 0.081 7.23 1.44 8.93
8/18/2022 8:30:00 PM 18.77 65.786 0.081 7.21 1.51 8.9
8/18/2022 8:45:00 PM 18.56 65.408 0.082 7.2 1.58 8.9
8/18/2022 9:00:00 PM 18.42 65.156 0.082 7.18 2.18 8.84
8/18/2022 9:15:00 PM 18.23 64.814 0.082 7.16 1.89 8.9
8/18/2022 9:30:00 PM 18.09 64.562 0.082 7.14 1.99 8.9
8/18/2022 9:45:00 PM 17.97 64.346 0.082 7.13 1.81 8.89
8/18/2022 10:00:00 PM 17.86 64.148 0.082 7.13 1.61 8.91
8/18/2022 10:15:00 PM 17.74 63.932 0.082 7.13 1.94 8.92
8/18/2022 10:30:00 PM 17.6 63.68 0.082 7.13 2.59 8.98
8/18/2022 10:45:00 PM 17.47 63.446 0.082 7.12 2.37 9.03
8/18/2022 11:00:00 PM 17.36 63.248 0.082 7.13 2.26 9.07
8/18/2022 11:15:00 PM 17.23 63.014 0.082 7.12 2.62 9.11
8/18/2022 11:30:00 PM 17.13 62.834 0.082 7.11 2.32 9.13
8/18/2022 11:45:00 PM 17 62.6 0.082 7.12 2.39 9.17
8/19/2022 12:00:00 AM 16.91 62.438 0.082 7.11 2.01 9.18
8/19/2022 12:15:00 AM 16.82 62.276 0.082 7.1 2.32 9.2
8/19/2022 12:30:00 AM 16.76 62.168 0.082 7.1 1.97 9.2
8/19/2022 12:45:00 AM 16.7 62.06 0.082 7.09 1.93 9.19
8/19/2022 1:00:00 AM 16.63 61.934 0.082 7.09 1.86 9.18
8/19/2022 1:15:00 AM 16.56 61.808 0.082 7.09 2.01 9.23
8/19/2022 1:30:00 AM 16.53 61.754 0.082 7.08 2.06 9.18
8/19/2022 1:45:00 AM 16.46 61.628 0.082 7.09 1.71 9.23
8/19/2022 2:00:00 AM 16.42 61.556 0.081 7.07 1.79 9.22
8/19/2022 2:15:00 AM 16.35 61.43 0.081 7.09 1.85 9.25
8/19/2022 2:30:00 AM 16.3 61.34 0.081 7.08 1.81 9.24
8/19/2022 2:45:00 AM 16.26 61.268 0.081 7.08 1.83 9.26
8/19/2022 3:00:00 AM 16.19 61.142 0.081 7.08 1.79 9.28
8/19/2022 3:15:00 AM 16.15 61.07 0.081 7.07 1.97 9.25
8/19/2022 3:30:00 AM 16.09 60.962 0.081 7.08 1.59 9.29
8/19/2022 3:45:00 AM 16.03 60.854 0.082 7.09 1.67 9.3
8/19/2022 4:00:00 AM 15.96 60.728 0.082 7.08 1.86 9.34
8/19/2022 4:15:00 AM 15.9 60.62 0.082 7.08 1.76 9.33
8/19/2022 4:30:00 AM 15.85 60.53 0.082 7.08 1.84 9.36
8/19/2022 4:45:00 AM 15.77 60.386 0.083 7.08 1.57 9.37
8/19/2022 5:00:00 AM 15.7 60.26 0.083 7.09 1.76 9.4
8/19/2022 5:15:00 AM 15.66 60.188 0.083 7.08 1.97 9.4
8/19/2022 5:30:00 AM 15.59 60.062 0.083 7.08 1.65 9.41
8/19/2022 5:45:00 AM 15.54 59.972 0.084 7.03 3.86 9.34
8/19/2022 6:00:00 AM 15.47 59.846 0.084 7.08 1.79 9.45
8/19/2022 6:15:00 AM 15.42 59.756 0.084 7.08 1.76 9.44
8/19/2022 6:30:00 AM 15.36 59.648 0.084 7.08 1.71 9.48
8/19/2022 6:45:00 AM 15.33 59.594 0.084 7.08 1.59 9.46
8/19/2022 7:00:00 AM 15.25 59.45 0.085 7.09 1.48 9.54
8/19/2022 7:15:00 AM 15.22 59.396 0.085 7.08 1.59 9.54
8/19/2022 7:30:00 AM 15.19 59.342 0.085 7.09 1.58 9.58
8/19/2022 7:45:00 AM 15.15 59.27 0.085 7.09 1.49 9.62
8/19/2022 8:00:00 AM 15.11 59.198 0.085 7.11 1.54 9.73
8/19/2022 8:15:00 AM 15.1 59.18 0.085 7.13 3.29 9.81
8/19/2022 8:30:00 AM 15.09 59.162 0.085 7.15 1.69 9.93
8/19/2022 8:45:00 AM 15.1 59.18 0.085 7.17 1.45 10.05
8/19/2022 9:00:00 AM 15.11 59.198 0.085 7.18 1.47 10.12
8/19/2022 9:15:00 AM 15.13 59.234 0.084 7.2 1.42 10.2
8/19/2022 9:30:00 AM 15.21 59.378 0.084 7.2 1.45 10.27
8/19/2022 9:45:00 AM 15.39 59.702 0.084 7.22 1.33 10.32
8/19/2022 10:00:00 AM 15.64 60.152 0.084 7.23 1.48 10.3
8/19/2022 10:15:00 AM 15.94 60.692 0.083 7.26 1.62 10.42
8/19/2022 10:30:00 AM 16.23 61.214 0.083 7.28 1.53 10.44
8/19/2022 10:45:00 AM 16.53 61.754 0.083 7.31 1.45 10.45
8/19/2022 11:00:00 AM 16.92 62.456 0.083 7.32 1.5 10.44
8/19/2022 11:15:00 AM 17.19 62.942 0.083 7.34 1.5 10.42
8/19/2022 11:30:00 AM 17.56 63.608 0.083 7.35 1.52 10.39
8/19/2022 11:45:00 AM 17.87 64.166 0.082 7.38 1.31 10.36
8/19/2022 12:00:00 PM 18.22 64.796 0.082 7.4 1.36 10.3
8/19/2022 12:15:00 PM 18.52 65.336 0.082 7.41 1.32 10.22
8/19/2022 12:30:00 PM 18.83 65.894 0.082 7.43 1.42 10.14
8/19/2022 12:45:00 PM 19.17 66.506 0.082 7.43 1.42 10.06
8/19/2022 1:00:00 PM 19.49 67.082 0.082 7.44 1.44 9.99
8/19/2022 1:15:00 PM 19.8 67.64 0.082 7.45 1.39 9.94
8/19/2022 1:30:00 PM 20.15 68.27 0.082 7.46 1.61 9.88
8/19/2022 1:45:00 PM 20.42 68.756 0.082 7.46 1.52 9.81
8/19/2022 2:00:00 PM 20.59 69.062 0.082 7.46 1.7 9.75
8/19/2022 2:15:00 PM 20.73 69.314 0.082 7.47 1.55 9.71
8/19/2022 2:30:00 PM 20.81 69.458 0.082 7.44 1.46 9.62
8/19/2022 2:45:00 PM 20.78 69.404 0.082 7.43 1.58 9.6
8/19/2022 3:00:00 PM 20.86 69.548 0.082 7.44 1.44 9.52
8/19/2022 3:15:00 PM 20.85 69.53 0.082 7.42 1.61 9.47
8/19/2022 3:30:00 PM 20.88 69.584 0.082 7.41 1.83 9.43
8/19/2022 3:45:00 PM 20.92 69.656 0.082 7.4 1.39 9.37
8/19/2022 4:00:00 PM 20.92 69.656 0.082 7.39 1.69 9.3
8/19/2022 4:15:00 PM 20.91 69.638 0.082 7.37 1.47 9.28
8/19/2022 4:30:00 PM 20.91 69.638 0.082 7.37 1.56 9.28
8/19/2022 4:45:00 PM 20.93 69.674 0.082 7.34 1.76 9.23
8/19/2022 5:00:00 PM 20.92 69.656 0.082 7.34 1.68 9.18
8/19/2022 5:15:00 PM 20.87 69.566 0.082 7.32 1.6 9.09
8/19/2022 5:30:00 PM 20.82 69.476 0.082 7.29 1.77 9.05
8/19/2022 5:45:00 PM 20.84 69.512 0.082 7.33 1.43 9.1
8/19/2022 6:00:00 PM 20.84 69.512 0.082 7.3 1.46 9.03
8/19/2022 6:15:00 PM 20.78 69.404 0.082 7.27 1.59 8.95
8/19/2022 6:30:00 PM 20.7 69.26 0.082 7.23 1.74 8.81
8/19/2022 6:45:00 PM 20.63 69.134 0.082 7.2 1.74 8.64
8/19/2022 7:00:00 PM 20.5 68.9 0.082 7.17 1.61 8.53
8/19/2022 7:15:00 PM 20.38 68.684 0.082 7.19 1.99 8.6
8/19/2022 7:30:00 PM 20.19 68.342 0.083 7.18 2.27 8.57
8/19/2022 7:45:00 PM 20.01 68.018 0.083 7.2 1.44 8.64
8/19/2022 8:00:00 PM 19.81 67.658 0.083 7.18 1.54 8.64
8/19/2022 8:15:00 PM 19.61 67.298 0.084 7.16 1.96 8.61
8/19/2022 8:30:00 PM 19.39 66.902 0.084 7.17 1.51 8.68
8/19/2022 8:45:00 PM 19.15 66.47 0.084 7.16 1.52 8.67
8/19/2022 9:00:00 PM 18.96 66.128 0.085 7.14 1.7 8.68
8/19/2022 9:15:00 PM 18.74 65.732 0.085 7.14 1.94 8.69
8/19/2022 9:30:00 PM 18.57 65.426 0.085 7.12 1.73 8.72
8/19/2022 9:45:00 PM 18.42 65.156 0.085 7.12 1.62 8.72
8/19/2022 10:00:00 PM 18.26 64.868 0.085 7.12 1.73 8.77
8/19/2022 10:15:00 PM 18.13 64.634 0.086 7.11 2.14 8.78
8/19/2022 10:30:00 PM 18.01 64.418 0.086 7.1 1.87 8.8
8/19/2022 10:45:00 PM 17.88 64.184 0.086 7.11 1.63 8.82
8/19/2022 11:00:00 PM 17.76 63.968 0.086 7.09 1.57 8.82
8/19/2022 11:15:00 PM 17.65 63.77 0.086 7.09 1.51 8.84
8/19/2022 11:30:00 PM 17.53 63.554 0.086 7.1 1.6 8.89
8/19/2022 11:45:00 PM 17.42 63.356 0.086 7.09 1.65 8.92
8/20/2022 12:00:00 AM 17.31 63.158 0.086 7.09 1.8 8.95
8/20/2022 12:15:00 AM 17.22 62.996 0.087 7.08 1.51 8.93
8/20/2022 12:30:00 AM 17.1 62.78 0.087 7.08 1.39 8.99
8/20/2022 12:45:00 AM 17.01 62.618 0.087 7.08 1.42 9
8/20/2022 1:00:00 AM 16.9 62.42 0.087 7.08 1.6 9.04
8/20/2022 1:15:00 AM 16.79 62.222 0.087 7.09 2.33 9.05
8/20/2022 1:30:00 AM 16.7 62.06 0.087 7.08 3.36 9.06
8/20/2022 1:45:00 AM 16.59 61.862 0.087 7.08 1.41 9.12
8/20/2022 2:00:00 AM 16.49 61.682 0.087 7.07 1.66 9.13
8/20/2022 2:15:00 AM 16.43 61.574 0.087 7.07 1.52 9.12
8/20/2022 2:30:00 AM 16.32 61.376 0.087 7.07 1.58 9.16
8/20/2022 2:45:00 AM 16.25 61.25 0.087 7.07 3.3 9.14
8/20/2022 3:00:00 AM 16.17 61.106 0.087 7.05 1.65 9.17
8/20/2022 3:15:00 AM 16.09 60.962 0.087 7.07 1.55 9.19
8/20/2022 3:30:00 AM 16.02 60.836 0.087 7.06 1.62 9.22
8/20/2022 3:45:00 AM 15.94 60.692 0.087 7.07 1.44 9.23
8/20/2022 4:00:00 AM 15.84 60.512 0.087 7.07 1.68 9.28
8/20/2022 4:15:00 AM 15.78 60.404 0.087 7.06 1.46 9.25
8/20/2022 4:30:00 AM 15.71 60.278 0.087 7.06 1.55 9.26
8/20/2022 4:45:00 AM 15.61 60.098 0.087 7.07 1.59 9.32
8/20/2022 5:00:00 AM 15.55 59.99 0.088 7.07 1.39 9.32
8/20/2022 5:15:00 AM 15.49 59.882 0.088 7.05 1.39 9.34
8/20/2022 5:30:00 AM 15.42 59.756 0.088 7.06 1.46 9.33
8/20/2022 5:45:00 AM 15.35 59.63 0.088 7.05 1.51 9.34
8/20/2022 6:00:00 AM 15.27 59.486 0.088 7.05 1.54 9.37
8/20/2022 6:15:00 AM 15.17 59.306 0.088 7.06 1.73 9.43
8/20/2022 6:30:00 AM 15.11 59.198 0.088 7.06 1.53 9.43
8/20/2022 6:45:00 AM 15.04 59.072 0.088 7.06 1.57 9.45
8/20/2022 7:00:00 AM 14.99 58.982 0.088 7.05 1.39 9.46
8/20/2022 7:15:00 AM 14.91 58.838 0.088 7.07 1.62 9.52
8/20/2022 7:30:00 AM 14.88 58.784 0.088 7.07 1.51 9.58
8/20/2022 7:45:00 AM 14.85 58.73 0.088 7.07 1.55 9.61
8/20/2022 8:00:00 AM 14.83 58.694 0.088 7.09 1.6 9.74
8/20/2022 8:15:00 AM 14.81 58.658 0.088 7.11 1.5 9.82
8/20/2022 8:30:00 AM 14.81 58.658 0.088 7.12 1.34 9.9
8/20/2022 8:45:00 AM 14.83 58.694 0.088 7.14 1.36 9.96
8/20/2022 9:00:00 AM 14.89 58.802 0.087 7.14 1.77 10.04
8/20/2022 9:15:00 AM 15 59 0.087 7.16 1.35 10.12
8/20/2022 9:30:00 AM 15.13 59.234 0.087 7.18 1.44 10.22
8/20/2022 9:45:00 AM 15.37 59.666 0.086 7.21 1.3 10.3
8/20/2022 10:00:00 AM 15.63 60.134 0.086 7.24 1.43 10.42
8/20/2022 10:15:00 AM 15.94 60.692 0.085 7.26 1.42 10.49
8/20/2022 10:30:00 AM 16.29 61.322 0.085 7.28 1.55 10.5
8/20/2022 10:45:00 AM 16.65 61.97 0.085 7.32 1.33 10.52
8/20/2022 11:00:00 AM 16.97 62.546 0.085 7.32 1.32 10.48
8/20/2022 11:15:00 AM 17.25 63.05 0.084 7.35 1.51 10.49
8/20/2022 11:30:00 AM 17.5 63.5 0.084 7.41 1.29 10.5
8/20/2022 11:45:00 AM 17.72 63.896 0.084 7.41 1.3 10.48
8/20/2022 12:00:00 PM 17.96 64.328 0.084 7.44 1.37 10.47
8/20/2022 12:15:00 PM 18.27 64.886 0.083 7.47 1.42 10.46
8/20/2022 12:30:00 PM 18.51 65.318 0.083 7.49 1.48 10.45
8/20/2022 12:45:00 PM 18.7 65.66 0.083 7.51 1.54 10.39
8/20/2022 1:00:00 PM 19.06 66.308 0.083 7.51 1.32 10.3
8/20/2022 1:15:00 PM 19.37 66.866 0.083 7.49 1.44 10.18
8/20/2022 1:30:00 PM 19.7 67.46 0.083 7.51 1.59 10.14
8/20/2022 1:45:00 PM 20.01 68.018 0.082 7.52 1.47 10.05
8/20/2022 2:00:00 PM 20.27 68.486 0.083 7.53 1.6 9.98
8/20/2022 2:15:00 PM 20.57 69.026 0.082 7.54 1.47 9.93
8/20/2022 2:30:00 PM 20.74 69.332 0.082 7.56 1.35 9.9
8/20/2022 2:45:00 PM 20.9 69.62 0.083 7.57 1.33 9.85
8/20/2022 3:00:00 PM 21.1 69.98 0.083 7.57 1.49 9.79
8/20/2022 3:15:00 PM 21.37 70.466 0.082 7.55 1.34 9.66
8/20/2022 3:30:00 PM 21.54 70.772 0.082 7.58 1.38 9.63
8/20/2022 3:45:00 PM 21.63 70.934 0.082 7.54 1.59 9.58
8/20/2022 4:00:00 PM 21.66 70.988 0.083 7.52 1.57 9.55
8/20/2022 4:15:00 PM 21.66 70.988 0.083 7.48 1.78 9.46
8/20/2022 4:30:00 PM 21.72 71.096 0.083 7.45 1.59 9.37
8/20/2022 4:45:00 PM 21.72 71.096 0.083 7.46 1.54 9.37
8/20/2022 5:00:00 PM 21.73 71.114 0.083 7.45 1.55 9.29
8/20/2022 5:15:00 PM 21.73 71.114 0.083 7.41 1.64 9.18
8/20/2022 5:30:00 PM 21.73 71.114 0.083 7.4 1.59 9.19
8/20/2022 5:45:00 PM 21.69 71.042 0.083 7.36 1.95 9.08
8/20/2022 6:00:00 PM 21.6 70.88 0.083 7.24 2.13 8.8
8/20/2022 6:15:00 PM 21.49 70.682 0.083 7.21 2.02 8.7
8/20/2022 6:30:00 PM 21.4 70.52 0.083 7.17 1.99 8.53
8/20/2022 6:45:00 PM 21.27 70.286 0.083 7.24 1.8 8.6
8/20/2022 7:00:00 PM 21.14 70.052 0.084 7.21 1.63 8.5
8/20/2022 7:15:00 PM 21.01 69.818 0.084 7.21 1.59 8.52
8/20/2022 7:30:00 PM 20.88 69.584 0.084 7.2 1.67 8.48
8/20/2022 7:45:00 PM 20.72 69.296 0.085 7.19 1.68 8.51
8/20/2022 8:00:00 PM 20.57 69.026 0.085 7.19 1.5 8.51
8/20/2022 8:15:00 PM 20.37 68.666 0.085 7.18 1.4 8.5
8/20/2022 8:30:00 PM 20.18 68.324 0.086 7.16 1.5 8.47
8/20/2022 8:45:00 PM 19.99 67.982 0.086 7.16 2.08 8.48
8/20/2022 9:00:00 PM 19.76 67.568 0.086 7.14 1.62 8.47
8/20/2022 9:15:00 PM 19.61 67.298 0.087 7.13 1.62 8.47
8/20/2022 9:30:00 PM 19.42 66.956 0.087 7.12 1.46 8.49
8/20/2022 9:45:00 PM 19.28 66.704 0.087 7.11 1.56 8.5
8/20/2022 10:00:00 PM 19.12 66.416 0.088 7.11 1.98 8.53
8/20/2022 10:15:00 PM 18.95 66.11 0.088 7.11 1.52 8.54
8/20/2022 10:30:00 PM 18.82 65.876 0.088 7.1 1.67 8.55
8/20/2022 10:45:00 PM 18.7 65.66 0.088 7.1 1.53 8.57
8/20/2022 11:00:00 PM 18.56 65.408 0.088 7.09 1.49 8.62
8/20/2022 11:15:00 PM 18.44 65.192 0.088 7.09 1.55 8.64
8/20/2022 11:30:00 PM 18.35 65.03 0.089 7.08 1.99 8.6
8/20/2022 11:45:00 PM 18.22 64.796 0.089 7.08 1.52 8.65
8/21/2022 12:00:00 AM 18.12 64.616 0.089 7.06 1.59 8.66
8/21/2022 12:15:00 AM 18.01 64.418 0.089 7.07 1.53 8.68
8/21/2022 12:30:00 AM 17.93 64.274 0.089 7.07 1.53 8.71
8/21/2022 12:45:00 AM 17.83 64.094 0.089 7.07 1.55 8.73
8/21/2022 1:00:00 AM 17.74 63.932 0.089 7.06 1.49 8.74
8/21/2022 1:15:00 AM 17.64 63.752 0.089 7.05 1.46 8.77
8/21/2022 1:30:00 AM 17.56 63.608 0.089 7.06 4.28 8.7
8/21/2022 1:45:00 AM 17.45 63.41 0.089 7.07 1.38 8.83
8/21/2022 2:00:00 AM 17.4 63.32 0.089 7.06 1.4 8.8
8/21/2022 2:15:00 AM 17.28 63.104 0.089 7.07 1.43 8.86
8/21/2022 2:30:00 AM 17.24 63.032 0.089 7.05 1.5 8.83
8/21/2022 2:45:00 AM 17.15 62.87 0.089 7.06 1.51 8.88
8/21/2022 3:00:00 AM 17.12 62.816 0.089 7.05 1.59 8.85
8/21/2022 3:15:00 AM 17.06 62.708 0.089 7.04 1.66 8.85
8/21/2022 3:30:00 AM 17 62.6 0.09 7.04 1.57 8.86
8/21/2022 3:45:00 AM 16.96 62.528 0.09 7.04 1.46 8.89
8/21/2022 4:00:00 AM 16.91 62.438 0.09 7.05 1.57 8.94
8/21/2022 4:15:00 AM 16.87 62.366 0.09 7.05 1.51 8.94
8/21/2022 4:30:00 AM 16.84 62.312 0.09 7.05 1.44 8.93
8/21/2022 4:45:00 AM 16.81 62.258 0.09 7.05 1.49 8.93
8/21/2022 5:00:00 AM 16.79 62.222 0.09 7.04 1.42 8.93
8/21/2022 5:15:00 AM 16.76 62.168 0.09 7.05 1.51 8.93
8/21/2022 5:30:00 AM 16.73 62.114 0.09 7.04 1.55 8.95
8/21/2022 5:45:00 AM 16.7 62.06 0.09 7.05 1.37 8.96
8/21/2022 6:00:00 AM 16.67 62.006 0.09 7.05 1.53 8.99
8/21/2022 6:15:00 AM 16.64 61.952 0.09 7.04 1.61 8.98
8/21/2022 6:30:00 AM 16.62 61.916 0.09 7.05 2.01 8.98
8/21/2022 6:45:00 AM 16.6 61.88 0.09 7.04 1.5 8.98
8/21/2022 7:00:00 AM 16.58 61.844 0.09 7.04 1.72 8.99
8/21/2022 7:15:00 AM 16.53 61.754 0.09 7.05 1.6 9.07
8/21/2022 7:30:00 AM 16.5 61.7 0.089 7.05 1.75 9.11
8/21/2022 7:45:00 AM 16.5 61.7 0.089 7.06 1.7 9.17
8/21/2022 8:00:00 AM 16.5 61.7 0.089 7.06 1.71 9.23
8/21/2022 8:15:00 AM 16.5 61.7 0.088 7.07 1.65 9.33
8/21/2022 8:30:00 AM 16.5 61.7 0.088 7.09 1.59 9.39
8/21/2022 8:45:00 AM 16.5 61.7 0.088 7.09 1.78 9.44
8/21/2022 9:00:00 AM 16.52 61.736 0.088 7.11 1.55 9.53
8/21/2022 9:15:00 AM 16.58 61.844 0.088 7.13 1.4 9.64
8/21/2022 9:30:00 AM 16.7 62.06 0.088 7.16 1.47 9.83
8/21/2022 9:45:00 AM 16.89 62.402 0.087 7.19 1.47 9.98
8/21/2022 10:00:00 AM 17.09 62.762 0.087 7.21 1.69 10.02
8/21/2022 10:15:00 AM 17.38 63.284 0.086 7.27 1.4 10.22
8/21/2022 10:30:00 AM 17.57 63.626 0.086 7.28 1.74 10.22
8/21/2022 10:45:00 AM 17.78 64.004 0.086 7.28 1.46 10.21
8/21/2022 11:00:00 AM 17.96 64.328 0.085 7.33 1.59 10.29
8/21/2022 11:15:00 AM 18.14 64.652 0.085 7.33 1.4 10.21
8/21/2022 11:30:00 AM 18.38 65.084 0.085 7.41 1.55 10.27
8/21/2022 11:45:00 AM 18.61 65.498 0.084 7.44 1.63 10.22
8/21/2022 12:00:00 PM 18.9 66.02 0.084 7.43 1.45 10.24
8/21/2022 12:15:00 PM 19.21 66.578 0.084 7.48 1.38 10.25
8/21/2022 12:30:00 PM 19.47 67.046 0.083 7.5 1.44 10.23
8/21/2022 12:45:00 PM 19.67 67.406 0.083 7.52 1.5 10.24
8/21/2022 1:00:00 PM 19.78 67.604 0.083 7.53 1.62 10.18
8/21/2022 1:15:00 PM 19.86 67.748 0.083 7.53 1.56 10.15
8/21/2022 1:30:00 PM 19.83 67.694 0.083 7.51 1.6 10.02
8/21/2022 1:45:00 PM 19.77 67.586 0.083 7.46 1.56 9.75
8/21/2022 2:00:00 PM 19.68 67.424 0.083 7.36 1.6 9.55
8/21/2022 2:15:00 PM 19.6 67.28 0.083 7.31 1.64 9.33
8/21/2022 2:30:00 PM 19.53 67.154 0.084 7.29 1.8 9.19
8/21/2022 2:45:00 PM 19.49 67.082 0.084 7.28 1.53 9.21
8/21/2022 3:00:00 PM 19.49 67.082 0.084 7.28 1.58 9.25
8/21/2022 3:15:00 PM 19.54 67.172 0.084 7.33 1.5 9.45
8/21/2022 3:30:00 PM 19.6 67.28 0.084 7.34 1.64 9.46
8/21/2022 3:45:00 PM 19.63 67.334 0.084 7.35 1.63 9.55
8/21/2022 4:00:00 PM 19.68 67.424 0.083 7.41 1.49 9.72
8/21/2022 4:15:00 PM 19.77 67.586 0.083 7.41 1.79 9.69
8/21/2022 4:30:00 PM 19.82 67.676 0.083 7.41 1.63 9.64
8/21/2022 4:45:00 PM 19.88 67.784 0.083 7.43 1.66 9.66
8/21/2022 5:00:00 PM 19.96 67.92799 0.083 7.44 1.49 9.67
8/21/2022 5:15:00 PM 20.03 68.054 0.083 7.42 1.52 9.62
8/21/2022 5:30:00 PM 20.11 68.198 0.083 7.43 1.7 9.57
8/21/2022 5:45:00 PM 20.12 68.216 0.083 7.37 2.16 9.4
8/21/2022 6:00:00 PM 20.11 68.198 0.083 7.32 1.95 9.22
8/21/2022 6:15:00 PM 20.11 68.198 0.083 7.33 2.61 9.21
8/21/2022 6:30:00 PM 20.1 68.18 0.083 7.31 2.1 9.13
8/21/2022 6:45:00 PM 20.04 68.07201 0.083 7.24 3.9 8.87
8/21/2022 7:00:00 PM 19.95 67.91 0.084 7.24 1.71 8.8
8/21/2022 7:15:00 PM 19.86 67.748 0.084 7.21 1.59 8.71
8/21/2022 7:30:00 PM 19.75 67.55 0.084 7.17 1.62 8.52
8/21/2022 7:45:00 PM 19.66 67.388 0.085 7.14 1.7 8.53
8/21/2022 8:00:00 PM 19.53 67.154 0.085 7.15 1.73 8.61
8/21/2022 8:15:00 PM 19.38 66.884 0.085 7.15 1.98 8.59
8/21/2022 8:30:00 PM 19.23 66.614 0.085 7.14 1.81 8.62
8/21/2022 8:45:00 PM 19.12 66.416 0.085 7.13 1.8 8.62
8/21/2022 9:00:00 PM 19.03 66.254 0.085 7.13 1.87 8.61
8/21/2022 9:15:00 PM 18.95 66.11 0.085 7.11 2.28 8.59
8/21/2022 9:30:00 PM 18.86 65.948 0.086 7.11 1.79 8.64
8/21/2022 9:45:00 PM 18.79 65.82201 0.086 7.1 1.63 8.61
8/21/2022 10:00:00 PM 18.72 65.696 0.086 7.09 1.55 8.64
8/21/2022 10:15:00 PM 18.67 65.606 0.086 7.09 1.56 8.61
8/21/2022 10:30:00 PM 18.62 65.516 0.086 7.07 1.85 8.62
8/21/2022 10:45:00 PM 18.57 65.426 0.086 7.07 1.87 8.6
8/21/2022 11:00:00 PM 18.5 65.3 0.087 7.07 1.74 8.66
8/21/2022 11:15:00 PM 18.46 65.228 0.087 7.06 1.68 8.68
8/21/2022 11:30:00 PM 18.43 65.174 0.087 7.06 1.74 8.64
8/21/2022 11:45:00 PM 18.37 65.066 0.087 7.06 1.61 8.68
8/22/2022 12:00:00 AM 18.34 65.012 0.087 7.05 1.5 8.64
8/22/2022 12:15:00 AM 18.29 64.922 0.087 7.05 1.6 8.64
8/22/2022 12:30:00 AM 18.26 64.868 0.088 7.04 1.59 8.68
8/22/2022 12:45:00 AM 18.22 64.796 0.088 7.03 1.67 8.71
8/22/2022 1:00:00 AM 18.18 64.724 0.088 7.04 1.65 8.71
8/22/2022 1:15:00 AM 18.14 64.652 0.088 7.04 1.5 8.73
8/22/2022 1:30:00 AM 18.1 64.58 0.088 7.04 1.52 8.76
8/22/2022 1:45:00 AM 18.07 64.526 0.088 7.03 1.65 8.76
8/22/2022 2:00:00 AM 18.03 64.454 0.088 7.03 1.64 8.74
8/22/2022 2:15:00 AM 17.98 64.364 0.088 7.02 1.67 8.78
8/22/2022 2:30:00 AM 17.94 64.292 0.088 7.02 1.54 8.81
8/22/2022 2:45:00 AM 17.89 64.202 0.088 7 2.55 8.81
8/22/2022 3:00:00 AM 17.84 64.112 0.089 7.02 1.55 8.84
8/22/2022 3:15:00 AM 17.81 64.058 0.088 7.01 1.6 8.85
8/22/2022 3:30:00 AM 17.77 63.986 0.089 7.02 1.56 8.87
8/22/2022 3:45:00 AM 17.73 63.914 0.089 7.01 1.65 8.87
8/22/2022 4:00:00 AM 17.69 63.842 0.089 7.01 1.75 8.89
8/22/2022 4:15:00 AM 17.65 63.77 0.089 7.01 1.89 8.92
8/22/2022 4:30:00 AM 17.62 63.716 0.089 7.01 2.01 8.92
8/22/2022 4:45:00 AM 17.59 63.662 0.089 7 1.59 8.92
8/22/2022 5:00:00 AM 17.55 63.59 0.089 7 1.57 8.95
8/22/2022 5:15:00 AM 17.52 63.536 0.089 7 1.64 8.98
8/22/2022 5:30:00 AM 17.49 63.482 0.089 7 1.71 8.97
8/22/2022 5:45:00 AM 17.46 63.428 0.089 7 1.74 8.99
8/22/2022 6:00:00 AM 17.44 63.392 0.089 7 1.56 8.99
8/22/2022 6:15:00 AM 17.41 63.338 0.089 7 1.73 9
8/22/2022 6:30:00 AM 17.38 63.284 0.089 7.02 1.65 9.02
8/22/2022 6:45:00 AM 17.36 63.248 0.089 7.02 1.82 8.99
8/22/2022 7:00:00 AM 17.33 63.194 0.089 7.03 2.51 9.03
8/22/2022 7:15:00 AM 17.32 63.176 0.089 7.04 1.93 9.07
8/22/2022 7:30:00 AM 17.31 63.158 0.089 7.04 1.61 9.09
8/22/2022 7:45:00 AM 17.32 63.176 0.089 7.06 1.86 9.16
8/22/2022 8:00:00 AM 17.34 63.212 0.089 7.08 1.68 9.27
8/22/2022 8:15:00 AM 17.39 63.302 0.089 7.12 1.53 9.4
8/22/2022 8:30:00 AM 17.44 63.392 0.089 7.16 1.72 9.57
8/22/2022 8:45:00 AM 17.49 63.482 0.088 7.19 1.61 9.64
8/22/2022 9:00:00 AM 17.56 63.608 0.088 7.21 1.67 9.71
8/22/2022 9:15:00 AM 17.64 63.752 0.088 7.22 1.64 9.79
8/22/2022 9:30:00 AM 17.73 63.914 0.088 7.26 1.39 9.84
8/22/2022 9:45:00 AM 17.83 64.094 0.087 7.26 1.55 9.88
8/22/2022 10:00:00 AM 17.93 64.274 0.087 7.29 1.54 9.85
8/22/2022 10:15:00 AM 18.02 64.436 0.087 7.29 1.81 9.86
8/22/2022 10:30:00 AM 18.12 64.616 0.086 7.3 1.68 9.87
8/22/2022 10:45:00 AM 18.21 64.778 0.086 7.31 1.6 9.89
8/22/2022 11:00:00 AM 18.28 64.904 0.086 7.33 1.55 9.89
8/22/2022 11:15:00 AM 18.36 65.048 0.086 7.34 1.59 9.87
8/22/2022 11:30:00 AM 18.41 65.138 0.086 7.34 1.6 9.86
8/22/2022 11:45:00 AM 18.46 65.228 0.085 7.35 1.54 9.83
8/22/2022 12:00:00 PM 18.52 65.336 0.085 7.35 1.51 9.84
8/22/2022 12:15:00 PM 18.62 65.516 0.085 7.38 1.68 9.92
8/22/2022 12:30:00 PM 18.78 65.804 0.085 7.43 1.54 10.01
8/22/2022 12:45:00 PM 18.99 66.182 0.084 7.4 1.83 10
8/22/2022 1:00:00 PM 19.25 66.65 0.083 7.45 1.78 10.04
8/22/2022 1:15:00 PM 19.48 67.064 0.083 7.49 1.8 10.06
8/22/2022 1:30:00 PM 19.71 67.478 0.083 7.53 1.77 10.04
8/22/2022 1:45:00 PM 19.93 67.874 0.083 7.52 1.59 9.95
8/22/2022 2:00:00 PM 20.07 68.126 0.083 7.51 2.12 9.93
8/22/2022 2:15:00 PM 20.2 68.36 0.083 7.53 1.53 9.89
8/22/2022 2:30:00 PM 20.36 68.648 0.082 7.52 1.61 9.8
8/22/2022 2:45:00 PM 20.54 68.972 0.082 7.53 1.8 9.78
8/22/2022 3:00:00 PM 20.69 69.242 0.082 7.53 1.89 9.75
8/22/2022 3:15:00 PM 20.88 69.584 0.082 7.54 1.82 9.72
8/22/2022 3:30:00 PM 21.02 69.836 0.082 7.57 1.44 9.67
8/22/2022 3:45:00 PM 21.15 70.07 0.082 7.55 1.52 9.6
8/22/2022 4:00:00 PM 21.25 70.25 0.082 7.52 2.3 9.48
8/22/2022 4:15:00 PM 21.36 70.448 0.082 7.51 1.79 9.41
8/22/2022 4:30:00 PM 21.45 70.61 0.082 7.48 1.44 9.33
8/22/2022 4:45:00 PM 21.55 70.79 0.082 7.47 1.57 9.16
8/22/2022 5:00:00 PM 21.66 70.988 0.082 7.46 1.48 9.16
8/22/2022 5:15:00 PM 21.75 71.15 0.082 7.42 1.55 9.12
8/22/2022 5:30:00 PM 21.85 71.33 0.082 7.45 1.73 9.11
8/22/2022 5:45:00 PM 21.87 71.366 0.082 7.43 1.66 9.04
8/22/2022 6:00:00 PM 21.87 71.366 0.082 7.39 1.74 8.94
8/22/2022 6:15:00 PM 21.81 71.258 0.083 7.33 1.72 8.84
8/22/2022 6:30:00 PM 21.76 71.168 0.083 7.31 1.84 8.71
8/22/2022 6:45:00 PM 21.6 70.88 0.083 7.24 1.86 8.44
8/22/2022 7:00:00 PM 21.43 70.574 0.084 7.2 2.1 8.32
8/22/2022 7:15:00 PM 21.27 70.286 0.084 7.19 1.89 8.24
8/22/2022 7:30:00 PM 21.1 69.98 0.085 7.18 1.57 8.25
8/22/2022 7:45:00 PM 20.92 69.656 0.085 7.19 1.66 8.32
8/22/2022 8:00:00 PM 20.75 69.35 0.085 7.18 1.55 8.33
8/22/2022 8:15:00 PM 20.53 68.954 0.086 7.17 1.63 8.32
8/22/2022 8:30:00 PM 20.35 68.63 0.086 7.16 2.08 8.33
8/22/2022 8:45:00 PM 20.15 68.27 0.086 7.16 2.1 8.34
8/22/2022 9:00:00 PM 19.98 67.964 0.086 7.15 1.65 8.35
8/22/2022 9:15:00 PM 19.8 67.64 0.087 7.15 1.59 8.37
8/22/2022 9:30:00 PM 19.65 67.37 0.087 7.14 1.72 8.39
8/22/2022 9:45:00 PM 19.51 67.118 0.087 7.13 1.68 8.39
8/22/2022 10:00:00 PM 19.37 66.866 0.087 7.12 1.74 8.44
8/22/2022 10:15:00 PM 19.24 66.632 0.087 7.11 1.43 8.45
8/22/2022 10:30:00 PM 19.14 66.452 0.087 7.12 1.56 8.47
8/22/2022 10:45:00 PM 18.99 66.182 0.087 7.11 1.47 8.5
8/22/2022 11:00:00 PM 18.87 65.966 0.087 7.11 1.57 8.53
8/22/2022 11:15:00 PM 18.77 65.786 0.087 7.11 1.54 8.56
8/22/2022 11:30:00 PM 18.68 65.624 0.088 7.09 1.66 8.54
8/22/2022 11:45:00 PM 18.61 65.498 0.088 7.08 1.55 8.49
8/23/2022 12:00:00 AM 18.51 65.318 0.088 7.09 1.65 8.58
8/23/2022 12:15:00 AM 18.46 65.228 0.088 7.09 1.65 8.57
8/23/2022 12:30:00 AM 18.39 65.102 0.088 7.09 1.58 8.59
8/23/2022 12:45:00 AM 18.32 64.976 0.088 7.09 1.75 8.64
8/23/2022 1:00:00 AM 18.25 64.85 0.088 7.08 1.55 8.65
8/23/2022 1:15:00 AM 18.2 64.76 0.088 7.08 1.51 8.65
8/23/2022 1:30:00 AM 18.13 64.634 0.088 7.08 1.52 8.66
8/23/2022 1:45:00 AM 18.07 64.526 0.088 7.08 1.43 8.68
8/23/2022 2:00:00 AM 18.01 64.418 0.088 7.08 1.41 8.66
8/23/2022 2:15:00 AM 17.94 64.292 0.088 7.08 1.51 8.68
8/23/2022 2:30:00 AM 17.88 64.184 0.088 7.08 1.42 8.74
8/23/2022 2:45:00 AM 17.84 64.112 0.088 7.07 1.45 8.73
8/23/2022 3:00:00 AM 17.82 64.076 0.088 7.06 1.48 8.7
8/23/2022 3:15:00 AM 17.78 64.004 0.089 7.05 2.05 8.66
8/23/2022 3:30:00 AM 17.74 63.932 0.089 7.06 1.55 8.71
8/23/2022 3:45:00 AM 17.71 63.878 0.089 7.06 1.44 8.68
8/23/2022 4:00:00 AM 17.67 63.806 0.089 7.04 1.54 8.67
8/23/2022 4:15:00 AM 17.64 63.752 0.089 7.06 1.58 8.73
8/23/2022 4:30:00 AM 17.61 63.698 0.089 7.04 1.48 8.7
8/23/2022 4:45:00 AM 17.58 63.644 0.089 7.03 1.55 8.73
8/23/2022 5:00:00 AM 17.54 63.572 0.089 7.03 1.5 8.76
8/23/2022 5:15:00 AM 17.51 63.518 0.089 7.03 1.54 8.71
8/23/2022 5:30:00 AM 17.44 63.392 0.089 7.02 1.68 8.7
8/23/2022 5:45:00 AM 17.4 63.32 0.089 7.02 1.63 8.75
8/23/2022 6:00:00 AM 17.36 63.248 0.089 7.03 1.47 8.78
8/23/2022 6:15:00 AM 17.33 63.194 0.089 7.02 1.58 8.77
8/23/2022 6:30:00 AM 17.3 63.14 0.089 7.01 1.54 8.78
8/23/2022 6:45:00 AM 17.25 63.05 0.089 7.02 2.27 8.81
8/23/2022 7:00:00 AM 17.22 62.996 0.089 7.02 2.43 8.81
8/23/2022 7:15:00 AM 17.21 62.978 0.089 7.01 1.65 8.85
8/23/2022 7:30:00 AM 17.18 62.924 0.089 7.04 1.56 8.92
8/23/2022 7:45:00 AM 17.16 62.888 0.089 7.06 1.46 9.02
8/23/2022 8:00:00 AM 17.16 62.888 0.089 7.06 1.82 9.05
8/23/2022 8:15:00 AM 17.16 62.888 0.089 7.09 1.87 9.14
8/23/2022 8:30:00 AM 17.17 62.906 0.089 7.09 1.74 9.24
8/23/2022 8:45:00 AM 17.21 62.978 0.089 7.11 2.35 9.36
8/23/2022 9:00:00 AM 17.25 63.05 0.089 7.13 1.56 9.48
8/23/2022 9:15:00 AM 17.31 63.158 0.088 7.17 1.68 9.58
8/23/2022 9:30:00 AM 17.37 63.266 0.088 7.18 1.96 9.66
8/23/2022 9:45:00 AM 17.45 63.41 0.088 7.22 1.6 9.75
8/23/2022 10:00:00 AM 17.52 63.536 0.088 7.24 1.66 9.8
8/23/2022 10:15:00 AM 17.59 63.662 0.088 7.26 1.6 9.85
8/23/2022 10:30:00 AM 17.69 63.842 0.087 7.29 1.39 9.88
8/23/2022 10:45:00 AM 17.82 64.076 0.087 7.33 1.57 9.95
8/23/2022 11:00:00 AM 17.94 64.292 0.086 7.31 1.52 9.93
8/23/2022 11:15:00 AM 18.06 64.508 0.086 7.35 1.52 9.98
8/23/2022 11:30:00 AM 18.19 64.742 0.086 7.37 1.88 10
8/23/2022 11:45:00 AM 18.37 65.066 0.085 7.4 2.04 10.03
8/23/2022 12:00:00 PM 18.56 65.408 0.085 7.42 1.53 10.11
8/23/2022 12:15:00 PM 18.67 65.606 0.084 7.42 1.76 10.05
8/23/2022 12:30:00 PM 18.76 65.768 0.083 7.39 2.16 9.82
8/23/2022 12:45:00 PM 18.94 66.092 0.083 7.4 2.99 9.77
8/23/2022 1:00:00 PM 19.19 66.542 0.081 7.4 2.19 9.76
8/23/2022 1:15:00 PM 19.43 66.974 0.081 7.39 2.71 9.84
8/23/2022 1:30:00 PM 19.76 67.568 0.08 7.42 1.71 9.88
8/23/2022 1:45:00 PM 20.02 68.036 0.08 7.46 1.83 9.83
8/23/2022 2:00:00 PM 20.25 68.45 0.08 7.48 1.73 9.83
8/23/2022 2:15:00 PM 20.52 68.936 0.08 7.51 1.75 9.79
8/23/2022 2:30:00 PM 20.78 69.404 0.08 7.52 1.63 9.79
8/23/2022 2:45:00 PM 20.99 69.782 0.08 7.51 1.64 9.7
8/23/2022 3:00:00 PM 21.22 70.196 0.08 7.55 1.58 9.7
8/23/2022 3:15:00 PM 21.43 70.574 0.08 7.55 1.57 9.63
8/23/2022 3:30:00 PM 21.54 70.772 0.081 7.54 1.47 9.56
8/23/2022 3:45:00 PM 21.61 70.898 0.081 7.53 1.78 9.5
8/23/2022 4:00:00 PM 21.65 70.97 0.081 7.52 1.58 9.4
8/23/2022 4:15:00 PM 21.75 71.15 0.081 7.51 1.55 9.23
8/23/2022 4:30:00 PM 21.85 71.33 0.082 7.48 1.85 9.21
8/23/2022 4:45:00 PM 21.98 71.564 0.082 7.5 1.69 9.22
8/23/2022 5:00:00 PM 21.99 71.582 0.082 7.45 1.61 9.13
8/23/2022 5:15:00 PM 22.06 71.708 0.082 7.42 1.61 9
8/23/2022 5:30:00 PM 22.06 71.708 0.082 7.42 3.14 9.01
8/23/2022 5:45:00 PM 21.97 71.546 0.082 7.32 1.84 8.78
8/23/2022 6:00:00 PM 21.92 71.456 0.083 7.32 1.72 8.75
8/23/2022 6:15:00 PM 21.8 71.24 0.083 7.25 2.48 8.53
8/23/2022 6:30:00 PM 21.72 71.096 0.083 7.23 2.11 8.45
8/23/2022 6:45:00 PM 21.61 70.898 0.084 7.29 1.51 8.6
8/23/2022 7:00:00 PM 21.46 70.628 0.084 7.23 1.97 8.42
8/23/2022 7:15:00 PM 21.26 70.268 0.084 7.24 1.56 8.51
8/23/2022 7:30:00 PM 21.07 69.926 0.085 7.22 1.74 8.45
8/23/2022 7:45:00 PM 20.85 69.53 0.085 7.21 1.64 8.45
8/23/2022 8:00:00 PM 20.64 69.152 0.085 7.19 1.76 8.41
8/23/2022 8:15:00 PM 20.43 68.774 0.086 7.19 1.62 8.44
8/23/2022 8:30:00 PM 20.22 68.396 0.086 7.17 1.78 8.41
8/23/2022 8:45:00 PM 20.03 68.054 0.086 7.15 1.69 8.41
8/23/2022 9:00:00 PM 19.82 67.676 0.087 7.14 7.05 8.41
8/23/2022 9:15:00 PM 19.63 67.334 0.087 7.13 2.14 8.43
8/23/2022 9:30:00 PM 19.44 66.992 0.087 7.13 1.87 8.48
8/23/2022 9:45:00 PM 19.3 66.74 0.087 7.11 1.86 8.44
8/23/2022 10:00:00 PM 19.14 66.452 0.088 7.11 1.76 8.51
8/23/2022 10:15:00 PM 18.99 66.182 0.088 7.11 1.67 8.51
8/23/2022 10:30:00 PM 18.87 65.966 0.088 7.1 2.19 8.54
8/23/2022 10:45:00 PM 18.74 65.732 0.088 7.09 1.84 8.55
8/23/2022 11:00:00 PM 18.61 65.498 0.088 7.09 2.54 8.59
8/23/2022 11:15:00 PM 18.5 65.3 0.088 7.09 1.87 8.62
8/23/2022 11:30:00 PM 18.38 65.084 0.089 7.09 1.59 8.62
8/23/2022 11:45:00 PM 18.27 64.886 0.089 7.08 1.69 8.61
8/24/2022 12:00:00 AM 18.16 64.688 0.089 7.06 1.64 8.62
8/24/2022 12:15:00 AM 18.05 64.49 0.089 7.07 1.57 8.71
8/24/2022 12:30:00 AM 17.94 64.292 0.089 7.08 1.81 8.74
8/24/2022 12:45:00 AM 17.84 64.112 0.089 7.08 1.49 8.76
8/24/2022 1:00:00 AM 17.72 63.896 0.089 7.07 1.84 8.76
8/24/2022 1:15:00 AM 17.64 63.752 0.089 7.07 1.77 8.78
8/24/2022 1:30:00 AM 17.53 63.554 0.089 7.07 1.67 8.8
8/24/2022 1:45:00 AM 17.42 63.356 0.089 7.07 1.56 8.86
8/24/2022 2:00:00 AM 17.34 63.212 0.089 7.06 1.69 8.84
8/24/2022 2:15:00 AM 17.24 63.032 0.089 7.06 1.59 8.86
8/24/2022 2:30:00 AM 17.16 62.888 0.089 7.05 1.62 8.87
8/24/2022 2:45:00 AM 17.06 62.708 0.089 7.06 1.63 8.87
8/24/2022 3:00:00 AM 16.99 62.582 0.09 7.06 1.65 8.92
8/24/2022 3:15:00 AM 16.92 62.456 0.09 7.05 2.06 8.86
8/24/2022 3:30:00 AM 16.83 62.294 0.09 7.04 1.92 8.89
8/24/2022 3:45:00 AM 16.78 62.204 0.09 7.05 1.76 8.91
8/24/2022 4:00:00 AM 16.72 62.096 0.09 7.05 1.59 8.93
8/24/2022 4:15:00 AM 16.63 61.934 0.09 7.05 1.95 8.96
8/24/2022 4:30:00 AM 16.54 61.772 0.09 7.05 1.69 8.99
8/24/2022 4:45:00 AM 16.47 61.646 0.09 7.06 1.61 9.04
8/24/2022 5:00:00 AM 16.43 61.574 0.09 7.04 1.68 9.02
8/24/2022 5:15:00 AM 16.34 61.412 0.09 7.05 1.37 9.07
8/24/2022 5:30:00 AM 16.25 61.25 0.09 7.05 1.78 9.11
8/24/2022 5:45:00 AM 16.17 61.106 0.09 7.06 1.67 9.11
8/24/2022 6:00:00 AM 16.1 60.98 0.09 7.06 1.5 9.1
8/24/2022 6:15:00 AM 16.01 60.818 0.09 7.06 2.06 9.12
8/24/2022 6:30:00 AM 15.94 60.692 0.09 7.06 2.67 9.17
8/24/2022 6:45:00 AM 15.86 60.548 0.09 7.06 2.43 9.18
8/24/2022 7:00:00 AM 15.77 60.386 0.09 7.06 1.56 9.23
8/24/2022 7:15:00 AM 15.69 60.242 0.09 7.07 1.49 9.28
8/24/2022 7:30:00 AM 15.63 60.134 0.09 7.07 1.74 9.31
8/24/2022 7:45:00 AM 15.59 60.062 0.09 7.08 1.77 9.4
8/24/2022 8:00:00 AM 15.55 59.99 0.09 7.08 1.64 9.4
8/24/2022 8:15:00 AM 15.51 59.918 0.09 7.08 1.64 9.5
8/24/2022 8:30:00 AM 15.48 59.864 0.09 7.09 1.52 9.55
8/24/2022 8:45:00 AM 15.46 59.828 0.09 7.11 2.38 9.64
8/24/2022 9:00:00 AM 15.48 59.864 0.089 7.13 1.47 9.76
8/24/2022 9:15:00 AM 15.56 60.008 0.089 7.16 1.69 9.9
8/24/2022 9:30:00 AM 15.65 60.17 0.089 7.14 1.88 9.94
8/24/2022 9:45:00 AM 15.87 60.566 0.089 7.19 1.67 10.05
8/24/2022 10:00:00 AM 16.1 60.98 0.088 7.17 1.52 10.07
8/24/2022 10:15:00 AM 16.41 61.538 0.088 7.25 1.42 10.26
8/24/2022 10:30:00 AM 16.71 62.078 0.088 7.28 1.6 10.27
8/24/2022 10:45:00 AM 17.06 62.708 0.087 7.3 1.61 10.29
8/24/2022 11:00:00 AM 17.39 63.302 0.087 7.31 2.46 10.28
8/24/2022 11:15:00 AM 17.69 63.842 0.087 7.36 1.87 10.26
8/24/2022 11:30:00 AM 17.98 64.364 0.086 7.35 1.65 10.23
8/24/2022 11:45:00 AM 18.26 64.868 0.086 7.36 1.62 10.12
8/24/2022 12:00:00 PM 18.56 65.408 0.086 7.39 1.48 10.14
8/24/2022 12:15:00 PM 18.9 66.02 0.086 7.42 1.49 10.06
8/24/2022 12:30:00 PM 19.16 66.488 0.085 7.44 1.46 10.07
8/24/2022 12:45:00 PM 19.43 66.974 0.085 7.44 1.49 10.02
8/24/2022 1:00:00 PM 19.64 67.352 0.085 7.48 1.51 9.96
8/24/2022 1:15:00 PM 19.82 67.676 0.085 7.49 1.47 9.95
8/24/2022 1:30:00 PM 20.05 68.09 0.085 7.47 1.4 9.88
8/24/2022 1:45:00 PM 20.21 68.378 0.085 7.47 1.63 9.73
8/24/2022 2:00:00 PM 20.43 68.774 0.085 7.45 1.86 9.67
8/24/2022 2:15:00 PM 20.68 69.224 0.085 7.46 1.44 9.65
8/24/2022 2:30:00 PM 20.9 69.62 0.085 7.5 1.45 9.68
8/24/2022 2:45:00 PM 21.13 70.034 0.085 7.49 1.93 9.66
8/24/2022 3:00:00 PM 21.28 70.304 0.085 7.51 1.48 9.6
8/24/2022 3:15:00 PM 21.37 70.466 0.085 7.5 1.58 9.55
8/24/2022 3:30:00 PM 21.53 70.754 0.085 7.5 1.79 9.49
8/24/2022 3:45:00 PM 21.7 71.06 0.084 7.51 1.77 9.41
8/24/2022 4:00:00 PM 21.78 71.204 0.085 7.47 1.66 9.35
8/24/2022 4:15:00 PM 21.9 71.42 0.085 7.47 1.58 9.28
8/24/2022 4:30:00 PM 21.99 71.582 0.085 7.44 1.69 9.17
8/24/2022 4:45:00 PM 22.05 71.69 0.085 7.48 1.55 9.13
8/24/2022 5:00:00 PM 22.01 71.618 0.085 7.38 1.62 8.99
8/24/2022 5:15:00 PM 21.98 71.564 0.085 7.33 2.29 8.91
8/24/2022 5:30:00 PM 21.87 71.366 0.085 7.28 1.94 8.83
8/24/2022 5:45:00 PM 21.76 71.168 0.085 7.22 2.36 8.65
8/24/2022 6:00:00 PM 21.66 70.988 0.085 7.17 3.23 8.48
8/24/2022 6:15:00 PM 21.53 70.754 0.085 7.18 1.85 8.42
8/24/2022 6:30:00 PM 21.37 70.466 0.085 7.25 1.78 8.56
8/24/2022 6:45:00 PM 21.21 70.17799 0.086 7.2 1.82 8.47
8/24/2022 7:00:00 PM 21.01 69.818 0.086 7.24 1.57 8.56
8/24/2022 7:15:00 PM 20.81 69.458 0.086 7.22 1.92 8.54
8/24/2022 7:30:00 PM 20.58 69.044 0.087 7.21 1.59 8.51
8/24/2022 7:45:00 PM 20.33 68.594 0.087 7.21 1.84 8.55
8/24/2022 8:00:00 PM 20.1 68.18 0.087 7.2 1.67 8.56
8/24/2022 8:15:00 PM 19.89 67.802 0.087 7.19 1.55 8.54
8/24/2022 8:30:00 PM 19.68 67.424 0.088 7.16 1.7 8.49
8/24/2022 8:45:00 PM 19.46 67.028 0.088 7.15 1.66 8.5
8/24/2022 9:00:00 PM 19.24 66.632 0.088 7.14 2.64 8.5
8/24/2022 9:15:00 PM 19.06 66.308 0.089 7.13 2.05 8.51
8/24/2022 9:30:00 PM 18.84 65.912 0.089 7.13 2.21 8.57
8/24/2022 9:45:00 PM 18.64 65.552 0.089 7.13 1.62 8.61
8/24/2022 10:00:00 PM 18.49 65.282 0.089 7.12 1.51 8.62
8/24/2022 10:15:00 PM 18.34 65.012 0.089 7.11 1.59 8.61
8/24/2022 10:30:00 PM 18.16 64.688 0.089 7.11 1.71 8.7
8/24/2022 10:45:00 PM 18.05 64.49 0.09 7.09 1.72 8.67
8/24/2022 11:00:00 PM 17.92 64.256 0.09 7.07 1.55 8.67
8/24/2022 11:15:00 PM 17.78 64.004 0.09 7.09 1.52 8.75
8/24/2022 11:30:00 PM 17.64 63.752 0.09 7.09 1.82 8.67
8/24/2022 11:45:00 PM 17.53 63.554 0.091 7.09 1.49 8.8
8/25/2022 12:00:00 AM 17.42 63.356 0.09 7.09 1.89 8.78
8/25/2022 12:15:00 AM 17.31 63.158 0.09 7.09 1.47 8.86
8/25/2022 12:30:00 AM 17.2 62.96 0.09 7.09 1.51 8.88
8/25/2022 12:45:00 AM 17.06 62.708 0.09 7.09 1.59 8.93
8/25/2022 1:00:00 AM 16.96 62.528 0.09 7.09 1.55 8.94
8/25/2022 1:15:00 AM 16.87 62.366 0.09 7.09 1.42 8.95
8/25/2022 1:30:00 AM 16.76 62.168 0.091 7.09 1.44 8.99
8/25/2022 1:45:00 AM 16.66 61.988 0.091 7.08 1.55 9.01
8/25/2022 2:00:00 AM 16.55 61.79 0.091 7.08 1.52 9.04
8/25/2022 2:15:00 AM 16.47 61.646 0.091 7.07 1.6 9.02
8/25/2022 2:30:00 AM 16.37 61.466 0.091 7.06 1.52 9.05
8/25/2022 2:45:00 AM 16.27 61.286 0.091 7.07 1.55 9.06
8/25/2022 3:00:00 AM 16.17 61.106 0.091 7.06 1.39 9.09
8/25/2022 3:15:00 AM 16.08 60.944 0.091 7.07 1.69 9.1
8/25/2022 3:30:00 AM 15.97 60.746 0.091 7.07 1.65 9.14
8/25/2022 3:45:00 AM 15.88 60.584 0.091 7.07 1.45 9.15
8/25/2022 4:00:00 AM 15.78 60.404 0.091 7.07 1.7 9.18
8/25/2022 4:15:00 AM 15.69 60.242 0.091 7.07 1.54 9.22
8/25/2022 4:30:00 AM 15.58 60.044 0.091 7.07 1.41 9.25
8/25/2022 4:45:00 AM 15.5 59.9 0.091 7.06 1.46 9.27
8/25/2022 5:00:00 AM 15.41 59.738 0.091 7.06 1.52 9.29
8/25/2022 5:15:00 AM 15.33 59.594 0.091 7.06 1.47 9.3
8/25/2022 5:30:00 AM 15.25 59.45 0.091 7.07 1.44 9.33
8/25/2022 5:45:00 AM 15.19 59.342 0.091 7.07 1.45 9.34
8/25/2022 6:00:00 AM 15.14 59.252 0.091 7.07 1.44 9.34
8/25/2022 6:15:00 AM 15.07 59.126 0.091 7.07 1.9 9.38
8/25/2022 6:30:00 AM 15.04 59.072 0.091 7.06 1.43 9.39
8/25/2022 6:45:00 AM 15 59 0.091 7.06 1.49 9.41
8/25/2022 7:00:00 AM 14.96 58.928 0.091 7.06 1.54 9.4
8/25/2022 7:15:00 AM 14.93 58.874 0.091 7.06 1.61 9.37
8/25/2022 7:30:00 AM 14.88 58.784 0.091 7.06 1.53 9.47
8/25/2022 7:45:00 AM 14.83 58.694 0.091 7.08 1.71 9.53
8/25/2022 8:00:00 AM 14.82 58.676 0.091 7.07 1.5 9.56
8/25/2022 8:15:00 AM 14.8 58.64 0.091 7.09 1.58 9.64
8/25/2022 8:30:00 AM 14.78 58.604 0.091 7.1 1.47 9.71
8/25/2022 8:45:00 AM 14.8 58.64 0.091 7.11 1.46 9.77
8/25/2022 9:00:00 AM 14.85 58.73 0.09 7.12 1.48 9.84
8/25/2022 9:15:00 AM 14.93 58.874 0.09 7.1 1.63 9.88
8/25/2022 9:30:00 AM 15.08 59.144 0.09 7.13 1.65 10.06
8/25/2022 9:45:00 AM 15.28 59.504 0.09 7.17 4.3 10.09
8/25/2022 10:00:00 AM 15.53 59.954 0.089 7.21 1.91 10.32
8/25/2022 10:15:00 AM 15.87 60.566 0.089 7.25 1.5 10.41
8/25/2022 10:30:00 AM 16.14 61.052 0.088 7.27 1.52 10.42
8/25/2022 10:45:00 AM 16.53 61.754